Wetterdaten: Freitag, 12.07.2019
Datum Zeit Temp. A. Pool Temp. Temp. 5cm Feuchte A. Luftdruck Regen Wind Richtung Richtung Sonnenschein ET UV Solar Taupunkt Windchill Windben Empfang
12.07.2019 00:00 14,8 C 21,7 C 15,0 C 94 % 1013,7 hPa 0,0 l/m 5,1 km/h (1 Bft) W-SW 239 0 min 0,000 mm 0,0 UV-I 0 W/m 13,8 C 14,8 C 6,4 km/h (2 Bft) 100,00 %
12.07.2019 00:02 14,7 C 21,7 C 15,0 C 94 % 1013,7 hPa 0,0 l/m 5,8 km/h (2 Bft) W-SW 250 0 min 0,000 mm 0,0 UV-I 0 W/m 13,7 C 14,7 C 8,0 km/h (2 Bft) 100,00 %
12.07.2019 00:04 14,8 C 21,7 C 15,0 C 94 % 1013,8 hPa 0,0 l/m 5,2 km/h (1 Bft) W-SW 238 0 min 0,000 mm 0,0 UV-I 0 W/m 13,8 C 14,8 C 6,4 km/h (2 Bft) 93,62 %
12.07.2019 00:06 14,8 C 21,7 C 15,0 C 94 % 1013,7 hPa 0,0 l/m 4,7 km/h (1 Bft) SW 226 0 min 0,000 mm 0,0 UV-I 0 W/m 13,8 C 14,8 C 8,0 km/h (2 Bft) 98,00 %
12.07.2019 00:08 14,8 C 21,7 C 15,0 C 94 % 1013,7 hPa 0,0 l/m 5,2 km/h (1 Bft) W-SW 240 0 min 0,000 mm 0,0 UV-I 0 W/m 13,8 C 14,8 C 6,4 km/h (2 Bft) 97,87 %
12.07.2019 00:10 14,8 C 21,7 C 15,0 C 94 % 1013,7 hPa 0,0 l/m 5,1 km/h (1 Bft) SW 234 0 min 0,000 mm 0,0 UV-I 0 W/m 13,8 C 14,8 C 8,0 km/h (2 Bft) 100,00 %
12.07.2019 00:12 14,8 C 21,7 C 15,0 C 94 % 1013,7 hPa 0,0 l/m 4,2 km/h (1 Bft) SW 215 0 min 0,000 mm 0,0 UV-I 0 W/m 13,8 C 14,8 C 6,4 km/h (2 Bft) 95,74 %
12.07.2019 00:14 14,8 C 21,7 C 15,0 C 94 % 1013,7 hPa 0,0 l/m 5,8 km/h (2 Bft) SW 217 0 min 0,000 mm 0,0 UV-I 0 W/m 13,8 C 14,8 C 8,0 km/h (2 Bft) 97,22 %
12.07.2019 00:16 14,8 C 21,7 C 15,0 C 94 % 1013,7 hPa 0,0 l/m 6,3 km/h (2 Bft) SW 233 0 min 0,000 mm 0,0 UV-I 0 W/m 13,8 C 14,8 C 11,3 km/h (2 Bft) 100,00 %
12.07.2019 00:18 14,7 C 21,7 C 15,0 C 94 % 1013,7 hPa 0,0 l/m 7,3 km/h (2 Bft) W-SW 239 0 min 0,000 mm 0,0 UV-I 0 W/m 13,7 C 14,2 C 9,7 km/h (2 Bft) 100,00 %
12.07.2019 00:20 14,7 C 21,7 C 15,0 C 94 % 1013,6 hPa 0,0 l/m 6,4 km/h (2 Bft) W-SW 238 0 min 0,000 mm 0,0 UV-I 0 W/m 13,7 C 14,7 C 9,7 km/h (2 Bft) 100,00 %
12.07.2019 00:22 14,7 C 21,7 C 15,0 C 94 % 1013,7 hPa 0,0 l/m 6,4 km/h (2 Bft) SW 229 0 min 0,000 mm 0,0 UV-I 0 W/m 13,7 C 14,7 C 9,7 km/h (2 Bft) 100,00 %
12.07.2019 00:24 14,7 C 21,7 C 15,0 C 94 % 1013,7 hPa 0,0 l/m 6,1 km/h (2 Bft) SW 225 0 min 0,000 mm 0,0 UV-I 0 W/m 13,7 C 14,7 C 9,7 km/h (2 Bft) 100,00 %
12.07.2019 00:26 14,7 C 21,7 C 15,0 C 94 % 1013,7 hPa 0,0 l/m 6,6 km/h (2 Bft) SW 218 0 min 0,000 mm 0,0 UV-I 0 W/m 13,7 C 14,6 C 9,7 km/h (2 Bft) 100,00 %
12.07.2019 00:28 14,6 C 21,7 C 15,0 C 94 % 1013,6 hPa 0,0 l/m 6,1 km/h (2 Bft) SW 229 0 min 0,000 mm 0,0 UV-I 0 W/m 13,6 C 14,6 C 8,0 km/h (2 Bft) 100,00 %
12.07.2019 00:30 14,6 C 21,7 C 15,0 C 94 % 1013,7 hPa 0,0 l/m 6,2 km/h (2 Bft) W-SW 242 0 min 0,000 mm 0,0 UV-I 0 W/m 13,6 C 14,6 C 8,0 km/h (2 Bft) 100,00 %
12.07.2019 00:32 14,6 C 21,7 C 15,0 C 94 % 1013,6 hPa 0,0 l/m 5,1 km/h (1 Bft) SW 218 0 min 0,000 mm 0,0 UV-I 0 W/m 13,6 C 14,6 C 8,0 km/h (2 Bft) 100,00 %
12.07.2019 00:34 14,6 C 21,7 C 14,4 C 94 % 1013,6 hPa 0,0 l/m 6,7 km/h (2 Bft) SW 223 0 min 0,000 mm 0,0 UV-I 0 W/m 13,6 C 14,4 C 9,7 km/h (2 Bft) 95,74 %
12.07.2019 00:36 14,6 C 21,7 C 15,0 C 94 % 1013,6 hPa 0,0 l/m 6,1 km/h (2 Bft) W-SW 237 0 min 0,000 mm 0,0 UV-I 0 W/m 13,6 C 14,6 C 8,0 km/h (2 Bft) 97,87 %
12.07.2019 00:38 14,6 C 21,7 C 15,0 C 94 % 1013,6 hPa 0,0 l/m 4,8 km/h (1 Bft) SW 228 0 min 0,000 mm 0,0 UV-I 0 W/m 13,6 C 14,6 C 8,0 km/h (2 Bft) 100,00 %
12.07.2019 00:40 14,6 C 21,7 C 15,0 C 94 % 1013,6 hPa 0,0 l/m 5,9 km/h (2 Bft) SW 231 0 min 0,000 mm 0,0 UV-I 0 W/m 13,6 C 14,6 C 8,0 km/h (2 Bft) 100,00 %
12.07.2019 00:42 14,6 C 21,7 C 15,0 C 94 % 1013,6 hPa 0,0 l/m 6,6 km/h (2 Bft) S-SW 206 0 min 0,000 mm 0,0 UV-I 0 W/m 13,6 C 14,5 C 9,7 km/h (2 Bft) 93,62 %
12.07.2019 00:44 14,6 C 21,7 C 15,0 C 94 % 1013,6 hPa 0,0 l/m 6,2 km/h (2 Bft) SW 227 0 min 0,000 mm 0,0 UV-I 0 W/m 13,6 C 14,6 C 8,0 km/h (2 Bft) 93,62 %
12.07.2019 00:46 14,6 C 21,7 C 15,0 C 94 % 1013,6 hPa 0,0 l/m 6,0 km/h (2 Bft) W-SW 240 0 min 0,000 mm 0,0 UV-I 0 W/m 13,6 C 14,6 C 11,3 km/h (2 Bft) 95,74 %
12.07.2019 00:48 14,7 C 21,7 C 15,0 C 94 % 1013,6 hPa 0,0 l/m 4,5 km/h (1 Bft) SW 214 0 min 0,000 mm 0,0 UV-I 0 W/m 13,7 C 14,7 C 9,7 km/h (2 Bft) 96,00 %
12.07.2019 00:50 14,7 C 21,7 C 15,0 C 94 % 1013,5 hPa 0,0 l/m 6,0 km/h (2 Bft) SW 227 0 min 0,000 mm 0,0 UV-I 0 W/m 13,7 C 14,7 C 8,0 km/h (2 Bft) 98,00 %
12.07.2019 00:52 14,7 C 21,7 C 15,0 C 94 % 1013,6 hPa 0,0 l/m 5,3 km/h (1 Bft) S-SW 211 0 min 0,000 mm 0,0 UV-I 0 W/m 13,7 C 14,7 C 8,0 km/h (2 Bft) 95,74 %
12.07.2019 00:54 14,6 C 21,7 C 15,0 C 94 % 1013,6 hPa 0,0 l/m 5,4 km/h (1 Bft) SW 223 0 min 0,000 mm 0,0 UV-I 0 W/m 13,6 C 14,6 C 9,7 km/h (2 Bft) 95,83 %
12.07.2019 00:56 14,6 C 21,7 C 15,0 C 94 % 1013,5 hPa 0,0 l/m 3,7 km/h (1 Bft) SW 216 0 min 0,000 mm 0,0 UV-I 0 W/m 13,6 C 14,6 C 4,8 km/h (1 Bft) 97,87 %
12.07.2019 00:58 14,6 C 21,7 C 15,0 C 94 % 1013,5 hPa 0,0 l/m 4,2 km/h (1 Bft) SW 230 0 min 0,000 mm 0,0 UV-I 0 W/m 13,6 C 14,6 C 8,0 km/h (2 Bft) 98,00 %
12.07.2019 01:00 14,6 C 21,7 C 15,0 C 94 % 1013,5 hPa 0,0 l/m 4,8 km/h (1 Bft) S-SW 213 0 min 0,000 mm 0,0 UV-I 0 W/m 13,6 C 14,6 C 6,4 km/h (2 Bft) 95,74 %
12.07.2019 01:02 14,6 C 21,7 C 15,0 C 95 % 1013,5 hPa 0,0 l/m 6,3 km/h (2 Bft) SW 222 0 min 0,000 mm 0,0 UV-I 0 W/m 13,8 C 14,6 C 11,3 km/h (2 Bft) 95,74 %
12.07.2019 01:04 14,7 C 21,7 C 15,0 C 95 % 1013,5 hPa 0,0 l/m 4,9 km/h (1 Bft) S-SW 206 0 min 0,000 mm 0,0 UV-I 0 W/m 13,9 C 14,7 C 8,0 km/h (2 Bft) 93,62 %
12.07.2019 01:06 14,6 C 21,7 C 15,0 C 94 % 1013,5 hPa 0,0 l/m 5,1 km/h (1 Bft) W-SW 242 0 min 0,000 mm 0,0 UV-I 0 W/m 13,6 C 14,6 C 8,0 km/h (2 Bft) 97,14 %
12.07.2019 01:08 14,6 C 21,7 C 15,0 C 94 % 1013,4 hPa 0,0 l/m 4,4 km/h (1 Bft) W-SW 237 0 min 0,000 mm 0,0 UV-I 0 W/m 13,6 C 14,6 C 6,4 km/h (2 Bft) 97,87 %
12.07.2019 01:10 14,6 C 21,7 C 15,0 C 94 % 1013,4 hPa 0,0 l/m 5,5 km/h (1 Bft) W-SW 238 0 min 0,000 mm 0,0 UV-I 0 W/m 13,6 C 14,6 C 9,7 km/h (2 Bft) 97,87 %
12.07.2019 01:12 14,7 C 21,7 C 15,0 C 95 % 1013,4 hPa 0,0 l/m 5,5 km/h (1 Bft) SW 221 0 min 0,000 mm 0,0 UV-I 0 W/m 13,9 C 14,7 C 8,0 km/h (2 Bft) 95,74 %
12.07.2019 01:14 14,7 C 21,7 C 15,0 C 94 % 1013,4 hPa 0,2 l/m 5,6 km/h (1 Bft) W-SW 240 0 min 0,000 mm 0,0 UV-I 0 W/m 13,7 C 14,7 C 8,0 km/h (2 Bft) 95,74 %
12.07.2019 01:16 14,6 C 21,7 C 15,0 C 94 % 1013,3 hPa 0,0 l/m 4,9 km/h (1 Bft) SW 227 0 min 0,000 mm 0,0 UV-I 0 W/m 13,6 C 14,6 C 8,0 km/h (2 Bft) 97,87 %
12.07.2019 01:18 14,6 C 21,7 C 15,0 C 94 % 1013,3 hPa 0,0 l/m 6,9 km/h (2 Bft) W-SW 243 0 min 0,000 mm 0,0 UV-I 0 W/m 13,6 C 14,3 C 12,9 km/h (3 Bft) 94,00 %
12.07.2019 01:20 14,7 C 21,7 C 15,0 C 94 % 1013,3 hPa 0,0 l/m 5,6 km/h (1 Bft) W-SW 237 0 min 0,000 mm 0,0 UV-I 0 W/m 13,7 C 14,7 C 8,0 km/h (2 Bft) 93,62 %
12.07.2019 01:22 14,6 C 21,7 C 15,0 C 94 % 1013,3 hPa 0,0 l/m 5,6 km/h (1 Bft) SW 230 0 min 0,000 mm 0,0 UV-I 0 W/m 13,6 C 14,6 C 8,0 km/h (2 Bft) 97,87 %
12.07.2019 01:24 14,7 C 21,7 C 15,0 C 94 % 1013,3 hPa 0,0 l/m 6,9 km/h (2 Bft) S-SW 211 0 min 0,000 mm 0,0 UV-I 0 W/m 13,7 C 14,4 C 9,7 km/h (2 Bft) 95,74 %
12.07.2019 01:26 14,7 C 21,7 C 15,0 C 94 % 1013,3 hPa 0,0 l/m 5,6 km/h (1 Bft) SW 234 0 min 0,000 mm 0,0 UV-I 0 W/m 13,7 C 14,7 C 8,0 km/h (2 Bft) 97,87 %
12.07.2019 01:28 14,7 C 21,7 C 15,0 C 94 % 1013,3 hPa 0,0 l/m 7,1 km/h (2 Bft) W-SW 242 0 min 0,000 mm 0,0 UV-I 0 W/m 13,7 C 14,3 C 12,9 km/h (3 Bft) 97,87 %
12.07.2019 01:30 14,7 C 21,7 C 15,0 C 95 % 1013,3 hPa 0,0 l/m 6,3 km/h (2 Bft) W-SW 239 0 min 0,000 mm 0,0 UV-I 0 W/m 13,9 C 14,7 C 11,3 km/h (2 Bft) 97,92 %
12.07.2019 01:32 14,7 C 21,7 C 15,0 C 95 % 1013,3 hPa 0,0 l/m 6,6 km/h (2 Bft) S-SW 211 0 min 0,000 mm 0,0 UV-I 0 W/m 13,9 C 14,6 C 11,3 km/h (2 Bft) 95,74 %
12.07.2019 01:34 14,7 C 21,7 C 15,0 C 95 % 1013,2 hPa 0,0 l/m 8,0 km/h (2 Bft) W-SW 246 0 min 0,000 mm 0,0 UV-I 0 W/m 13,9 C 13,8 C 11,3 km/h (2 Bft) 95,74 %
12.07.2019 01:36 14,7 C 21,7 C 15,0 C 95 % 1013,3 hPa 0,0 l/m 6,7 km/h (2 Bft) W-SW 238 0 min 0,000 mm 0,0 UV-I 0 W/m 13,9 C 14,5 C 11,3 km/h (2 Bft) 100,00 %
12.07.2019 01:38 14,7 C 21,7 C 15,0 C 95 % 1013,3 hPa 0,0 l/m 6,5 km/h (2 Bft) W-SW 240 0 min 0,000 mm 0,0 UV-I 0 W/m 13,9 C 14,7 C 9,7 km/h (2 Bft) 97,87 %
12.07.2019 01:40 14,7 C 21,7 C 15,0 C 95 % 1013,2 hPa 0,0 l/m 6,8 km/h (2 Bft) W-SW 244 0 min 0,000 mm 0,0 UV-I 0 W/m 13,9 C 14,5 C 11,3 km/h (2 Bft) 97,87 %
12.07.2019 01:42 14,7 C 21,7 C 15,0 C 95 % 1013,2 hPa 0,0 l/m 8,5 km/h (2 Bft) SW 235 0 min 0,000 mm 0,0 UV-I 0 W/m 13,9 C 13,5 C 12,9 km/h (3 Bft) 95,74 %
12.07.2019 01:44 14,7 C 21,7 C 15,0 C 95 % 1013,2 hPa 0,0 l/m 6,5 km/h (2 Bft) W-SW 238 0 min 0,000 mm 0,0 UV-I 0 W/m 13,9 C 14,7 C 9,7 km/h (2 Bft) 97,87 %
12.07.2019 01:46 14,7 C 21,7 C 15,0 C 95 % 1013,1 hPa 0,0 l/m 5,3 km/h (1 Bft) W-SW 244 0 min 0,000 mm 0,0 UV-I 0 W/m 13,9 C 14,7 C 9,7 km/h (2 Bft) 93,62 %
12.07.2019 01:48 14,7 C 21,7 C 15,0 C 95 % 1013,1 hPa 0,0 l/m 6,6 km/h (2 Bft) W-SW 245 0 min 0,000 mm 0,0 UV-I 0 W/m 13,9 C 14,6 C 9,7 km/h (2 Bft) 97,87 %
12.07.2019 01:50 14,7 C 21,7 C 15,0 C 95 % 1013,1 hPa 0,0 l/m 6,1 km/h (2 Bft) S-SW 194 0 min 0,000 mm 0,0 UV-I 0 W/m 13,9 C 14,7 C 9,7 km/h (2 Bft) 93,62 %
12.07.2019 01:52 14,7 C 21,7 C 15,0 C 95 % 1013,1 hPa 0,0 l/m 6,6 km/h (2 Bft) SW 233 0 min 0,000 mm 0,0 UV-I 0 W/m 13,9 C 14,6 C 9,7 km/h (2 Bft) 95,74 %
12.07.2019 01:54 14,6 C 21,7 C 15,0 C 95 % 1013,1 hPa 0,0 l/m 5,8 km/h (2 Bft) SW 235 0 min 0,000 mm 0,0 UV-I 0 W/m 13,8 C 14,6 C 8,0 km/h (2 Bft) 97,87 %
12.07.2019 01:56 14,6 C 21,7 C 14,4 C 95 % 1013,1 hPa 0,0 l/m 5,5 km/h (1 Bft) W-SW 240 0 min 0,000 mm 0,0 UV-I 0 W/m 13,8 C 14,6 C 8,0 km/h (2 Bft) 95,12 %
12.07.2019 01:58 14,6 C 21,7 C 14,4 C 95 % 1013,1 hPa 0,0 l/m 5,0 km/h (1 Bft) SW 234 0 min 0,000 mm 0,0 UV-I 0 W/m 13,8 C 14,6 C 8,0 km/h (2 Bft) 97,87 %
12.07.2019 02:00 14,6 C 21,7 C 14,4 C 95 % 1013,1 hPa 0,2 l/m 5,6 km/h (1 Bft) W-SW 244 0 min 0,000 mm 0,0 UV-I 0 W/m 13,8 C 14,6 C 8,0 km/h (2 Bft) 97,87 %
12.07.2019 02:02 14,6 C 21,7 C 15,0 C 95 % 1013,1 hPa 0,0 l/m 7,8 km/h (2 Bft) S-SW 200 0 min 0,000 mm 0,0 UV-I 0 W/m 13,8 C 13,8 C 14,5 km/h (3 Bft) 97,87 %
12.07.2019 02:04 14,6 C 21,7 C 15,0 C 95 % 1013,1 hPa 0,0 l/m 6,0 km/h (2 Bft) SW 217 0 min 0,000 mm 0,0 UV-I 0 W/m 13,8 C 14,6 C 11,3 km/h (2 Bft) 97,87 %
12.07.2019 02:06 14,6 C 21,7 C 15,0 C 95 % 1013,1 hPa 0,0 l/m 8,9 km/h (2 Bft) W-SW 243 0 min 0,000 mm 0,0 UV-I 0 W/m 13,8 C 13,2 C 14,5 km/h (3 Bft) 92,00 %
12.07.2019 02:08 14,6 C 21,7 C 14,4 C 95 % 1013,1 hPa 0,0 l/m 8,0 km/h (2 Bft) SW 225 0 min 0,000 mm 0,0 UV-I 0 W/m 13,8 C 13,7 C 16,1 km/h (3 Bft) 91,49 %
12.07.2019 02:10 14,5 C 21,7 C 14,4 C 94 % 1013,0 hPa 0,2 l/m 10,4 km/h (2 Bft) W-SW 254 0 min 0,000 mm 0,0 UV-I 0 W/m 13,5 C 12,4 C 16,1 km/h (3 Bft) 95,83 %
12.07.2019 02:12 14,5 C 21,7 C 14,4 C 94 % 1013,0 hPa 0,0 l/m 9,8 km/h (2 Bft) W-SW 252 0 min 0,000 mm 0,0 UV-I 0 W/m 13,5 C 12,7 C 16,1 km/h (3 Bft) 94,00 %
12.07.2019 02:14 14,5 C 21,7 C 14,4 C 94 % 1013,0 hPa 0,0 l/m 11,8 km/h (2 Bft) SW 221 0 min 0,000 mm 0,0 UV-I 0 W/m 13,5 C 11,8 C 19,3 km/h (3 Bft) 97,87 %
12.07.2019 02:16 14,5 C 21,7 C 14,4 C 94 % 1013,0 hPa 0,0 l/m 10,9 km/h (2 Bft) SW 232 0 min 0,000 mm 0,0 UV-I 0 W/m 13,5 C 12,2 C 16,1 km/h (3 Bft) 94,74 %
12.07.2019 02:18 14,4 C 21,7 C 14,4 C 94 % 1013,0 hPa 0,0 l/m 10,6 km/h (2 Bft) W-SW 238 0 min 0,000 mm 0,0 UV-I 0 W/m 13,4 C 12,2 C 14,5 km/h (3 Bft) 91,49 %
12.07.2019 02:20 14,4 C 21,7 C 14,4 C 94 % 1013,0 hPa 0,0 l/m 9,9 km/h (2 Bft) W-SW 239 0 min 0,000 mm 0,0 UV-I 0 W/m 13,4 C 12,5 C 16,1 km/h (3 Bft) 93,62 %
12.07.2019 02:22 14,3 C 21,7 C 14,4 C 94 % 1013,0 hPa 0,0 l/m 10,8 km/h (2 Bft) W-SW 250 0 min 0,000 mm 0,0 UV-I 0 W/m 13,3 C 12,0 C 14,5 km/h (3 Bft) 95,74 %
12.07.2019 02:24 14,3 C 21,7 C 14,4 C 94 % 1013,0 hPa 0,0 l/m 9,2 km/h (2 Bft) W-SW 252 0 min 0,000 mm 0,0 UV-I 0 W/m 13,3 C 12,7 C 12,9 km/h (3 Bft) 91,49 %
12.07.2019 02:26 14,3 C 21,7 C 14,4 C 94 % 1013,0 hPa 0,0 l/m 8,1 km/h (2 Bft) W-SW 242 0 min 0,000 mm 0,0 UV-I 0 W/m 13,3 C 13,3 C 14,5 km/h (3 Bft) 93,62 %
12.07.2019 02:28 14,3 C 21,7 C 14,4 C 94 % 1013,0 hPa 0,0 l/m 10,1 km/h (2 Bft) W-SW 238 0 min 0,000 mm 0,0 UV-I 0 W/m 13,3 C 12,3 C 17,7 km/h (3 Bft) 93,62 %
12.07.2019 02:30 14,3 C 21,7 C 14,4 C 95 % 1012,9 hPa 0,0 l/m 9,3 km/h (2 Bft) SW 228 0 min 0,000 mm 0,0 UV-I 0 W/m 13,5 C 12,7 C 16,1 km/h (3 Bft) 94,34 %
12.07.2019 02:32 14,3 C 21,7 C 14,4 C 95 % 1012,9 hPa 0,0 l/m 8,9 km/h (2 Bft) SW 225 0 min 0,000 mm 0,0 UV-I 0 W/m 13,5 C 12,9 C 14,5 km/h (3 Bft) 97,87 %
12.07.2019 02:34 14,2 C 21,7 C 14,4 C 95 % 1012,9 hPa 0,0 l/m 7,2 km/h (2 Bft) SW 219 0 min 0,000 mm 0,0 UV-I 0 W/m 13,4 C 13,7 C 11,3 km/h (2 Bft) 97,37 %
12.07.2019 02:36 14,2 C 21,7 C 14,4 C 95 % 1013,0 hPa 0,0 l/m 7,5 km/h (2 Bft) SW 216 0 min 0,000 mm 0,0 UV-I 0 W/m 13,4 C 13,5 C 11,3 km/h (2 Bft) 97,92 %
12.07.2019 02:38 14,2 C 21,7 C 14,4 C 95 % 1012,9 hPa 0,2 l/m 6,9 km/h (2 Bft) SW 215 0 min 0,000 mm 0,0 UV-I 0 W/m 13,4 C 13,9 C 11,3 km/h (2 Bft) 97,87 %
12.07.2019 02:40 14,2 C 21,7 C 14,4 C 94 % 1012,9 hPa 0,0 l/m 9,4 km/h (2 Bft) W-SW 237 0 min 0,000 mm 0,0 UV-I 0 W/m 13,2 C 12,5 C 16,1 km/h (3 Bft) 98,00 %
12.07.2019 02:42 14,2 C 21,7 C 14,4 C 94 % 1012,9 hPa 0,0 l/m 9,0 km/h (2 Bft) W-SW 246 0 min 0,000 mm 0,0 UV-I 0 W/m 13,2 C 12,7 C 12,9 km/h (3 Bft) 97,92 %
12.07.2019 02:44 14,2 C 21,7 C 14,4 C 94 % 1012,9 hPa 0,0 l/m 10,4 km/h (2 Bft) SW 231 0 min 0,000 mm 0,0 UV-I 0 W/m 13,2 C 12,0 C 16,1 km/h (3 Bft) 100,00 %
12.07.2019 02:46 14,1 C 21,7 C 14,4 C 94 % 1012,8 hPa 0,0 l/m 8,5 km/h (2 Bft) S-SW 208 0 min 0,000 mm 0,0 UV-I 0 W/m 13,1 C 12,9 C 14,5 km/h (3 Bft) 100,00 %
12.07.2019 02:48 14,1 C 21,7 C 14,4 C 94 % 1012,9 hPa 0,0 l/m 7,9 km/h (2 Bft) W-SW 253 0 min 0,000 mm 0,0 UV-I 0 W/m 13,1 C 13,2 C 12,9 km/h (3 Bft) 97,87 %
12.07.2019 02:50 14,1 C 21,7 C 14,4 C 94 % 1012,9 hPa 0,0 l/m 11,1 km/h (2 Bft) SW 225 0 min 0,000 mm 0,0 UV-I 0 W/m 13,1 C 11,6 C 17,7 km/h (3 Bft) 100,00 %
12.07.2019 02:52 14,1 C 21,7 C 14,4 C 95 % 1012,9 hPa 0,0 l/m 9,9 km/h (2 Bft) W 264 0 min 0,000 mm 0,0 UV-I 0 W/m 13,3 C 12,2 C 14,5 km/h (3 Bft) 98,04 %
12.07.2019 02:54 14,1 C 21,7 C 14,4 C 95 % 1012,8 hPa 0,0 l/m 11,7 km/h (2 Bft) W-SW 245 0 min 0,000 mm 0,0 UV-I 0 W/m 13,3 C 11,4 C 17,7 km/h (3 Bft) 100,00 %
12.07.2019 02:56 14,1 C 21,7 C 14,4 C 95 % 1012,8 hPa 0,0 l/m 9,9 km/h (2 Bft) W-SW 243 0 min 0,000 mm 0,0 UV-I 0 W/m 13,3 C 12,2 C 14,5 km/h (3 Bft) 100,00 %
12.07.2019 02:58 14,1 C 21,7 C 14,4 C 95 % 1012,8 hPa 0,2 l/m 8,5 km/h (2 Bft) SW 228 0 min 0,000 mm 0,0 UV-I 0 W/m 13,3 C 12,9 C 12,9 km/h (3 Bft) 100,00 %
12.07.2019 03:00 14,1 C 21,7 C 14,4 C 95 % 1012,8 hPa 0,0 l/m 7,9 km/h (2 Bft) SW 225 0 min 0,000 mm 0,0 UV-I 0 W/m 13,3 C 13,2 C 12,9 km/h (3 Bft) 100,00 %
12.07.2019 03:02 14,1 C 21,7 C 14,4 C 95 % 1012,7 hPa 0,0 l/m 9,9 km/h (2 Bft) W-SW 248 0 min 0,000 mm 0,0 UV-I 0 W/m 13,3 C 12,2 C 16,1 km/h (3 Bft) 97,92 %
12.07.2019 03:04 14,0 C 21,7 C 14,4 C 95 % 1012,7 hPa 0,0 l/m 8,8 km/h (2 Bft) W-SW 245 0 min 0,000 mm 0,0 UV-I 0 W/m 13,2 C 12,6 C 12,9 km/h (3 Bft) 97,87 %
12.07.2019 03:06 14,0 C 21,7 C 14,4 C 95 % 1012,7 hPa 0,0 l/m 8,6 km/h (2 Bft) W-SW 242 0 min 0,000 mm 0,0 UV-I 0 W/m 13,2 C 12,7 C 12,9 km/h (3 Bft) 100,00 %
12.07.2019 03:08 14,0 C 21,7 C 13,9 C 95 % 1012,7 hPa 0,0 l/m 8,6 km/h (2 Bft) SW 231 0 min 0,000 mm 0,0 UV-I 0 W/m 13,2 C 12,7 C 14,5 km/h (3 Bft) 98,00 %
12.07.2019 03:10 14,0 C 21,7 C 14,4 C 95 % 1012,7 hPa 0,0 l/m 5,8 km/h (2 Bft) W 259 0 min 0,000 mm 0,0 UV-I 0 W/m 13,2 C 14,0 C 8,0 km/h (2 Bft) 94,74 %
12.07.2019 03:12 14,0 C 21,7 C 14,4 C 95 % 1012,7 hPa 0,0 l/m 7,9 km/h (2 Bft) W-SW 240 0 min 0,000 mm 0,0 UV-I 0 W/m 13,2 C 13,1 C 14,5 km/h (3 Bft) 97,87 %
12.07.2019 03:14 14,0 C 21,7 C 14,4 C 95 % 1012,6 hPa 0,0 l/m 10,7 km/h (2 Bft) W-SW 249 0 min 0,000 mm 0,0 UV-I 0 W/m 13,2 C 11,7 C 19,3 km/h (3 Bft) 100,00 %
12.07.2019 03:16 14,0 C 21,7 C 14,4 C 95 % 1012,7 hPa 0,0 l/m 7,3 km/h (2 Bft) SW 236 0 min 0,000 mm 0,0 UV-I 0 W/m 13,2 C 13,5 C 12,9 km/h (3 Bft) 96,00 %
12.07.2019 03:18 14,0 C 21,7 C 14,4 C 95 % 1012,7 hPa 0,0 l/m 7,9 km/h (2 Bft) W-SW 242 0 min 0,000 mm 0,0 UV-I 0 W/m 13,2 C 13,1 C 11,3 km/h (2 Bft) 95,74 %
12.07.2019 03:20 14,0 C 21,7 C 14,4 C 95 % 1012,6 hPa 0,0 l/m 7,6 km/h (2 Bft) W-SW 242 0 min 0,000 mm 0,0 UV-I 0 W/m 13,2 C 13,3 C 11,3 km/h (2 Bft) 95,83 %
12.07.2019 03:22 14,1 C 21,7 C 14,4 C 95 % 1012,6 hPa 0,0 l/m 6,1 km/h (2 Bft) SW 233 0 min 0,000 mm 0,0 UV-I 0 W/m 13,3 C 14,1 C 11,3 km/h (2 Bft) 97,44 %
12.07.2019 03:24 14,0 C 21,7 C 14,4 C 95 % 1012,6 hPa 0,0 l/m 6,9 km/h (2 Bft) W-SW 244 0 min 0,000 mm 0,0 UV-I 0 W/m 13,2 C 13,7 C 12,9 km/h (3 Bft) 97,87 %
12.07.2019 03:26 14,0 C 21,7 C 13,9 C 95 % 1012,6 hPa 0,0 l/m 7,6 km/h (2 Bft) W 273 0 min 0,000 mm 0,0 UV-I 0 W/m 13,2 C 13,3 C 14,5 km/h (3 Bft) 93,62 %
12.07.2019 03:28 14,0 C 21,7 C 14,4 C 95 % 1012,6 hPa 0,0 l/m 7,7 km/h (2 Bft) W-SW 240 0 min 0,000 mm 0,0 UV-I 0 W/m 13,2 C 13,2 C 12,9 km/h (3 Bft) 98,11 %
12.07.2019 03:30 14,1 C 21,7 C 14,4 C 95 % 1012,6 hPa 0,0 l/m 7,4 km/h (2 Bft) W-SW 240 0 min 0,000 mm 0,0 UV-I 0 W/m 13,3 C 13,5 C 11,3 km/h (2 Bft) 97,87 %
12.07.2019 03:32 14,1 C 21,7 C 13,9 C 94 % 1012,6 hPa 0,0 l/m 7,5 km/h (2 Bft) W 261 0 min 0,000 mm 0,0 UV-I 0 W/m 13,1 C 13,4 C 12,9 km/h (3 Bft) 97,87 %
12.07.2019 03:34 14,1 C 21,7 C 13,9 C 94 % 1012,5 hPa 0,0 l/m 7,6 km/h (2 Bft) W-SW 239 0 min 0,000 mm 0,0 UV-I 0 W/m 13,1 C 13,4 C 14,5 km/h (3 Bft) 95,74 %
12.07.2019 03:36 14,1 C 21,7 C 13,9 C 94 % 1012,5 hPa 0,0 l/m 8,2 km/h (2 Bft) SW 236 0 min 0,000 mm 0,0 UV-I 0 W/m 13,1 C 13,0 C 11,3 km/h (2 Bft) 93,62 %
12.07.2019 03:38 14,1 C 21,7 C 14,4 C 94 % 1012,5 hPa 0,0 l/m 6,6 km/h (2 Bft) W-SW 250 0 min 0,000 mm 0,0 UV-I 0 W/m 13,1 C 14,0 C 9,7 km/h (2 Bft) 95,74 %
12.07.2019 03:40 14,1 C 21,7 C 14,4 C 94 % 1012,5 hPa 0,0 l/m 5,9 km/h (2 Bft) SW 233 0 min 0,000 mm 0,0 UV-I 0 W/m 13,1 C 14,1 C 9,7 km/h (2 Bft) 95,74 %
12.07.2019 03:42 14,1 C 21,7 C 14,4 C 94 % 1012,5 hPa 0,0 l/m 7,5 km/h (2 Bft) W-SW 244 0 min 0,000 mm 0,0 UV-I 0 W/m 13,1 C 13,4 C 12,9 km/h (3 Bft) 97,87 %
12.07.2019 03:44 14,1 C 21,7 C 14,4 C 94 % 1012,5 hPa 0,0 l/m 7,0 km/h (2 Bft) W-SW 239 0 min 0,000 mm 0,0 UV-I 0 W/m 13,1 C 13,7 C 11,3 km/h (2 Bft) 97,87 %
12.07.2019 03:46 14,1 C 21,7 C 14,4 C 94 % 1012,5 hPa 0,0 l/m 6,1 km/h (2 Bft) W-SW 249 0 min 0,000 mm 0,0 UV-I 0 W/m 13,1 C 14,1 C 9,7 km/h (2 Bft) 97,87 %
12.07.2019 03:48 14,1 C 21,7 C 14,4 C 94 % 1012,5 hPa 0,0 l/m 7,2 km/h (2 Bft) SW 226 0 min 0,000 mm 0,0 UV-I 0 W/m 13,1 C 13,6 C 11,3 km/h (2 Bft) 97,96 %
12.07.2019 03:50 14,2 C 21,7 C 14,4 C 94 % 1012,5 hPa 0,0 l/m 6,3 km/h (2 Bft) W-SW 238 0 min 0,000 mm 0,0 UV-I 0 W/m 13,2 C 14,2 C 8,0 km/h (2 Bft) 95,74 %
12.07.2019 03:52 14,1 C 21,7 C 14,4 C 94 % 1012,5 hPa 0,0 l/m 6,4 km/h (2 Bft) W 261 0 min 0,000 mm 0,0 UV-I 0 W/m 13,1 C 14,1 C 11,3 km/h (2 Bft) 95,74 %
12.07.2019 03:54 14,1 C 21,1 C 14,4 C 94 % 1012,5 hPa 0,0 l/m 7,3 km/h (2 Bft) W 261 0 min 0,000 mm 0,0 UV-I 0 W/m 13,1 C 13,6 C 9,7 km/h (2 Bft) 97,87 %
12.07.2019 03:56 14,1 C 21,7 C 14,4 C 94 % 1012,5 hPa 0,0 l/m 5,8 km/h (2 Bft) W-SW 241 0 min 0,000 mm 0,0 UV-I 0 W/m 13,1 C 14,1 C 9,7 km/h (2 Bft) 100,00 %
12.07.2019 03:58 14,1 C 21,7 C 14,4 C 94 % 1012,5 hPa 0,0 l/m 5,4 km/h (1 Bft) W-SW 238 0 min 0,000 mm 0,0 UV-I 0 W/m 13,1 C 14,1 C 8,0 km/h (2 Bft) 98,15 %
12.07.2019 04:00 14,1 C 21,1 C 14,4 C 95 % 1012,4 hPa 0,0 l/m 6,4 km/h (2 Bft) S-SW 209 0 min 0,000 mm 0,0 UV-I 0 W/m 13,3 C 14,1 C 9,7 km/h (2 Bft) 100,00 %
12.07.2019 04:02 14,1 C 21,1 C 14,4 C 95 % 1012,5 hPa 0,0 l/m 7,9 km/h (2 Bft) W 262 0 min 0,000 mm 0,0 UV-I 0 W/m 13,3 C 13,2 C 12,9 km/h (3 Bft) 100,00 %
12.07.2019 04:04 14,1 C 21,1 C 14,4 C 95 % 1012,5 hPa 0,2 l/m 6,2 km/h (2 Bft) W-SW 248 0 min 0,000 mm 0,0 UV-I 0 W/m 13,3 C 14,1 C 8,0 km/h (2 Bft) 100,00 %
12.07.2019 04:06 14,1 C 21,1 C 14,4 C 95 % 1012,4 hPa 0,0 l/m 6,0 km/h (2 Bft) W-SW 242 0 min 0,000 mm 0,0 UV-I 0 W/m 13,3 C 14,1 C 9,7 km/h (2 Bft) 97,87 %
12.07.2019 04:08 14,1 C 21,1 C 14,4 C 95 % 1012,4 hPa 0,0 l/m 7,4 km/h (2 Bft) W-SW 254 0 min 0,000 mm 0,0 UV-I 0 W/m 13,3 C 13,5 C 11,3 km/h (2 Bft) 97,87 %
12.07.2019 04:10 14,1 C 21,1 C 14,4 C 95 % 1012,4 hPa 0,0 l/m 7,3 km/h (2 Bft) W-SW 240 0 min 0,000 mm 0,0 UV-I 0 W/m 13,3 C 13,6 C 11,3 km/h (2 Bft) 97,87 %
12.07.2019 04:12 14,1 C 21,1 C 14,4 C 95 % 1012,4 hPa 0,0 l/m 5,8 km/h (2 Bft) W-SW 239 0 min 0,000 mm 0,0 UV-I 0 W/m 13,3 C 14,1 C 9,7 km/h (2 Bft) 97,87 %
12.07.2019 04:14 14,1 C 21,1 C 14,4 C 95 % 1012,4 hPa 0,0 l/m 5,6 km/h (1 Bft) SW 227 0 min 0,000 mm 0,0 UV-I 0 W/m 13,3 C 14,1 C 8,0 km/h (2 Bft) 100,00 %
12.07.2019 04:16 14,1 C 21,1 C 14,4 C 95 % 1012,4 hPa 0,0 l/m 6,4 km/h (2 Bft) W-SW 243 0 min 0,000 mm 0,0 UV-I 0 W/m 13,3 C 14,1 C 11,3 km/h (2 Bft) 100,00 %
12.07.2019 04:18 14,1 C 21,1 C 14,4 C 95 % 1012,4 hPa 0,0 l/m 5,3 km/h (1 Bft) SW 229 0 min 0,000 mm 0,0 UV-I 0 W/m 13,3 C 14,1 C 8,0 km/h (2 Bft) 93,62 %
12.07.2019 04:20 14,1 C 21,1 C 14,4 C 95 % 1012,4 hPa 0,0 l/m 6,2 km/h (2 Bft) W-SW 246 0 min 0,000 mm 0,0 UV-I 0 W/m 13,3 C 14,1 C 8,0 km/h (2 Bft) 100,00 %
12.07.2019 04:22 14,1 C 21,1 C 14,4 C 95 % 1012,4 hPa 0,0 l/m 5,1 km/h (1 Bft) W-SW 243 0 min 0,000 mm 0,0 UV-I 0 W/m 13,3 C 14,1 C 8,0 km/h (2 Bft) 100,00 %
12.07.2019 04:24 14,1 C 21,1 C 14,4 C 95 % 1012,4 hPa 0,0 l/m 7,3 km/h (2 Bft) SW 215 0 min 0,000 mm 0,0 UV-I 0 W/m 13,3 C 13,6 C 11,3 km/h (2 Bft) 97,87 %
12.07.2019 04:26 14,1 C 21,1 C 14,4 C 95 % 1012,4 hPa 0,0 l/m 8,9 km/h (2 Bft) W-SW 254 0 min 0,000 mm 0,0 UV-I 0 W/m 13,3 C 12,7 C 11,3 km/h (2 Bft) 98,00 %
12.07.2019 04:28 14,0 C 21,1 C 14,4 C 95 % 1012,4 hPa 0,0 l/m 6,5 km/h (2 Bft) SW 232 0 min 0,000 mm 0,0 UV-I 0 W/m 13,2 C 14,0 C 11,3 km/h (2 Bft) 100,00 %
12.07.2019 04:30 14,0 C 21,1 C 14,4 C 95 % 1012,4 hPa 0,0 l/m 7,5 km/h (2 Bft) SW 229 0 min 0,000 mm 0,0 UV-I 0 W/m 13,2 C 13,3 C 12,9 km/h (3 Bft) 97,87 %
12.07.2019 04:32 14,0 C 21,1 C 14,4 C 95 % 1012,4 hPa 0,0 l/m 7,0 km/h (2 Bft) SW 225 0 min 0,000 mm 0,0 UV-I 0 W/m 13,2 C 13,6 C 9,7 km/h (2 Bft) 100,00 %
12.07.2019 04:34 14,0 C 21,1 C 14,4 C 95 % 1012,4 hPa 0,0 l/m 8,0 km/h (2 Bft) W-SW 240 0 min 0,000 mm 0,0 UV-I 0 W/m 13,2 C 13,1 C 11,3 km/h (2 Bft) 100,00 %
12.07.2019 04:36 14,0 C 21,1 C 14,4 C 95 % 1012,4 hPa 0,0 l/m 7,6 km/h (2 Bft) SW 229 0 min 0,000 mm 0,0 UV-I 0 W/m 13,2 C 13,3 C 11,3 km/h (2 Bft) 97,87 %
12.07.2019 04:38 14,1 C 21,1 C 14,4 C 95 % 1012,4 hPa 0,0 l/m 5,7 km/h (1 Bft) SW 232 0 min 0,000 mm 0,0 UV-I 0 W/m 13,3 C 14,1 C 9,7 km/h (2 Bft) 100,00 %
12.07.2019 04:40 14,1 C 21,1 C 14,4 C 95 % 1012,3 hPa 0,0 l/m 5,2 km/h (1 Bft) SW 236 0 min 0,000 mm 0,0 UV-I 0 W/m 13,3 C 14,1 C 8,0 km/h (2 Bft) 100,00 %
12.07.2019 04:42 14,0 C 21,1 C 14,4 C 95 % 1012,4 hPa 0,0 l/m 6,3 km/h (2 Bft) W 261 0 min 0,000 mm 0,0 UV-I 0 W/m 13,2 C 14,0 C 9,7 km/h (2 Bft) 100,00 %
12.07.2019 04:44 14,0 C 21,1 C 14,4 C 95 % 1012,4 hPa 0,0 l/m 7,0 km/h (2 Bft) SW 235 0 min 0,000 mm 0,0 UV-I 0 W/m 13,2 C 13,6 C 12,9 km/h (3 Bft) 100,00 %
12.07.2019 04:46 14,1 C 21,1 C 14,4 C 95 % 1012,4 hPa 0,0 l/m 8,5 km/h (2 Bft) W 271 0 min 0,000 mm 0,0 UV-I 0 W/m 13,3 C 12,9 C 14,5 km/h (3 Bft) 97,87 %
12.07.2019 04:48 14,0 C 21,1 C 14,4 C 95 % 1012,4 hPa 0,0 l/m 8,4 km/h (2 Bft) W-SW 257 0 min 0,000 mm 0,0 UV-I 0 W/m 13,2 C 12,8 C 12,9 km/h (3 Bft) 100,00 %
12.07.2019 04:50 14,0 C 21,1 C 14,4 C 95 % 1012,4 hPa 0,2 l/m 6,1 km/h (2 Bft) W-SW 254 0 min 0,000 mm 0,0 UV-I 0 W/m 13,2 C 14,0 C 9,7 km/h (2 Bft) 97,87 %
12.07.2019 04:52 14,1 C 21,1 C 14,4 C 95 % 1012,4 hPa 0,0 l/m 8,0 km/h (2 Bft) SW 236 0 min 0,000 mm 0,0 UV-I 0 W/m 13,3 C 13,2 C 12,9 km/h (3 Bft) 100,00 %
12.07.2019 04:54 14,0 C 21,1 C 14,4 C 95 % 1012,4 hPa 0,0 l/m 7,3 km/h (2 Bft) W 267 0 min 0,000 mm 0,0 UV-I 0 W/m 13,2 C 13,5 C 11,3 km/h (2 Bft) 100,00 %
12.07.2019 04:56 14,0 C 21,1 C 14,4 C 95 % 1012,4 hPa 0,0 l/m 7,1 km/h (2 Bft) SW 236 0 min 0,000 mm 0,0 UV-I 0 W/m 13,2 C 13,6 C 12,9 km/h (3 Bft) 100,00 %
12.07.2019 04:58 13,9 C 21,1 C 14,4 C 95 % 1012,4 hPa 0,0 l/m 6,4 km/h (2 Bft) W-SW 243 0 min 0,000 mm 0,0 UV-I 0 W/m 13,1 C 13,9 C 11,3 km/h (2 Bft) 100,00 %
12.07.2019 05:00 13,9 C 21,1 C 14,4 C 95 % 1012,4 hPa 0,0 l/m 7,2 km/h (2 Bft) SW 236 0 min 0,000 mm 0,0 UV-I 0 W/m 13,1 C 13,4 C 12,9 km/h (3 Bft) 97,87 %
12.07.2019 05:02 14,0 C 21,1 C 14,4 C 95 % 1012,3 hPa 0,2 l/m 7,5 km/h (2 Bft) W 263 0 min 0,000 mm 0,0 UV-I 0 W/m 13,2 C 13,3 C 14,5 km/h (3 Bft) 97,87 %
12.07.2019 05:04 14,0 C 21,1 C 14,4 C 96 % 1012,4 hPa 0,0 l/m 6,3 km/h (2 Bft) W-SW 243 0 min 0,000 mm 0,0 UV-I 0 W/m 13,4 C 14,0 C 12,9 km/h (3 Bft) 97,87 %
12.07.2019 05:06 14,1 C 21,1 C 14,4 C 96 % 1012,4 hPa 0,0 l/m 7,5 km/h (2 Bft) SW 233 0 min 0,000 mm 0,0 UV-I 0 W/m 13,5 C 13,4 C 14,5 km/h (3 Bft) 97,87 %
12.07.2019 05:08 14,0 C 21,1 C 14,4 C 96 % 1012,4 hPa 0,0 l/m 7,7 km/h (2 Bft) W-SW 242 0 min 0,000 mm 0,0 UV-I 0 W/m 13,4 C 13,2 C 11,3 km/h (2 Bft) 97,56 %
12.07.2019 05:10 14,0 C 21,1 C 14,4 C 96 % 1012,4 hPa 0,0 l/m 9,3 km/h (2 Bft) SW 230 0 min 0,000 mm 0,0 UV-I 0 W/m 13,4 C 12,4 C 14,5 km/h (3 Bft) 93,75 %
12.07.2019 05:12 14,1 C 21,1 C 14,4 C 96 % 1012,3 hPa 0,0 l/m 8,2 km/h (2 Bft) SW 233 0 min 0,000 mm 0,0 UV-I 0 W/m 13,5 C 13,0 C 12,9 km/h (3 Bft) 95,74 %
12.07.2019 05:14 14,0 C 21,1 C 14,4 C 96 % 1012,4 hPa 0,0 l/m 8,3 km/h (2 Bft) W-SW 240 0 min 0,000 mm 0,0 UV-I 0 W/m 13,4 C 12,9 C 11,3 km/h (2 Bft) 95,74 %
12.07.2019 05:16 14,0 C 21,1 C 14,4 C 96 % 1012,5 hPa 0,0 l/m 9,0 km/h (2 Bft) W-SW 242 0 min 0,000 mm 0,0 UV-I 0 W/m 13,4 C 12,5 C 12,9 km/h (3 Bft) 95,74 %
12.07.2019 05:18 14,0 C 21,1 C 14,4 C 96 % 1012,4 hPa 0,0 l/m 6,0 km/h (2 Bft) W-SW 246 0 min 0,000 mm 0,0 UV-I 0 W/m 13,4 C 14,0 C 11,3 km/h (2 Bft) 95,74 %
12.07.2019 05:20 14,0 C 21,1 C 14,4 C 96 % 1012,4 hPa 0,0 l/m 7,3 km/h (2 Bft) SW 232 0 min 0,000 mm 0,0 UV-I 0 W/m 13,4 C 13,5 C 11,3 km/h (2 Bft) 93,62 %
12.07.2019 05:22 14,0 C 21,1 C 14,4 C 96 % 1012,5 hPa 0,0 l/m 8,3 km/h (2 Bft) W-SW 244 0 min 0,000 mm 0,0 UV-I 4 W/m 13,4 C 12,9 C 12,9 km/h (3 Bft) 91,49 %
12.07.2019 05:24 14,0 C 21,1 C 14,4 C 96 % 1012,4 hPa 0,0 l/m 8,0 km/h (2 Bft) W-SW 246 0 min 0,000 mm 0,0 UV-I 5 W/m 13,4 C 13,1 C 11,3 km/h (2 Bft) 94,00 %
12.07.2019 05:26 14,0 C 21,1 C 14,4 C 96 % 1012,4 hPa 0,0 l/m 7,5 km/h (2 Bft) SW 232 0 min 0,000 mm 0,0 UV-I 5 W/m 13,4 C 13,3 C 12,9 km/h (3 Bft) 97,87 %
12.07.2019 05:28 14,0 C 21,1 C 14,4 C 96 % 1012,4 hPa 0,0 l/m 7,1 km/h (2 Bft) SW 232 0 min 0,000 mm 0,0 UV-I 7 W/m 13,4 C 13,6 C 11,3 km/h (2 Bft) 95,74 %
12.07.2019 05:30 14,0 C 21,1 C 14,4 C 96 % 1012,4 hPa 0,0 l/m 7,4 km/h (2 Bft) S-SW 202 0 min 0,000 mm 0,0 UV-I 7 W/m 13,4 C 13,4 C 9,7 km/h (2 Bft) 93,62 %
12.07.2019 05:32 14,0 C 21,1 C 14,4 C 96 % 1012,5 hPa 0,0 l/m 6,5 km/h (2 Bft) SW 236 0 min 0,000 mm 0,0 UV-I 7 W/m 13,4 C 14,0 C 11,3 km/h (2 Bft) 93,62 %
12.07.2019 05:34 14,0 C 21,1 C 14,4 C 96 % 1012,4 hPa 0,0 l/m 7,8 km/h (2 Bft) SW 235 0 min 0,000 mm 0,0 UV-I 7 W/m 13,4 C 13,2 C 11,3 km/h (2 Bft) 91,49 %
12.07.2019 05:36 14,1 C 21,1 C 14,4 C 96 % 1012,4 hPa 0,0 l/m 7,7 km/h (2 Bft) W-SW 241 0 min 0,000 mm 0,0 UV-I 7 W/m 13,5 C 13,3 C 12,9 km/h (3 Bft) 94,00 %
12.07.2019 05:38 14,0 C 21,1 C 14,4 C 96 % 1012,5 hPa 0,0 l/m 7,7 km/h (2 Bft) S-SW 206 0 min 0,000 mm 0,0 UV-I 7 W/m 13,4 C 13,2 C 12,9 km/h (3 Bft) 95,74 %
12.07.2019 05:40 14,1 C 21,1 C 14,4 C 96 % 1012,4 hPa 0,0 l/m 5,7 km/h (1 Bft) W-SW 244 0 min 0,000 mm 0,0 UV-I 9 W/m 13,5 C 14,1 C 12,9 km/h (3 Bft) 93,62 %
12.07.2019 05:42 14,1 C 21,1 C 14,4 C 96 % 1012,5 hPa 0,0 l/m 6,1 km/h (2 Bft) W-SW 255 0 min 0,000 mm 0,0 UV-I 9 W/m 13,5 C 14,1 C 9,7 km/h (2 Bft) 95,74 %
12.07.2019 05:44 14,1 C 21,1 C 14,4 C 96 % 1012,5 hPa 0,0 l/m 6,0 km/h (2 Bft) SW 232 0 min 0,000 mm 0,0 UV-I 9 W/m 13,5 C 14,1 C 8,0 km/h (2 Bft) 97,87 %
12.07.2019 05:46 14,1 C 21,1 C 14,4 C 96 % 1012,5 hPa 0,0 l/m 6,2 km/h (2 Bft) W-SW 244 0 min 0,000 mm 0,0 UV-I 11 W/m 13,5 C 14,1 C 8,0 km/h (2 Bft) 95,74 %
12.07.2019 05:48 14,1 C 21,1 C 14,4 C 96 % 1012,5 hPa 0,0 l/m 6,6 km/h (2 Bft) W-SW 249 0 min 0,000 mm 0,0 UV-I 12 W/m 13,5 C 14,0 C 9,7 km/h (2 Bft) 97,87 %
12.07.2019 05:50 14,1 C 21,1 C 14,4 C 96 % 1012,4 hPa 0,0 l/m 7,1 km/h (2 Bft) W-SW 241 0 min 0,000 mm 0,0 UV-I 13 W/m 13,5 C 13,7 C 11,3 km/h (2 Bft) 97,87 %
12.07.2019 05:52 14,1 C 21,1 C 14,4 C 96 % 1012,5 hPa 0,0 l/m 5,8 km/h (2 Bft) W-SW 246 0 min 0,000 mm 0,0 UV-I 16 W/m 13,5 C 14,1 C 9,7 km/h (2 Bft) 97,22 %
12.07.2019 05:54 14,1 C 21,1 C 14,4 C 96 % 1012,5 hPa 0,0 l/m 6,6 km/h (2 Bft) W 265 0 min 0,000 mm 0,0 UV-I 16 W/m 13,5 C 14,0 C 8,0 km/h (2 Bft) 97,87 %
12.07.2019 05:56 14,1 C 21,1 C 14,4 C 96 % 1012,5 hPa 0,0 l/m 6,7 km/h (2 Bft) W-SW 237 0 min 0,000 mm 0,0 UV-I 16 W/m 13,5 C 13,9 C 11,3 km/h (2 Bft) 98,00 %
12.07.2019 05:58 14,2 C 21,1 C 14,4 C 96 % 1012,5 hPa 0,0 l/m 6,4 km/h (2 Bft) SW 236 0 min 0,000 mm 0,0 UV-I 16 W/m 13,6 C 14,2 C 12,9 km/h (3 Bft) 98,00 %
12.07.2019 06:00 14,2 C 21,1 C 14,4 C 96 % 1012,5 hPa 0,0 l/m 8,0 km/h (2 Bft) W-SW 253 0 min 0,000 mm 0,0 UV-I 16 W/m 13,6 C 13,3 C 11,3 km/h (2 Bft) 94,00 %
12.07.2019 06:02 14,2 C 21,1 C 14,4 C 96 % 1012,6 hPa 0,0 l/m 7,0 km/h (2 Bft) SW 236 0 min 0,000 mm 0,0 UV-I 16 W/m 13,6 C 13,8 C 9,7 km/h (2 Bft) 94,74 %
12.07.2019 06:04 14,2 C 21,1 C 14,4 C 96 % 1012,6 hPa 0,0 l/m 5,9 km/h (2 Bft) W-SW 242 0 min 0,000 mm 0,0 UV-I 18 W/m 13,6 C 14,2 C 8,0 km/h (2 Bft) 95,74 %
12.07.2019 06:06 14,2 C 21,1 C 14,4 C 96 % 1012,6 hPa 0,0 l/m 5,8 km/h (2 Bft) W-SW 242 0 min 0,000 mm 0,0 UV-I 18 W/m 13,6 C 14,2 C 9,7 km/h (2 Bft) 96,00 %
12.07.2019 06:08 14,2 C 21,1 C 14,4 C 96 % 1012,6 hPa 0,0 l/m 7,6 km/h (2 Bft) W-SW 238 0 min 0,000 mm 0,0 UV-I 18 W/m 13,6 C 13,5 C 12,9 km/h (3 Bft) 95,74 %
12.07.2019 06:10 14,2 C 21,1 C 14,4 C 96 % 1012,6 hPa 0,0 l/m 6,4 km/h (2 Bft) W-SW 242 0 min 0,000 mm 0,0 UV-I 19 W/m 13,6 C 14,2 C 11,3 km/h (2 Bft) 95,74 %
12.07.2019 06:12 14,2 C 21,1 C 14,4 C 96 % 1012,6 hPa 0,0 l/m 6,1 km/h (2 Bft) W-SW 244 0 min 0,000 mm 0,0 UV-I 18 W/m 13,6 C 14,2 C 8,0 km/h (2 Bft) 96,00 %
12.07.2019 06:14 14,2 C 21,1 C 14,4 C 96 % 1012,6 hPa 0,0 l/m 6,8 km/h (2 Bft) W-SW 237 0 min 0,000 mm 0,0 UV-I 17 W/m 13,6 C 14,0 C 11,3 km/h (2 Bft) 98,00 %
12.07.2019 06:16 14,2 C 21,1 C 14,4 C 96 % 1012,6 hPa 0,0 l/m 5,1 km/h (1 Bft) W-SW 241 0 min 0,000 mm 0,0 UV-I 16 W/m 13,6 C 14,2 C 8,0 km/h (2 Bft) 97,87 %
12.07.2019 06:18 14,2 C 21,1 C 14,4 C 96 % 1012,5 hPa 0,0 l/m 4,8 km/h (1 Bft) W-SW 243 0 min 0,000 mm 0,0 UV-I 16 W/m 13,6 C 14,2 C 8,0 km/h (2 Bft) 91,43 %
12.07.2019 06:20 14,3 C 21,1 C 14,4 C 96 % 1012,5 hPa 0,0 l/m 4,9 km/h (1 Bft) W-SW 239 0 min 0,000 mm 0,0 UV-I 16 W/m 13,7 C 14,3 C 6,4 km/h (2 Bft) 98,11 %
12.07.2019 06:22 14,3 C 21,1 C 14,4 C 96 % 1012,6 hPa 0,0 l/m 6,8 km/h (2 Bft) W 263 0 min 0,000 mm 0,0 UV-I 18 W/m 13,7 C 14,1 C 11,3 km/h (2 Bft) 95,74 %
12.07.2019 06:24 14,3 C 21,1 C 14,4 C 96 % 1012,5 hPa 0,0 l/m 6,7 km/h (2 Bft) SW 228 0 min 0,000 mm 0,0 UV-I 20 W/m 13,7 C 14,1 C 11,3 km/h (2 Bft) 95,74 %
12.07.2019 06:26 14,3 C 21,1 C 14,4 C 96 % 1012,5 hPa 0,0 l/m 6,0 km/h (2 Bft) SW 236 0 min 0,000 mm 0,0 UV-I 24 W/m 13,7 C 14,3 C 11,3 km/h (2 Bft) 97,87 %
12.07.2019 06:28 14,3 C 21,1 C 14,4 C 96 % 1012,5 hPa 0,0 l/m 5,0 km/h (1 Bft) SW 223 0 min 0,000 mm 0,0 UV-I 26 W/m 13,7 C 14,3 C 6,4 km/h (2 Bft) 93,62 %
12.07.2019 06:30 14,3 C 21,1 C 14,4 C 96 % 1012,5 hPa 0,0 l/m 6,8 km/h (2 Bft) W 267 0 min 0,000 mm 0,0 UV-I 26 W/m 13,7 C 14,1 C 11,3 km/h (2 Bft) 94,00 %
12.07.2019 06:32 14,3 C 21,1 C 15,0 C 95 % 1012,5 hPa 0,0 l/m 6,3 km/h (2 Bft) W-SW 246 0 min 0,000 mm 0,0 UV-I 25 W/m 13,5 C 14,3 C 11,3 km/h (2 Bft) 95,83 %
12.07.2019 06:34 14,3 C 21,1 C 15,0 C 96 % 1012,5 hPa 0,0 l/m 6,3 km/h (2 Bft) S-SW 211 0 min 0,000 mm 0,0 UV-I 26 W/m 13,7 C 14,3 C 9,7 km/h (2 Bft) 95,74 %
12.07.2019 06:36 14,4 C 21,1 C 15,0 C 96 % 1012,5 hPa 0,0 l/m 5,1 km/h (1 Bft) W-SW 245 0 min 0,000 mm 0,0 UV-I 27 W/m 13,8 C 14,4 C 8,0 km/h (2 Bft) 95,74 %
12.07.2019 06:38 14,3 C 21,1 C 15,0 C 95 % 1012,6 hPa 0,0 l/m 7,6 km/h (2 Bft) W-SW 238 0 min 0,000 mm 0,0 UV-I 29 W/m 13,5 C 13,6 C 11,3 km/h (2 Bft) 97,87 %
12.07.2019 06:40 14,4 C 21,1 C 15,0 C 95 % 1012,6 hPa 0,0 l/m 5,9 km/h (2 Bft) W-SW 240 0 min 0,000 mm 0,0 UV-I 28 W/m 13,6 C 14,4 C 9,7 km/h (2 Bft) 97,56 %
12.07.2019 06:42 14,4 C 21,1 C 15,0 C 95 % 1012,6 hPa 0,0 l/m 6,2 km/h (2 Bft) W-SW 256 0 min 0,000 mm 0,0 UV-I 24 W/m 13,6 C 14,4 C 11,3 km/h (2 Bft) 97,87 %
12.07.2019 06:44 14,4 C 21,1 C 15,0 C 95 % 1012,6 hPa 0,0 l/m 4,5 km/h (1 Bft) W 267 0 min 0,000 mm 0,0 UV-I 20 W/m 13,6 C 14,4 C 6,4 km/h (2 Bft) 97,87 %
12.07.2019 06:46 14,4 C 21,1 C 15,0 C 95 % 1012,7 hPa 0,0 l/m 6,1 km/h (2 Bft) W-SW 242 0 min 0,000 mm 0,0 UV-I 19 W/m 13,6 C 14,4 C 11,3 km/h (2 Bft) 97,87 %
12.07.2019 06:48 14,4 C 21,1 C 15,0 C 95 % 1012,7 hPa 0,0 l/m 6,8 km/h (2 Bft) W 265 0 min 0,000 mm 0,0 UV-I 18 W/m 13,6 C 14,2 C 11,3 km/h (2 Bft) 97,87 %
12.07.2019 06:50 14,4 C 21,1 C 15,0 C 95 % 1012,7 hPa 0,0 l/m 5,3 km/h (1 Bft) W 265 0 min 0,000 mm 0,0 UV-I 18 W/m 13,6 C 14,4 C 11,3 km/h (2 Bft) 100,00 %
12.07.2019 06:52 14,4 C 21,1 C 15,0 C 95 % 1012,7 hPa 0,0 l/m 5,1 km/h (1 Bft) W 263 0 min 0,000 mm 0,0 UV-I 18 W/m 13,6 C 14,4 C 9,7 km/h (2 Bft) 100,00 %
12.07.2019 06:54 14,4 C 21,1 C 15,0 C 95 % 1012,7 hPa 0,0 l/m 9,1 km/h (2 Bft) W 262 0 min 0,000 mm 0,0 UV-I 16 W/m 13,6 C 12,9 C 12,9 km/h (3 Bft) 100,00 %
12.07.2019 06:56 14,4 C 21,1 C 15,0 C 95 % 1012,7 hPa 0,0 l/m 9,2 km/h (2 Bft) W 277 0 min 0,000 mm 0,0 UV-I 18 W/m 13,6 C 12,8 C 12,9 km/h (3 Bft) 97,14 %
12.07.2019 06:58 14,4 C 21,1 C 14,4 C 95 % 1012,7 hPa 0,0 l/m 5,3 km/h (1 Bft) W 263 0 min 0,000 mm 0,0 UV-I 22 W/m 13,6 C 14,4 C 8,0 km/h (2 Bft) 100,00 %
12.07.2019 07:00 14,5 C 21,1 C 15,0 C 95 % 1012,7 hPa 0,0 l/m 5,1 km/h (1 Bft) W-SW 254 0 min 0,025 mm 0,0 UV-I 27 W/m 13,7 C 14,5 C 11,3 km/h (2 Bft) 100,00 %
12.07.2019 07:02 14,5 C 21,1 C 15,0 C 95 % 1012,7 hPa 0,0 l/m 6,3 km/h (2 Bft) W-SW 246 0 min 0,000 mm 0,0 UV-I 31 W/m 13,7 C 14,5 C 11,3 km/h (2 Bft) 100,00 %
12.07.2019 07:04 14,5 C 21,1 C 15,0 C 95 % 1012,7 hPa 0,0 l/m 5,2 km/h (1 Bft) W-SW 248 0 min 0,000 mm 0,0 UV-I 37 W/m 13,7 C 14,5 C 8,0 km/h (2 Bft) 97,87 %
12.07.2019 07:06 14,5 C 21,1 C 15,0 C 95 % 1012,7 hPa 0,0 l/m 7,3 km/h (2 Bft) W-SW 245 0 min 0,000 mm 0,0 UV-I 43 W/m 13,7 C 14,0 C 11,3 km/h (2 Bft) 97,92 %
12.07.2019 07:08 14,5 C 21,1 C 15,0 C 95 % 1012,7 hPa 0,0 l/m 6,8 km/h (2 Bft) W 272 0 min 0,000 mm 0,0 UV-I 49 W/m 13,7 C 14,3 C 11,3 km/h (2 Bft) 97,87 %
12.07.2019 07:10 14,6 C 21,1 C 15,0 C 95 % 1012,7 hPa 0,0 l/m 5,1 km/h (1 Bft) SW 233 0 min 0,000 mm 0,0 UV-I 51 W/m 13,8 C 14,6 C 9,7 km/h (2 Bft) 100,00 %
12.07.2019 07:12 14,6 C 21,1 C 15,0 C 94 % 1012,8 hPa 0,0 l/m 6,8 km/h (2 Bft) W-SW 254 0 min 0,000 mm 0,0 UV-I 48 W/m 13,6 C 14,4 C 11,3 km/h (2 Bft) 97,87 %
12.07.2019 07:14 14,6 C 21,1 C 15,0 C 95 % 1012,7 hPa 0,0 l/m 7,2 km/h (2 Bft) W 263 0 min 0,000 mm 0,0 UV-I 46 W/m 13,8 C 14,1 C 11,3 km/h (2 Bft) 95,74 %
12.07.2019 07:16 14,6 C 21,1 C 15,6 C 95 % 1012,7 hPa 0,0 l/m 6,7 km/h (2 Bft) W 260 0 min 0,000 mm 0,0 UV-I 57 W/m 13,8 C 14,4 C 12,9 km/h (3 Bft) 97,87 %
12.07.2019 07:18 14,7 C 21,1 C 15,6 C 95 % 1012,7 hPa 0,0 l/m 5,8 km/h (2 Bft) W-SW 246 0 min 0,000 mm 0,0 UV-I 74 W/m 13,9 C 14,7 C 9,7 km/h (2 Bft) 97,87 %
12.07.2019 07:20 14,7 C 21,1 C 15,6 C 95 % 1012,7 hPa 0,0 l/m 6,3 km/h (2 Bft) W-SW 246 0 min 0,000 mm 0,0 UV-I 88 W/m 13,9 C 14,7 C 11,3 km/h (2 Bft) 95,74 %
12.07.2019 07:22 14,7 C 21,1 C 15,6 C 95 % 1012,7 hPa 0,0 l/m 5,9 km/h (2 Bft) W 263 0 min 0,000 mm 0,0 UV-I 97 W/m 13,9 C 14,7 C 11,3 km/h (2 Bft) 97,56 %
12.07.2019 07:24 14,7 C 21,1 C 16,1 C 94 % 1012,7 hPa 0,0 l/m 5,6 km/h (1 Bft) W 261 0 min 0,000 mm 0,0 UV-I 101 W/m 13,7 C 14,7 C 8,0 km/h (2 Bft) 95,74 %
12.07.2019 07:26 14,8 C 21,1 C 16,1 C 94 % 1012,6 hPa 0,0 l/m 8,6 km/h (2 Bft) W-SW 245 0 min 0,000 mm 0,0 UV-I 103 W/m 13,8 C 13,6 C 14,5 km/h (3 Bft) 93,62 %
12.07.2019 07:28 14,8 C 21,1 C 15,6 C 94 % 1012,6 hPa 0,0 l/m 9,0 km/h (2 Bft) W-SW 242 0 min 0,000 mm 0,0 UV-I 105 W/m 13,8 C 13,4 C 14,5 km/h (3 Bft) 97,87 %
12.07.2019 07:30 14,8 C 21,1 C 16,1 C 94 % 1012,6 hPa 0,0 l/m 8,9 km/h (2 Bft) SW 217 0 min 0,000 mm 0,0 UV-I 101 W/m 13,8 C 13,4 C 12,9 km/h (3 Bft) 93,62 %
12.07.2019 07:32 14,8 C 21,1 C 16,1 C 94 % 1012,6 hPa 0,0 l/m 7,4 km/h (2 Bft) W-SW 254 0 min 0,000 mm 0,0 UV-I 115 W/m 13,8 C 14,2 C 11,3 km/h (2 Bft) 97,87 %
12.07.2019 07:34 14,9 C 21,1 C 16,1 C 94 % 1012,6 hPa 0,0 l/m 8,8 km/h (2 Bft) W 275 0 min 0,000 mm 0,0 UV-I 129 W/m 13,9 C 13,6 C 14,5 km/h (3 Bft) 97,87 %
12.07.2019 07:36 15,0 C 21,1 C 16,1 C 94 % 1012,6 hPa 0,0 l/m 9,4 km/h (2 Bft) W-SW 258 0 min 0,000 mm 0,0 UV-I 144 W/m 14,0 C 13,4 C 14,5 km/h (3 Bft) 96,00 %
12.07.2019 07:38 15,0 C 21,1 C 16,7 C 94 % 1012,7 hPa 0,0 l/m 9,2 km/h (2 Bft) W-SW 252 0 min 0,000 mm 0,0 UV-I 147 W/m 14,0 C 13,5 C 14,5 km/h (3 Bft) 93,62 %
12.07.2019 07:40 15,1 C 21,1 C 16,7 C 94 % 1012,7 hPa 0,0 l/m 9,1 km/h (2 Bft) W 267 0 min 0,000 mm 0,0 UV-I 141 W/m 14,1 C 13,6 C 14,5 km/h (3 Bft) 97,87 %
12.07.2019 07:42 15,1 C 21,1 C 16,7 C 94 % 1012,7 hPa 0,0 l/m 7,6 km/h (2 Bft) W 264 0 min 0,000 mm 0,0 UV-I 143 W/m 14,1 C 14,4 C 12,9 km/h (3 Bft) 97,87 %
12.07.2019 07:44 15,2 C 21,1 C 16,7 C 93 % 1012,7 hPa 0,0 l/m 7,3 km/h (2 Bft) W 277 0 min 0,000 mm 0,0 UV-I 138 W/m 14,1 C 14,7 C 14,5 km/h (3 Bft) 97,92 %
12.07.2019 07:46 15,2 C 21,1 C 16,7 C 94 % 1012,7 hPa 0,0 l/m 5,4 km/h (1 Bft) W 279 0 min 0,000 mm 0,0 UV-I 144 W/m 14,2 C 15,2 C 11,3 km/h (2 Bft) 100,00 %
12.07.2019 07:48 15,3 C 21,1 C 17,2 C 94 % 1012,7 hPa 0,0 l/m 7,9 km/h (2 Bft) W-SW 250 0 min 0,000 mm 0,0 UV-I 158 W/m 14,3 C 14,5 C 12,9 km/h (3 Bft) 100,00 %
12.07.2019 07:50 15,4 C 21,1 C 17,2 C 93 % 1012,7 hPa 0,0 l/m 7,2 km/h (2 Bft) W-SW 239 0 min 0,000 mm 0,0 UV-I 159 W/m 14,3 C 15,0 C 11,3 km/h (2 Bft) 97,87 %
12.07.2019 07:52 15,4 C 21,1 C 17,2 C 93 % 1012,7 hPa 0,0 l/m 7,9 km/h (2 Bft) W-SW 255 0 min 0,000 mm 0,5 UV-I 163 W/m 14,3 C 14,6 C 12,9 km/h (3 Bft) 100,00 %
12.07.2019 07:54 15,4 C 21,1 C 17,2 C 93 % 1012,7 hPa 0,0 l/m 6,8 km/h (2 Bft) W-SW 251 0 min 0,000 mm 0,5 UV-I 163 W/m 14,3 C 15,2 C 11,3 km/h (2 Bft) 96,00 %
12.07.2019 07:56 15,5 C 21,1 C 17,2 C 93 % 1012,8 hPa 0,0 l/m 6,3 km/h (2 Bft) W 279 0 min 0,000 mm 0,5 UV-I 153 W/m 14,4 C 15,5 C 11,3 km/h (2 Bft) 98,00 %
12.07.2019 07:58 15,5 C 21,1 C 17,2 C 93 % 1012,7 hPa 0,0 l/m 7,2 km/h (2 Bft) SW 233 0 min 0,000 mm 0,5 UV-I 142 W/m 14,4 C 15,1 C 11,3 km/h (2 Bft) 95,74 %
12.07.2019 08:00 15,6 C 21,1 C 17,2 C 93 % 1012,7 hPa 0,0 l/m 6,4 km/h (2 Bft) W-NW 288 0 min 0,051 mm 0,5 UV-I 138 W/m 14,5 C 15,6 C 11,3 km/h (2 Bft) 95,74 %
12.07.2019 08:02 15,6 C 21,1 C 17,2 C 92 % 1012,7 hPa 0,0 l/m 7,7 km/h (2 Bft) SW 233 0 min 0,000 mm 0,5 UV-I 148 W/m 14,3 C 14,9 C 12,9 km/h (3 Bft) 100,00 %
12.07.2019 08:04 15,6 C 21,1 C 17,2 C 92 % 1012,8 hPa 0,0 l/m 11,2 km/h (2 Bft) W 269 0 min 0,000 mm 0,6 UV-I 176 W/m 14,3 C 13,3 C 16,1 km/h (3 Bft) 97,87 %
12.07.2019 08:06 15,7 C 21,1 C 17,2 C 92 % 1012,8 hPa 0,0 l/m 7,2 km/h (2 Bft) W-NW 284 0 min 0,000 mm 0,5 UV-I 159 W/m 14,4 C 15,3 C 12,9 km/h (3 Bft) 96,00 %
12.07.2019 08:08 15,7 C 21,1 C 17,2 C 92 % 1012,8 hPa 0,0 l/m 12,5 km/h (3 Bft) W 278 0 min 0,000 mm 0,5 UV-I 141 W/m 14,4 C 12,9 C 16,1 km/h (3 Bft) 98,00 %
12.07.2019 08:10 15,7 C 21,1 C 17,2 C 92 % 1012,8 hPa 0,0 l/m 6,7 km/h (2 Bft) W 259 0 min 0,000 mm 0,2 UV-I 127 W/m 14,4 C 15,5 C 12,9 km/h (3 Bft) 97,87 %
12.07.2019 08:12 15,7 C 21,1 C 17,2 C 92 % 1012,8 hPa 0,0 l/m 9,4 km/h (2 Bft) W-NW 286 0 min 0,000 mm 0,0 UV-I 110 W/m 14,4 C 14,2 C 12,9 km/h (3 Bft) 93,62 %
12.07.2019 08:14 15,7 C 21,1 C 16,7 C 92 % 1012,9 hPa 0,0 l/m 6,0 km/h (2 Bft) W 262 0 min 0,000 mm 0,0 UV-I 100 W/m 14,4 C 15,7 C 11,3 km/h (2 Bft) 93,62 %
12.07.2019 08:16 15,7 C 21,1 C 16,7 C 92 % 1012,9 hPa 0,0 l/m 8,4 km/h (2 Bft) W 265 0 min 0,000 mm 0,0 UV-I 91 W/m 14,4 C 14,6 C 16,1 km/h (3 Bft) 91,49 %
12.07.2019 08:18 15,7 C 21,1 C 16,7 C 92 % 1012,9 hPa 0,0 l/m 7,4 km/h (2 Bft) W 272 0 min 0,000 mm 0,0 UV-I 93 W/m 14,4 C 15,2 C 11,3 km/h (2 Bft) 95,74 %
12.07.2019 08:20 15,7 C 21,1 C 16,7 C 92 % 1012,9 hPa 0,0 l/m 8,0 km/h (2 Bft) W 267 0 min 0,000 mm 0,4 UV-I 106 W/m 14,4 C 14,8 C 14,5 km/h (3 Bft) 100,00 %
12.07.2019 08:22 15,7 C 21,1 C 16,7 C 92 % 1012,9 hPa 0,0 l/m 5,6 km/h (1 Bft) W 277 0 min 0,000 mm 0,5 UV-I 120 W/m 14,4 C 15,7 C 11,3 km/h (2 Bft) 100,00 %
12.07.2019 08:24 15,7 C 21,1 C 17,2 C 92 % 1012,9 hPa 0,0 l/m 7,1 km/h (2 Bft) W-NW 295 0 min 0,000 mm 0,6 UV-I 126 W/m 14,4 C 15,3 C 12,9 km/h (3 Bft) 97,87 %
12.07.2019 08:26 15,7 C 21,1 C 17,2 C 91 % 1012,9 hPa 0,0 l/m 5,3 km/h (1 Bft) W 268 0 min 0,000 mm 0,6 UV-I 127 W/m 14,2 C 15,7 C 6,4 km/h (2 Bft) 100,00 %
12.07.2019 08:28 15,7 C 21,1 C 17,2 C 91 % 1012,8 hPa 0,0 l/m 7,5 km/h (2 Bft) W-SW 250 0 min 0,000 mm 0,7 UV-I 138 W/m 14,2 C 15,1 C 12,9 km/h (3 Bft) 98,00 %
12.07.2019 08:30 15,7 C 21,1 C 17,2 C 91 % 1012,8 hPa 0,0 l/m 6,4 km/h (2 Bft) W 272 0 min 0,000 mm 0,8 UV-I 161 W/m 14,2 C 15,7 C 11,3 km/h (2 Bft) 100,00 %
12.07.2019 08:32 15,8 C 21,1 C 17,2 C 91 % 1012,8 hPa 0,0 l/m 6,6 km/h (2 Bft) W 261 0 min 0,000 mm 0,8 UV-I 177 W/m 14,3 C 15,7 C 11,3 km/h (2 Bft) 98,00 %
12.07.2019 08:34 15,8 C 21,1 C 17,2 C 91 % 1012,8 hPa 0,0 l/m 6,9 km/h (2 Bft) W-NW 286 0 min 0,000 mm 0,8 UV-I 179 W/m 14,3 C 15,5 C 12,9 km/h (3 Bft) 100,00 %
12.07.2019 08:36 15,8 C 21,1 C 17,2 C 91 % 1012,8 hPa 0,0 l/m 4,5 km/h (1 Bft) W-NW 293 0 min 0,000 mm 0,8 UV-I 186 W/m 14,3 C 15,8 C 6,4 km/h (2 Bft) 100,00 %
12.07.2019 08:38 15,9 C 21,1 C 17,8 C 91 % 1012,8 hPa 0,0 l/m 5,2 km/h (1 Bft) W 266 0 min 0,000 mm 0,9 UV-I 202 W/m 14,4 C 15,9 C 9,7 km/h (2 Bft) 98,00 %
12.07.2019 08:40 15,9 C 21,1 C 17,8 C 91 % 1012,7 hPa 0,0 l/m 4,1 km/h (1 Bft) W-SW 253 0 min 0,000 mm 0,9 UV-I 208 W/m 14,4 C 15,9 C 8,0 km/h (2 Bft) 100,00 %
12.07.2019 08:42 15,9 C 21,1 C 17,8 C 90 % 1012,8 hPa 0,0 l/m 3,9 km/h (1 Bft) W-SW 254 0 min 0,000 mm 0,9 UV-I 224 W/m 14,3 C 15,9 C 6,4 km/h (2 Bft) 100,00 %
12.07.2019 08:44 16,1 C 21,1 C 18,3 C 91 % 1012,7 hPa 0,0 l/m 4,0 km/h (1 Bft) W-SW 246 0 min 0,000 mm 1,0 UV-I 252 W/m 14,6 C 16,1 C 6,4 km/h (2 Bft) 100,00 %
12.07.2019 08:46 16,2 C 21,1 C 18,9 C 91 % 1012,7 hPa 0,0 l/m 4,9 km/h (1 Bft) W-SW 247 0 min 0,000 mm 1,0 UV-I 253 W/m 14,7 C 16,2 C 8,0 km/h (2 Bft) 100,00 %
12.07.2019 08:48 16,2 C 21,1 C 18,9 C 91 % 1012,7 hPa 0,0 l/m 6,2 km/h (2 Bft) W 274 0 min 0,000 mm 1,1 UV-I 251 W/m 14,7 C 16,2 C 9,7 km/h (2 Bft) 100,00 %
12.07.2019 08:50 16,2 C 21,1 C 18,9 C 90 % 1012,7 hPa 0,0 l/m 3,9 km/h (1 Bft) W-NW 293 0 min 0,000 mm 1,1 UV-I 249 W/m 14,6 C 16,2 C 6,4 km/h (2 Bft) 100,00 %
12.07.2019 08:52 16,3 C 21,1 C 18,9 C 90 % 1012,7 hPa 0,0 l/m 2,7 km/h (1 Bft) N-NW 327 0 min 0,000 mm 1,1 UV-I 255 W/m 14,7 C 16,3 C 4,8 km/h (1 Bft) 100,00 %
12.07.2019 08:54 16,3 C 21,1 C 18,9 C 90 % 1012,7 hPa 0,0 l/m 4,1 km/h (1 Bft) W 277 0 min 0,000 mm 1,1 UV-I 232 W/m 14,7 C 16,3 C 12,9 km/h (3 Bft) 100,00 %
12.07.2019 08:56 16,3 C 21,1 C 18,9 C 90 % 1012,7 hPa 0,0 l/m 4,1 km/h (1 Bft) W-NW 290 0 min 0,000 mm 1,1 UV-I 227 W/m 14,7 C 16,3 C 6,4 km/h (2 Bft) 100,00 %
12.07.2019 08:58 16,3 C 21,1 C 18,3 C 90 % 1012,7 hPa 0,0 l/m 3,4 km/h (1 Bft) W 279 0 min 0,000 mm 1,0 UV-I 227 W/m 14,7 C 16,3 C 4,8 km/h (1 Bft) 100,00 %
12.07.2019 09:00 16,3 C 21,1 C 18,9 C 90 % 1012,8 hPa 0,0 l/m 5,3 km/h (1 Bft) W-NW 285 0 min 0,102 mm 1,0 UV-I 223 W/m 14,7 C 16,3 C 11,3 km/h (2 Bft) 95,83 %
12.07.2019 09:02 16,2 C 21,1 C 18,3 C 89 % 1012,8 hPa 0,0 l/m 7,0 km/h (2 Bft) W-NW 302 0 min 0,000 mm 0,9 UV-I 245 W/m 14,4 C 15,9 C 11,3 km/h (2 Bft) 97,87 %
12.07.2019 09:04 16,3 C 21,1 C 18,3 C 89 % 1012,8 hPa 0,0 l/m 4,6 km/h (1 Bft) W-NW 299 0 min 0,000 mm 0,5 UV-I 142 W/m 14,5 C 16,3 C 6,4 km/h (2 Bft) 94,74 %
12.07.2019 09:06 16,3 C 21,1 C 17,8 C 88 % 1012,8 hPa 0,0 l/m 4,1 km/h (1 Bft) NW 314 0 min 0,000 mm 0,5 UV-I 122 W/m 14,3 C 16,3 C 6,4 km/h (2 Bft) 97,87 %
12.07.2019 09:08 16,3 C 21,1 C 17,8 C 89 % 1012,7 hPa 0,0 l/m 2,6 km/h (1 Bft) W 259 0 min 0,000 mm 0,6 UV-I 139 W/m 14,5 C 16,3 C 9,7 km/h (2 Bft) 100,00 %
12.07.2019 09:10 16,2 C 21,1 C 17,8 C 89 % 1012,7 hPa 0,0 l/m 3,7 km/h (1 Bft) W 266 0 min 0,000 mm 0,6 UV-I 152 W/m 14,4 C 16,2 C 6,4 km/h (2 Bft) 97,87 %
12.07.2019 09:12 16,3 C 21,1 C 18,3 C 90 % 1012,7 hPa 0,0 l/m 2,2 km/h (1 Bft) W 266 0 min 0,000 mm 0,7 UV-I 175 W/m 14,7 C 16,3 C 3,2 km/h (1 Bft) 100,00 %
12.07.2019 09:14 16,3 C 21,1 C 18,3 C 89 % 1012,7 hPa 0,0 l/m 3,7 km/h (1 Bft) W 269 0 min 0,000 mm 0,8 UV-I 190 W/m 14,5 C 16,3 C 4,8 km/h (1 Bft) 100,00 %
12.07.2019 09:16 16,3 C 21,1 C 18,3 C 88 % 1012,7 hPa 0,0 l/m 7,4 km/h (2 Bft) W-SW 250 0 min 0,000 mm 1,0 UV-I 213 W/m 14,3 C 15,8 C 12,9 km/h (3 Bft) 97,14 %
12.07.2019 09:18 16,4 C 21,1 C 18,9 C 88 % 1012,6 hPa 0,0 l/m 5,2 km/h (1 Bft) W-SW 244 0 min 0,000 mm 1,3 UV-I 273 W/m 14,4 C 16,4 C 11,3 km/h (2 Bft) 94,00 %
12.07.2019 09:20 16,6 C 21,1 C 20,0 C 89 % 1012,7 hPa 0,0 l/m 4,4 km/h (1 Bft) W-SW 254 2 min 0,000 mm 1,4 UV-I 357 W/m 14,8 C 16,6 C 6,4 km/h (2 Bft) 98,00 %
12.07.2019 09:22 16,7 C 21,1 C 20,0 C 87 % 1012,6 hPa 0,0 l/m 4,2 km/h (1 Bft) W-NW 288 2 min 0,000 mm 1,4 UV-I 355 W/m 14,5 C 16,7 C 6,4 km/h (2 Bft) 97,87 %
12.07.2019 09:24 16,8 C 21,1 C 20,6 C 88 % 1012,6 hPa 0,0 l/m 5,0 km/h (1 Bft) W 265 0 min 0,000 mm 1,5 UV-I 310 W/m 14,8 C 16,8 C 9,7 km/h (2 Bft) 89,36 %
12.07.2019 09:26 16,9 C 21,1 C 20,6 C 88 % 1012,6 hPa 0,0 l/m 3,6 km/h (1 Bft) NW 321 2 min 0,000 mm 1,5 UV-I 348 W/m 14,9 C 16,9 C 8,0 km/h (2 Bft) 93,62 %
12.07.2019 09:28 16,9 C 21,1 C 20,6 C 86 % 1012,6 hPa 0,0 l/m 7,1 km/h (2 Bft) W-SW 250 0 min 0,000 mm 1,5 UV-I 292 W/m 14,5 C 16,5 C 11,3 km/h (2 Bft) 93,62 %
12.07.2019 09:30 16,9 C 21,1 C 20,6 C 87 % 1012,5 hPa 0,0 l/m 5,2 km/h (1 Bft) NW 324 0 min 0,000 mm 1,6 UV-I 320 W/m 14,7 C 16,9 C 9,7 km/h (2 Bft) 92,00 %
12.07.2019 09:32 17,1 C 21,1 C 20,6 C 87 % 1012,5 hPa 0,0 l/m 5,1 km/h (1 Bft) W-SW 241 2 min 0,000 mm 1,7 UV-I 402 W/m 14,9 C 17,1 C 11,3 km/h (2 Bft) 89,36 %
12.07.2019 09:34 17,1 C 21,1 C 21,1 C 85 % 1012,5 hPa 0,0 l/m 5,2 km/h (1 Bft) N-NW 342 2 min 0,000 mm 1,8 UV-I 429 W/m 14,6 C 17,1 C 9,7 km/h (2 Bft) 95,24 %
12.07.2019 09:36 17,2 C 21,1 C 22,2 C 85 % 1012,5 hPa 0,0 l/m 6,4 km/h (2 Bft) W-SW 252 2 min 0,000 mm 1,8 UV-I 473 W/m 14,7 C 17,2 C 12,9 km/h (3 Bft) 89,36 %
12.07.2019 09:38 17,3 C 21,1 C 22,8 C 86 % 1012,5 hPa 0,0 l/m 4,6 km/h (1 Bft) W 272 2 min 0,000 mm 1,9 UV-I 513 W/m 14,9 C 17,3 C 9,7 km/h (2 Bft) 93,62 %
12.07.2019 09:40 17,4 C 21,1 C 23,3 C 84 % 1012,4 hPa 0,0 l/m 2,0 km/h (1 Bft) W 273 2 min 0,000 mm 1,9 UV-I 496 W/m 14,7 C 17,4 C 4,8 km/h (1 Bft) 93,62 %
12.07.2019 09:42 17,5 C 21,1 C 23,3 C 84 % 1012,4 hPa 0,0 l/m 2,3 km/h (1 Bft) W 276 2 min 0,000 mm 1,9 UV-I 495 W/m 14,8 C 17,5 C 4,8 km/h (1 Bft) 91,49 %
12.07.2019 09:44 17,5 C 21,1 C 23,9 C 84 % 1012,4 hPa 0,0 l/m 3,9 km/h (1 Bft) W 261 2 min 0,000 mm 2,1 UV-I 547 W/m 14,8 C 17,5 C 9,7 km/h (2 Bft) 93,62 %
12.07.2019 09:46 17,6 C 21,1 C 23,9 C 83 % 1012,4 hPa 0,0 l/m 4,9 km/h (1 Bft) SW 227 2 min 0,000 mm 2,1 UV-I 543 W/m 14,7 C 17,6 C 9,7 km/h (2 Bft) 93,62 %
12.07.2019 09:48 17,6 C 21,1 C 24,4 C 83 % 1012,4 hPa 0,0 l/m 6,8 km/h (2 Bft) W-SW 247 2 min 0,000 mm 2,2 UV-I 567 W/m 14,7 C 17,4 C 11,3 km/h (2 Bft) 96,00 %
12.07.2019 09:50 17,7 C 21,1 C 23,3 C 82 % 1012,4 hPa 0,0 l/m 7,0 km/h (2 Bft) W 271 2 min 0,000 mm 1,9 UV-I 386 W/m 14,6 C 17,4 C 12,9 km/h (3 Bft) 94,00 %
12.07.2019 09:52 17,6 C 21,1 C 22,2 C 81 % 1012,4 hPa 0,0 l/m 6,2 km/h (2 Bft) N-NW 342 0 min 0,000 mm 2,2 UV-I 332 W/m 14,3 C 17,6 C 12,9 km/h (3 Bft) 94,74 %
12.07.2019 09:54 17,6 C 21,1 C 23,3 C 82 % 1012,4 hPa 0,0 l/m 6,4 km/h (2 Bft) W-NW 296 2 min 0,000 mm 2,3 UV-I 509 W/m 14,5 C 17,6 C 11,3 km/h (2 Bft) 95,74 %
12.07.2019 09:56 17,8 C 21,1 C 25,0 C 83 % 1012,4 hPa 0,0 l/m 7,6 km/h (2 Bft) W 267 2 min 0,000 mm 2,3 UV-I 653 W/m 14,9 C 17,2 C 12,9 km/h (3 Bft) 93,62 %
12.07.2019 09:58 18,0 C 21,1 C 25,6 C 83 % 1012,4 hPa 0,0 l/m 5,7 km/h (1 Bft) W-SW 252 2 min 0,000 mm 2,3 UV-I 768 W/m 15,1 C 18,0 C 12,9 km/h (3 Bft) 95,74 %
12.07.2019 10:00 18,3 C 21,1 C 25,6 C 82 % 1012,4 hPa 0,0 l/m 5,5 km/h (1 Bft) W 272 2 min 0,203 mm 2,0 UV-I 747 W/m 15,2 C 18,3 C 11,3 km/h (2 Bft) 97,87 %
12.07.2019 10:02 18,4 C 21,1 C 23,9 C 80 % 1012,4 hPa 0,0 l/m 4,8 km/h (1 Bft) W-SW 245 0 min 0,000 mm 1,6 UV-I 360 W/m 14,9 C 18,4 C 9,7 km/h (2 Bft) 97,87 %
12.07.2019 10:04 18,4 C 21,1 C 22,8 C 81 % 1012,4 hPa 0,0 l/m 4,4 km/h (1 Bft) W-NW 298 0 min 0,000 mm 1,5 UV-I 279 W/m 15,1 C 18,4 C 11,3 km/h (2 Bft) 97,87 %
12.07.2019 10:06 18,2 C 21,1 C 22,2 C 81 % 1012,4 hPa 0,0 l/m 5,5 km/h (1 Bft) W-SW 251 0 min 0,000 mm 1,5 UV-I 267 W/m 14,9 C 18,2 C 9,7 km/h (2 Bft) 97,87 %
12.07.2019 10:08 18,1 C 21,1 C 22,8 C 79 % 1012,3 hPa 0,0 l/m 3,3 km/h (1 Bft) W-SW 239 0 min 0,000 mm 2,0 UV-I 338 W/m 14,4 C 18,1 C 6,4 km/h (2 Bft) 98,00 %
12.07.2019 10:10 18,1 C 21,1 C 23,9 C 81 % 1012,3 hPa 0,0 l/m 4,6 km/h (1 Bft) W-SW 257 0 min 0,000 mm 2,3 UV-I 355 W/m 14,8 C 18,1 C 11,3 km/h (2 Bft) 97,87 %
12.07.2019 10:12 18,1 C 21,7 C 25,0 C 81 % 1012,3 hPa 0,0 l/m 3,2 km/h (1 Bft) W 261 0 min 0,000 mm 2,1 UV-I 284 W/m 14,8 C 18,1 C 4,8 km/h (1 Bft) 95,83 %
12.07.2019 10:14 18,3 C 21,7 C 26,7 C 80 % 1012,2 hPa 0,0 l/m 3,9 km/h (1 Bft) NW 320 2 min 0,000 mm 3,0 UV-I 645 W/m 14,8 C 18,3 C 8,0 km/h (2 Bft) 98,00 %
12.07.2019 10:16 18,4 C 21,1 C 26,7 C 80 % 1012,3 hPa 0,0 l/m 8,6 km/h (2 Bft) W 265 2 min 0,000 mm 2,6 UV-I 789 W/m 14,9 C 17,4 C 17,7 km/h (3 Bft) 92,11 %
12.07.2019 10:18 18,6 C 21,7 C 27,8 C 79 % 1012,3 hPa 0,0 l/m 5,2 km/h (1 Bft) SW 234 2 min 0,000 mm 2,8 UV-I 792 W/m 14,9 C 18,6 C 9,7 km/h (2 Bft) 95,74 %
12.07.2019 10:20 18,7 C 21,1 C 27,8 C 78 % 1012,3 hPa 0,0 l/m 5,6 km/h (1 Bft) NW 325 2 min 0,000 mm 2,5 UV-I 810 W/m 14,8 C 18,7 C 8,0 km/h (2 Bft) 96,00 %
12.07.2019 10:22 18,7 C 21,7 C 27,2 C 78 % 1012,3 hPa 0,0 l/m 5,0 km/h (1 Bft) W-SW 257 2 min 0,000 mm 2,3 UV-I 670 W/m 14,8 C 18,7 C 8,0 km/h (2 Bft) 97,87 %
12.07.2019 10:24 18,8 C 21,7 C 28,9 C 79 % 1012,3 hPa 0,0 l/m 3,9 km/h (1 Bft) NW 317 2 min 0,000 mm 3,2 UV-I 708 W/m 15,1 C 18,8 C 9,7 km/h (2 Bft) 95,74 %
12.07.2019 10:26 18,9 C 21,1 C 28,3 C 76 % 1012,3 hPa 0,0 l/m 6,5 km/h (2 Bft) W 271 2 min 0,000 mm 2,7 UV-I 939 W/m 14,6 C 18,9 C 14,5 km/h (3 Bft) 97,87 %
12.07.2019 10:28 18,7 C 21,1 C 27,8 C 77 % 1012,3 hPa 0,0 l/m 6,5 km/h (2 Bft) W-SW 254 2 min 0,000 mm 2,4 UV-I 428 W/m 14,6 C 18,7 C 11,3 km/h (2 Bft) 97,87 %
12.07.2019 10:30 18,8 C 21,7 C 27,2 C 78 % 1012,3 hPa 0,0 l/m 7,6 km/h (2 Bft) NW 305 0 min 0,000 mm 2,8 UV-I 341 W/m 14,9 C 18,3 C 12,9 km/h (3 Bft) 100,00 %
12.07.2019 10:32 18,9 C 21,7 C 28,9 C 78 % 1012,3 hPa 0,0 l/m 6,6 km/h (2 Bft) SW 234 2 min 0,000 mm 3,5 UV-I 712 W/m 15,0 C 18,8 C 12,9 km/h (3 Bft) 97,87 %
12.07.2019 10:34 19,1 C 21,7 C 29,4 C 77 % 1012,3 hPa 0,0 l/m 6,7 km/h (2 Bft) W 262 2 min 0,000 mm 3,1 UV-I 872 W/m 15,0 C 19,0 C 11,3 km/h (2 Bft) 100,00 %
12.07.2019 10:36 19,3 C 21,7 C 30,6 C 77 % 1012,3 hPa 0,0 l/m 6,3 km/h (2 Bft) NW 317 2 min 0,000 mm 3,5 UV-I 886 W/m 15,2 C 19,3 C 11,3 km/h (2 Bft) 100,00 %
12.07.2019 10:38 19,1 C 21,7 C 28,9 C 75 % 1012,3 hPa 0,0 l/m 3,5 km/h (1 Bft) W 261 2 min 0,000 mm 2,5 UV-I 888 W/m 14,6 C 19,1 C 8,0 km/h (2 Bft) 100,00 %
12.07.2019 10:40 19,0 C 21,7 C 30,0 C 76 % 1012,2 hPa 0,0 l/m 3,5 km/h (1 Bft) W-NW 284 2 min 0,000 mm 3,3 UV-I 879 W/m 14,7 C 19,0 C 6,4 km/h (2 Bft) 100,00 %
12.07.2019 10:42 19,2 C 21,7 C 30,6 C 76 % 1012,3 hPa 0,0 l/m 10,3 km/h (2 Bft) W 278 2 min 0,000 mm 3,7 UV-I 879 W/m 14,9 C 17,7 C 17,7 km/h (3 Bft) 97,37 %
12.07.2019 10:44 19,3 C 21,7 C 32,2 C 76 % 1012,2 hPa 0,0 l/m 5,7 km/h (1 Bft) SW 236 2 min 0,000 mm 3,8 UV-I 910 W/m 15,0 C 19,3 C 11,3 km/h (2 Bft) 100,00 %
12.07.2019 10:46 19,5 C 21,7 C 32,2 C 76 % 1012,2 hPa 0,0 l/m 6,8 km/h (2 Bft) S 187 2 min 0,000 mm 3,8 UV-I 907 W/m 15,2 C 19,3 C 12,9 km/h (3 Bft) 100,00 %
12.07.2019 10:48 19,6 C 21,1 C 30,6 C 76 % 1012,2 hPa 0,0 l/m 9,1 km/h (2 Bft) W-SW 251 2 min 0,000 mm 3,0 UV-I 788 W/m 15,2 C 18,5 C 14,5 km/h (3 Bft) 97,87 %
12.07.2019 10:50 19,3 C 21,7 C 28,9 C 74 % 1012,2 hPa 0,0 l/m 5,2 km/h (1 Bft) NW 312 0 min 0,000 mm 2,7 UV-I 211 W/m 14,5 C 19,3 C 8,0 km/h (2 Bft) 93,62 %
12.07.2019 10:52 19,4 C 21,7 C 30,6 C 77 % 1012,2 hPa 0,0 l/m 2,3 km/h (1 Bft) NW 313 2 min 0,000 mm 3,9 UV-I 794 W/m 15,3 C 19,4 C 3,2 km/h (1 Bft) 100,00 %
12.07.2019 10:54 19,4 C 21,7 C 28,3 C 75 % 1012,1 hPa 0,0 l/m 4,9 km/h (1 Bft) N 355 2 min 0,000 mm 2,8 UV-I 772 W/m 14,8 C 19,4 C 9,7 km/h (2 Bft) 97,87 %
12.07.2019 10:56 19,4 C 21,7 C 27,8 C 76 % 1012,2 hPa 0,0 l/m 6,1 km/h (2 Bft) W-SW 250 0 min 0,000 mm 3,0 UV-I 209 W/m 15,1 C 19,4 C 9,7 km/h (2 Bft) 98,00 %
12.07.2019 10:58 19,4 C 21,7 C 29,4 C 75 % 1012,1 hPa 0,0 l/m 8,2 km/h (2 Bft) N-NW 330 2 min 0,000 mm 4,0 UV-I 812 W/m 14,8 C 18,6 C 14,5 km/h (3 Bft) 97,87 %
12.07.2019 11:00 19,7 C 21,7 C 30,6 C 76 % 1012,1 hPa 0,0 l/m 4,7 km/h (1 Bft) W 279 2 min 0,356 mm 4,0 UV-I 933 W/m 15,3 C 19,7 C 11,3 km/h (2 Bft) 93,62 %
12.07.2019 11:02 19,7 C 21,7 C 30,0 C 73 % 1012,1 hPa 0,0 l/m 8,7 km/h (2 Bft) W-SW 255 2 min 0,000 mm 3,2 UV-I 960 W/m 14,7 C 18,8 C 14,5 km/h (3 Bft) 97,37 %
12.07.2019 11:04 19,6 C 21,7 C 31,1 C 73 % 1012,1 hPa 0,0 l/m 3,1 km/h (1 Bft) W 263 2 min 0,000 mm 3,5 UV-I 960 W/m 14,6 C 19,6 C 6,4 km/h (2 Bft) 96,00 %
12.07.2019 11:06 19,8 C 21,7 C 30,0 C 74 % 1012,1 hPa 0,0 l/m 4,7 km/h (1 Bft) W-NW 286 2 min 0,000 mm 2,7 UV-I 571 W/m 15,0 C 19,8 C 6,4 km/h (2 Bft) 97,87 %
12.07.2019 11:08 19,8 C 21,7 C 29,4 C 73 % 1012,0 hPa 0,0 l/m 5,6 km/h (1 Bft) NW 306 0 min 0,000 mm 3,1 UV-I 343 W/m 14,8 C 19,8 C 12,9 km/h (3 Bft) 98,11 %
12.07.2019 11:10 19,9 C 21,7 C 31,1 C 74 % 1012,0 hPa 0,0 l/m 6,0 km/h (2 Bft) W 277 2 min 0,000 mm 3,8 UV-I 577 W/m 15,1 C 19,9 C 11,3 km/h (2 Bft) 91,67 %
12.07.2019 11:12 20,1 C 21,7 C 30,6 C 72 % 1012,0 hPa 0,0 l/m 8,5 km/h (2 Bft) SW 233 2 min 0,000 mm 3,1 UV-I 918 W/m 14,9 C 19,3 C 14,5 km/h (3 Bft) 95,08 %
12.07.2019 11:14 20,2 C 21,7 C 29,4 C 73 % 1012,0 hPa 0,0 l/m 5,7 km/h (1 Bft) W 276 2 min 0,000 mm 2,6 UV-I 478 W/m 15,2 C 20,2 C 12,9 km/h (3 Bft) 96,00 %
12.07.2019 11:16 20,1 C 21,7 C 27,2 C 71 % 1012,0 hPa 0,0 l/m 9,5 km/h (2 Bft) W-SW 255 0 min 0,000 mm 2,5 UV-I 326 W/m 14,7 C 18,9 C 16,1 km/h (3 Bft) 93,62 %
12.07.2019 11:18 19,9 C 21,7 C 26,1 C 72 % 1012,0 hPa 0,0 l/m 9,6 km/h (2 Bft) W-SW 238 0 min 0,000 mm 2,4 UV-I 317 W/m 14,7 C 18,7 C 16,1 km/h (3 Bft) 97,87 %
12.07.2019 11:20 19,8 C 21,7 C 25,0 C 73 % 1012,0 hPa 0,0 l/m 8,5 km/h (2 Bft) W 262 0 min 0,000 mm 2,5 UV-I 310 W/m 14,8 C 18,9 C 14,5 km/h (3 Bft) 96,00 %
12.07.2019 11:22 19,8 C 21,7 C 25,0 C 73 % 1011,9 hPa 0,0 l/m 3,5 km/h (1 Bft) W 261 0 min 0,000 mm 2,6 UV-I 286 W/m 14,8 C 19,8 C 11,3 km/h (2 Bft) 97,87 %
12.07.2019 11:24 19,8 C 21,7 C 25,6 C 74 % 1011,9 hPa 0,0 l/m 3,8 km/h (1 Bft) NW 305 0 min 0,000 mm 3,5 UV-I 260 W/m 15,0 C 19,8 C 6,4 km/h (2 Bft) 95,74 %
12.07.2019 11:26 19,9 C 21,7 C 27,2 C 73 % 1011,9 hPa 0,0 l/m 7,3 km/h (2 Bft) W 272 2 min 0,000 mm 4,1 UV-I 482 W/m 14,9 C 19,5 C 12,9 km/h (3 Bft) 95,74 %
12.07.2019 11:28 20,1 C 21,7 C 30,0 C 72 % 1011,9 hPa 0,0 l/m 7,8 km/h (2 Bft) W-SW 243 2 min 0,000 mm 4,6 UV-I 869 W/m 14,9 C 19,5 C 11,3 km/h (2 Bft) 95,83 %
12.07.2019 11:30 20,2 C 21,7 C 31,1 C 71 % 1011,9 hPa 0,0 l/m 7,7 km/h (2 Bft) W 281 2 min 0,000 mm 4,7 UV-I 898 W/m 14,8 C 19,7 C 14,5 km/h (3 Bft) 93,62 %
12.07.2019 11:32 20,6 C 21,7 C 32,8 C 71 % 1011,9 hPa 0,0 l/m 4,3 km/h (1 Bft) SW 225 2 min 0,000 mm 4,8 UV-I 923 W/m 15,2 C 20,6 C 9,7 km/h (2 Bft) 97,87 %
12.07.2019 11:34 20,8 C 21,7 C 35,0 C 71 % 1011,8 hPa 0,0 l/m 4,3 km/h (1 Bft) SW 224 2 min 0,000 mm 4,8 UV-I 938 W/m 15,3 C 20,8 C 9,7 km/h (2 Bft) 97,37 %
12.07.2019 11:36 21,1 C 21,7 C 35,0 C 70 % 1011,8 hPa 0,0 l/m 4,7 km/h (1 Bft) W-NW 298 2 min 0,000 mm 4,8 UV-I 950 W/m 15,4 C 21,1 C 11,3 km/h (2 Bft) 97,87 %
12.07.2019 11:38 21,2 C 21,7 C 34,4 C 68 % 1011,7 hPa 0,0 l/m 11,7 km/h (2 Bft) W 262 2 min 0,000 mm 4,8 UV-I 959 W/m 15,1 C 19,5 C 17,7 km/h (3 Bft) 98,00 %
12.07.2019 11:40 21,2 C 21,7 C 34,4 C 66 % 1011,7 hPa 0,0 l/m 13,9 km/h (3 Bft) W-SW 250 2 min 0,000 mm 4,7 UV-I 1017 W/m 14,6 C 18,9 C 19,3 km/h (3 Bft) 96,00 %
12.07.2019 11:42 21,3 C 21,7 C 35,0 C 68 % 1011,7 hPa 0,0 l/m 10,8 km/h (2 Bft) W-NW 300 2 min 0,000 mm 4,4 UV-I 982 W/m 15,1 C 19,8 C 17,7 km/h (3 Bft) 97,87 %
12.07.2019 11:44 21,3 C 21,7 C 33,9 C 67 % 1011,7 hPa 0,0 l/m 11,6 km/h (2 Bft) W-NW 298 2 min 0,000 mm 4,5 UV-I 1007 W/m 14,9 C 19,6 C 14,5 km/h (3 Bft) 100,00 %
12.07.2019 11:46 21,3 C 21,7 C 34,4 C 66 % 1011,6 hPa 0,0 l/m 4,8 km/h (1 Bft) W-SW 243 2 min 0,000 mm 4,3 UV-I 1018 W/m 14,7 C 21,3 C 11,3 km/h (2 Bft) 97,14 %
12.07.2019 11:48 21,6 C 21,7 C 35,6 C 69 % 1011,6 hPa 0,0 l/m 8,2 km/h (2 Bft) S-SW 213 2 min 0,000 mm 4,7 UV-I 1097 W/m 15,7 C 21,0 C 14,5 km/h (3 Bft) 97,87 %
12.07.2019 11:50 21,8 C 21,7 C 33,9 C 64 % 1011,7 hPa 0,0 l/m 12,4 km/h (3 Bft) W-NW 290 2 min 0,000 mm 4,0 UV-I 1125 W/m 14,7 C 20,0 C 22,5 km/h (4 Bft) 100,00 %
12.07.2019 11:52 21,6 C 21,7 C 32,2 C 64 % 1011,7 hPa 0,0 l/m 7,0 km/h (2 Bft) SW 229 0 min 0,000 mm 3,1 UV-I 435 W/m 14,5 C 21,4 C 14,5 km/h (3 Bft) 97,87 %
12.07.2019 11:54 21,4 C 21,7 C 30,0 C 65 % 1011,7 hPa 0,0 l/m 9,1 km/h (2 Bft) W-NW 301 0 min 0,000 mm 2,2 UV-I 345 W/m 14,5 C 20,5 C 16,1 km/h (3 Bft) 100,00 %
12.07.2019 11:56 21,3 C 21,7 C 30,0 C 68 % 1011,7 hPa 0,0 l/m 4,6 km/h (1 Bft) W-SW 245 0 min 0,000 mm 3,2 UV-I 402 W/m 15,1 C 21,3 C 8,0 km/h (2 Bft) 97,87 %
12.07.2019 11:58 21,3 C 21,7 C 29,4 C 66 % 1011,7 hPa 0,0 l/m 5,4 km/h (1 Bft) W-SW 257 0 min 0,000 mm 2,9 UV-I 408 W/m 14,7 C 21,3 C 9,7 km/h (2 Bft) 98,00 %
12.07.2019 12:00 21,3 C 21,7 C 27,8 C 65 % 1011,7 hPa 0,0 l/m 7,9 km/h (2 Bft) W-SW 252 0 min 0,000 mm 2,4 UV-I 343 W/m 14,4 C 20,8 C 16,1 km/h (3 Bft) 100,00 %
12.07.2019 12:02 21,1 C 21,7 C 26,7 C 66 % 1011,7 hPa 0,0 l/m 9,5 km/h (2 Bft) W 262 0 min 0,431 mm 2,6 UV-I 339 W/m 14,5 C 20,0 C 14,5 km/h (3 Bft) 100,00 %
12.07.2019 12:04 20,9 C 21,7 C 28,9 C 66 % 1011,6 hPa 0,0 l/m 7,1 km/h (2 Bft) SW 220 0 min 0,000 mm 4,5 UV-I 450 W/m 14,3 C 20,6 C 12,9 km/h (3 Bft) 100,00 %
12.07.2019 12:06 21,1 C 21,7 C 30,6 C 67 % 1011,6 hPa 0,0 l/m 7,0 km/h (2 Bft) W 275 2 min 0,000 mm 4,1 UV-I 1013 W/m 14,7 C 20,9 C 12,9 km/h (3 Bft) 100,00 %
12.07.2019 12:08 21,2 C 21,7 C 32,2 C 65 % 1011,6 hPa 0,0 l/m 7,4 km/h (2 Bft) N-NW 333 2 min 0,000 mm 4,1 UV-I 1023 W/m 14,4 C 20,8 C 12,9 km/h (3 Bft) 100,00 %
12.07.2019 12:10 21,3 C 21,7 C 32,2 C 67 % 1011,5 hPa 0,0 l/m 2,9 km/h (1 Bft) N 9 2 min 0,000 mm 3,9 UV-I 1027 W/m 14,9 C 21,3 C 6,4 km/h (2 Bft) 100,00 %
12.07.2019 12:12 21,5 C 21,7 C 30,0 C 67 % 1011,6 hPa 0,0 l/m 3,4 km/h (1 Bft) W 281 0 min 0,000 mm 1,6 UV-I 395 W/m 15,1 C 21,5 C 6,4 km/h (2 Bft) 100,00 %
12.07.2019 12:14 21,3 C 21,7 C 27,8 C 65 % 1011,6 hPa 0,0 l/m 3,1 km/h (1 Bft) NW 317 0 min 0,000 mm 1,5 UV-I 200 W/m 14,4 C 21,3 C 6,4 km/h (2 Bft) 100,00 %
12.07.2019 12:16 21,1 C 21,7 C 26,1 C 67 % 1011,5 hPa 0,0 l/m 2,0 km/h (1 Bft) NW 317 0 min 0,000 mm 1,6 UV-I 203 W/m 14,7 C 21,1 C 4,8 km/h (1 Bft) 100,00 %
12.07.2019 12:18 20,9 C 21,7 C 25,0 C 67 % 1011,5 hPa 0,0 l/m 4,8 km/h (1 Bft) W 260 0 min 0,000 mm 1,3 UV-I 175 W/m 14,5 C 20,9 C 6,4 km/h (2 Bft) 100,00 %
12.07.2019 12:20 20,7 C 21,7 C 24,4 C 68 % 1011,5 hPa 0,0 l/m 4,7 km/h (1 Bft) W-SW 244 0 min 0,000 mm 1,4 UV-I 179 W/m 14,6 C 20,7 C 11,3 km/h (2 Bft) 100,00 %
12.07.2019 12:22 20,7 C 21,7 C 24,4 C 68 % 1011,6 hPa 0,0 l/m 6,4 km/h (2 Bft) W 260 0 min 0,000 mm 2,0 UV-I 261 W/m 14,6 C 20,7 C 9,7 km/h (2 Bft) 97,87 %
12.07.2019 12:24 20,8 C 21,7 C 27,8 C 68 % 1011,6 hPa 0,0 l/m 4,3 km/h (1 Bft) W-NW 285 0 min 0,000 mm 3,8 UV-I 345 W/m 14,7 C 20,8 C 6,4 km/h (2 Bft) 100,00 %
12.07.2019 12:26 20,9 C 21,7 C 31,7 C 66 % 1011,5 hPa 0,0 l/m 2,8 km/h (1 Bft) W-NW 283 2 min 0,000 mm 5,0 UV-I 1002 W/m 14,3 C 20,9 C 4,8 km/h (1 Bft) 93,62 %
12.07.2019 12:28 21,2 C 21,7 C 34,4 C 67 % 1011,4 hPa 0,0 l/m 2,4 km/h (1 Bft) NW 322 2 min 0,000 mm 5,4 UV-I 1054 W/m 14,8 C 21,2 C 8,0 km/h (2 Bft) 95,74 %
12.07.2019 12:30 21,5 C 21,7 C 34,4 C 65 % 1011,3 hPa 0,0 l/m 4,0 km/h (1 Bft) SW 234 2 min 0,000 mm 4,8 UV-I 1014 W/m 14,6 C 21,5 C 6,4 km/h (2 Bft) 97,87 %
12.07.2019 12:32 21,7 C 22,2 C 33,9 C 66 % 1011,4 hPa 0,0 l/m 6,2 km/h (2 Bft) NO 43 2 min 0,000 mm 4,5 UV-I 1020 W/m 15,1 C 21,7 C 9,7 km/h (2 Bft) 97,87 %
12.07.2019 12:34 21,9 C 22,2 C 34,4 C 63 % 1011,3 hPa 0,0 l/m 8,6 km/h (2 Bft) W-SW 257 2 min 0,000 mm 5,1 UV-I 966 W/m 14,5 C 21,2 C 11,3 km/h (2 Bft) 97,87 %
12.07.2019 12:36 21,9 C 22,2 C 35,6 C 62 % 1011,3 hPa 0,0 l/m 2,9 km/h (1 Bft) W-SW 257 2 min 0,000 mm 5,1 UV-I 934 W/m 14,3 C 21,9 C 6,4 km/h (2 Bft) 97,44 %
12.07.2019 12:38 21,8 C 22,2 C 36,7 C 63 % 1011,2 hPa 0,0 l/m 1,9 km/h (1 Bft) W-SW 256 2 min 0,000 mm 5,2 UV-I 970 W/m 14,4 C 21,8 C 4,8 km/h (1 Bft) 98,00 %
12.07.2019 12:40 22,0 C 22,2 C 37,8 C 64 % 1011,2 hPa 0,0 l/m 3,5 km/h (1 Bft) W-SW 242 2 min 0,000 mm 5,5 UV-I 1048 W/m 14,9 C 22,0 C 11,3 km/h (2 Bft) 97,87 %
12.07.2019 12:42 22,4 C 22,2 C 38,3 C 63 % 1011,2 hPa 0,0 l/m 9,6 km/h (2 Bft) S 188 2 min 0,000 mm 5,5 UV-I 1103 W/m 15,0 C 21,4 C 16,1 km/h (3 Bft) 97,87 %
12.07.2019 12:44 22,6 C 22,2 C 38,9 C 59 % 1011,1 hPa 0,0 l/m 5,1 km/h (1 Bft) N-NW 337 2 min 0,000 mm 5,3 UV-I 1107 W/m 14,2 C 22,6 C 8,0 km/h (2 Bft) 91,49 %
12.07.2019 12:46 22,8 C 22,2 C 35,6 C 59 % 1011,1 hPa 0,0 l/m 8,9 km/h (2 Bft) W 277 2 min 0,000 mm 3,0 UV-I 955 W/m 14,4 C 22,0 C 19,3 km/h (3 Bft) 97,87 %
12.07.2019 12:48 22,7 C 22,2 C 31,7 C 59 % 1011,2 hPa 0,0 l/m 12,9 km/h (3 Bft) SW 220 0 min 0,000 mm 2,4 UV-I 318 W/m 14,3 C 20,9 C 25,7 km/h (4 Bft) 95,74 %
12.07.2019 12:50 22,5 C 22,2 C 28,9 C 58 % 1011,2 hPa 0,0 l/m 12,9 km/h (3 Bft) SW 233 0 min 0,000 mm 2,3 UV-I 314 W/m 13,8 C 20,7 C 17,7 km/h (3 Bft) 98,00 %
12.07.2019 12:52 22,3 C 22,2 C 27,2 C 59 % 1011,2 hPa 0,0 l/m 5,8 km/h (2 Bft) W-SW 238 0 min 0,000 mm 2,2 UV-I 300 W/m 13,9 C 22,3 C 11,3 km/h (2 Bft) 100,00 %
12.07.2019 12:54 22,2 C 22,2 C 26,7 C 61 % 1011,2 hPa 0,0 l/m 3,8 km/h (1 Bft) W-SW 256 0 min 0,000 mm 2,1 UV-I 284 W/m 14,3 C 22,2 C 6,4 km/h (2 Bft) 97,87 %
12.07.2019 12:56 22,1 C 22,2 C 26,1 C 60 % 1011,1 hPa 0,0 l/m 4,5 km/h (1 Bft) S-SW 198 0 min 0,000 mm 2,4 UV-I 304 W/m 14,0 C 22,1 C 9,7 km/h (2 Bft) 100,00 %
12.07.2019 12:58 21,9 C 22,2 C 26,1 C 60 % 1011,0 hPa 0,0 l/m 5,4 km/h (1 Bft) W-SW 244 0 min 0,000 mm 3,0 UV-I 375 W/m 13,8 C 21,9 C 12,9 km/h (3 Bft) 100,00 %
12.07.2019 13:00 22,2 C 22,2 C 28,3 C 61 % 1010,9 hPa 0,0 l/m 4,2 km/h (1 Bft) W-SW 248 0 min 0,000 mm 3,8 UV-I 435 W/m 14,3 C 22,2 C 11,3 km/h (2 Bft) 100,00 %
12.07.2019 13:02 22,4 C 22,2 C 30,0 C 61 % 1011,0 hPa 0,0 l/m 9,1 km/h (2 Bft) W 269 0 min 0,407 mm 4,5 UV-I 448 W/m 14,5 C 21,5 C 16,1 km/h (3 Bft) 100,00 %
12.07.2019 13:04 22,4 C 22,2 C 28,9 C 59 % 1010,9 hPa 0,0 l/m 9,2 km/h (2 Bft) W 273 0 min 0,000 mm 2,9 UV-I 424 W/m 14,0 C 21,5 C 14,5 km/h (3 Bft) 97,37 %
12.07.2019 13:06 22,6 C 22,2 C 28,3 C 59 % 1010,9 hPa 0,0 l/m 6,8 km/h (2 Bft) SW 233 0 min 0,000 mm 2,7 UV-I 393 W/m 14,2 C 22,5 C 14,5 km/h (3 Bft) 98,00 %
12.07.2019 13:08 22,6 C 22,2 C 27,8 C 58 % 1010,9 hPa 0,0 l/m 9,3 km/h (2 Bft) W-SW 237 0 min 0,000 mm 2,7 UV-I 383 W/m 13,9 C 21,7 C 14,5 km/h (3 Bft) 95,74 %
12.07.2019 13:10 22,3 C 22,2 C 26,7 C 57 % 1010,9 hPa 0,0 l/m 13,8 km/h (3 Bft) NW 304 0 min 0,000 mm 2,5 UV-I 355 W/m 13,4 C 20,3 C 19,3 km/h (3 Bft) 98,00 %
12.07.2019 13:12 22,2 C 22,2 C 26,1 C 57 % 1010,9 hPa 0,0 l/m 14,0 km/h (3 Bft) W 273 0 min 0,000 mm 2,4 UV-I 329 W/m 13,3 C 20,1 C 20,9 km/h (4 Bft) 97,87 %
12.07.2019 13:14 22,1 C 22,2 C 25,6 C 58 % 1010,9 hPa 0,0 l/m 9,0 km/h (2 Bft) NW 308 0 min 0,000 mm 2,5 UV-I 347 W/m 13,4 C 21,2 C 14,5 km/h (3 Bft) 92,31 %
12.07.2019 13:16 21,9 C 22,2 C 25,6 C 61 % 1010,9 hPa 0,0 l/m 6,9 km/h (2 Bft) W-SW 248 0 min 0,000 mm 2,4 UV-I 347 W/m 14,0 C 21,7 C 16,1 km/h (3 Bft) 93,62 %
12.07.2019 13:18 21,9 C 22,2 C 25,6 C 57 % 1010,9 hPa 0,0 l/m 10,0 km/h (2 Bft) W-SW 247 0 min 0,000 mm 2,1 UV-I 286 W/m 13,0 C 20,7 C 17,7 km/h (3 Bft) 96,15 %
12.07.2019 13:20 21,8 C 22,2 C 25,0 C 59 % 1010,9 hPa 0,0 l/m 8,3 km/h (2 Bft) W-SW 242 0 min 0,000 mm 1,7 UV-I 234 W/m 13,4 C 21,1 C 16,1 km/h (3 Bft) 97,92 %
12.07.2019 13:22 21,7 C 22,2 C 24,4 C 59 % 1010,9 hPa 0,0 l/m 11,0 km/h (2 Bft) NW 325 0 min 0,000 mm 1,4 UV-I 206 W/m 13,3 C 20,2 C 22,5 km/h (4 Bft) 97,87 %
12.07.2019 13:24 21,6 C 22,2 C 23,9 C 59 % 1010,9 hPa 0,0 l/m 7,6 km/h (2 Bft) W-NW 301 0 min 0,000 mm 1,3 UV-I 194 W/m 13,2 C 21,2 C 14,5 km/h (3 Bft) 95,74 %
12.07.2019 13:26 21,6 C 22,2 C 23,3 C 61 % 1010,8 hPa 0,0 l/m 5,1 km/h (1 Bft) W-NW 293 0 min 0,000 mm 1,3 UV-I 187 W/m 13,7 C 21,6 C 12,9 km/h (3 Bft) 97,87 %
12.07.2019 13:28 21,4 C 22,2 C 23,3 C 60 % 1010,8 hPa 0,0 l/m 11,6 km/h (2 Bft) NW 321 0 min 0,000 mm 1,3 UV-I 188 W/m 13,3 C 19,7 C 17,7 km/h (3 Bft) 98,00 %
12.07.2019 13:30 21,4 C 22,2 C 23,3 C 60 % 1010,8 hPa 0,0 l/m 8,2 km/h (2 Bft) NW 321 0 min 0,000 mm 1,3 UV-I 189 W/m 13,3 C 20,8 C 16,1 km/h (3 Bft) 97,37 %
12.07.2019 13:32 21,3 C 22,2 C 23,3 C 61 % 1010,8 hPa 0,0 l/m 5,9 km/h (2 Bft) W-SW 256 0 min 0,000 mm 1,3 UV-I 182 W/m 13,5 C 21,3 C 11,3 km/h (2 Bft) 96,00 %
12.07.2019 13:34 21,3 C 22,2 C 23,3 C 62 % 1010,7 hPa 0,0 l/m 4,6 km/h (1 Bft) W-SW 257 0 min 0,000 mm 1,2 UV-I 170 W/m 13,7 C 21,3 C 11,3 km/h (2 Bft) 97,87 %
12.07.2019 13:36 21,3 C 22,2 C 23,3 C 62 % 1010,7 hPa 0,0 l/m 6,4 km/h (2 Bft) W-NW 296 0 min 0,000 mm 1,2 UV-I 163 W/m 13,7 C 21,3 C 16,1 km/h (3 Bft) 97,87 %
12.07.2019 13:38 21,2 C 22,2 C 22,8 C 61 % 1010,7 hPa 0,0 l/m 10,1 km/h (2 Bft) SW 225 0 min 0,000 mm 1,2 UV-I 165 W/m 13,4 C 19,9 C 17,7 km/h (3 Bft) 95,74 %
12.07.2019 13:40 21,2 C 22,2 C 22,8 C 62 % 1010,9 hPa 0,0 l/m 8,2 km/h (2 Bft) SW 236 0 min 0,000 mm 1,1 UV-I 162 W/m 13,6 C 20,5 C 12,9 km/h (3 Bft) 93,62 %
12.07.2019 13:42 21,2 C 22,2 C 22,2 C 61 % 1010,9 hPa 0,0 l/m 15,7 km/h (3 Bft) W-SW 254 0 min 0,000 mm 1,1 UV-I 157 W/m 13,4 C 18,6 C 25,7 km/h (4 Bft) 98,00 %
12.07.2019 13:44 21,0 C 22,2 C 22,2 C 61 % 1010,8 hPa 0,0 l/m 13,5 km/h (3 Bft) W 268 0 min 0,000 mm 1,1 UV-I 160 W/m 13,2 C 18,8 C 19,3 km/h (3 Bft) 97,87 %
12.07.2019 13:46 20,8 C 22,2 C 21,7 C 62 % 1010,9 hPa 0,0 l/m 14,7 km/h (3 Bft) W-SW 242 0 min 0,000 mm 1,1 UV-I 156 W/m 13,2 C 18,3 C 22,5 km/h (4 Bft) 95,74 %
12.07.2019 13:48 20,7 C 22,2 C 21,7 C 64 % 1010,9 hPa 0,0 l/m 14,6 km/h (3 Bft) S-SW 209 0 min 0,000 mm 1,0 UV-I 149 W/m 13,6 C 18,2 C 22,5 km/h (4 Bft) 94,74 %
12.07.2019 13:50 20,4 C 22,2 C 21,1 C 66 % 1010,9 hPa 0,0 l/m 11,8 km/h (2 Bft) SW 226 0 min 0,000 mm 0,9 UV-I 133 W/m 13,8 C 18,5 C 17,7 km/h (3 Bft) 97,87 %
12.07.2019 13:52 20,2 C 22,2 C 20,6 C 68 % 1010,9 hPa 0,0 l/m 12,3 km/h (3 Bft) SW 236 0 min 0,000 mm 0,8 UV-I 119 W/m 14,1 C 18,2 C 17,7 km/h (3 Bft) 97,92 %
12.07.2019 13:54 19,9 C 22,2 C 20,0 C 68 % 1011,0 hPa 0,0 l/m 11,9 km/h (2 Bft) W 264 0 min 0,000 mm 0,7 UV-I 113 W/m 13,8 C 17,9 C 22,5 km/h (4 Bft) 95,74 %
12.07.2019 13:56 19,8 C 22,2 C 19,4 C 69 % 1011,0 hPa 0,0 l/m 13,3 km/h (3 Bft) W 266 0 min 0,000 mm 0,8 UV-I 115 W/m 13,9 C 17,4 C 17,7 km/h (3 Bft) 97,87 %
12.07.2019 13:58 19,7 C 22,2 C 19,4 C 68 % 1010,9 hPa 0,0 l/m 12,6 km/h (3 Bft) SW 236 0 min 0,000 mm 0,9 UV-I 129 W/m 13,6 C 17,5 C 19,3 km/h (3 Bft) 97,87 %
12.07.2019 14:00 19,7 C 22,2 C 18,9 C 70 % 1010,8 hPa 0,0 l/m 10,0 km/h (2 Bft) W 279 0 min 0,203 mm 1,0 UV-I 141 W/m 14,1 C 18,3 C 17,7 km/h (3 Bft) 95,74 %
12.07.2019 14:02 19,6 C 22,2 C 18,9 C 70 % 1010,8 hPa 0,0 l/m 9,2 km/h (2 Bft) SW 221 0 min 0,000 mm 1,1 UV-I 150 W/m 14,0 C 18,5 C 14,5 km/h (3 Bft) 93,62 %
12.07.2019 14:04 19,5 C 22,2 C 18,9 C 72 % 1010,8 hPa 0,0 l/m 7,5 km/h (2 Bft) SW 233 0 min 0,000 mm 1,2 UV-I 164 W/m 14,3 C 19,0 C 14,5 km/h (3 Bft) 95,74 %
12.07.2019 14:06 19,3 C 22,2 C 18,9 C 72 % 1010,8 hPa 0,0 l/m 7,3 km/h (2 Bft) W-SW 239 0 min 0,000 mm 1,3 UV-I 182 W/m 14,1 C 18,9 C 11,3 km/h (2 Bft) 91,49 %
12.07.2019 14:08 19,2 C 22,2 C 18,9 C 72 % 1010,7 hPa 0,0 l/m 7,4 km/h (2 Bft) W-SW 257 0 min 0,000 mm 1,6 UV-I 207 W/m 14,0 C 18,8 C 11,3 km/h (2 Bft) 96,00 %
12.07.2019 14:10 19,2 C 22,2 C 18,9 C 75 % 1010,7 hPa 0,0 l/m 5,6 km/h (1 Bft) SW 234 0 min 0,000 mm 1,9 UV-I 252 W/m 14,7 C 19,2 C 8,0 km/h (2 Bft) 95,74 %
12.07.2019 14:12 19,2 C 22,2 C 22,2 C 77 % 1010,6 hPa 0,0 l/m 5,0 km/h (1 Bft) W-SW 252 0 min 0,000 mm 2,8 UV-I 287 W/m 15,1 C 19,2 C 8,0 km/h (2 Bft) 90,00 %
12.07.2019 14:14 19,6 C 22,2 C 25,0 C 79 % 1010,7 hPa 0,0 l/m 5,7 km/h (1 Bft) SW 214 2 min 0,000 mm 4,1 UV-I 662 W/m 15,9 C 19,6 C 9,7 km/h (2 Bft) 97,37 %
12.07.2019 14:16 19,8 C 22,2 C 25,6 C 74 % 1010,7 hPa 0,0 l/m 7,1 km/h (2 Bft) SW 218 2 min 0,000 mm 3,9 UV-I 816 W/m 15,0 C 19,5 C 11,3 km/h (2 Bft) 93,62 %
12.07.2019 14:18 20,1 C 22,2 C 25,6 C 74 % 1010,7 hPa 0,0 l/m 5,8 km/h (2 Bft) W-SW 242 2 min 0,000 mm 3,4 UV-I 778 W/m 15,3 C 20,1 C 11,3 km/h (2 Bft) 91,49 %
12.07.2019 14:20 20,2 C 22,2 C 26,1 C 72 % 1010,6 hPa 0,0 l/m 5,7 km/h (1 Bft) W-SW 250 2 min 0,000 mm 3,3 UV-I 474 W/m 15,0 C 20,2 C 11,3 km/h (2 Bft) 93,62 %
12.07.2019 14:22 20,3 C 22,2 C 27,8 C 71 % 1010,6 hPa 0,0 l/m 5,6 km/h (1 Bft) W-NW 294 2 min 0,000 mm 4,0 UV-I 652 W/m 14,9 C 20,3 C 9,7 km/h (2 Bft) 94,00 %
12.07.2019 14:24 20,5 C 22,2 C 30,6 C 71 % 1010,6 hPa 0,0 l/m 5,1 km/h (1 Bft) W-SW 258 2 min 0,000 mm 5,0 UV-I 892 W/m 15,1 C 20,5 C 9,7 km/h (2 Bft) 93,62 %
12.07.2019 14:26 20,8 C 22,2 C 32,8 C 70 % 1010,7 hPa 0,0 l/m 5,0 km/h (1 Bft) W 281 2 min 0,000 mm 5,3 UV-I 1036 W/m 15,1 C 20,8 C 11,3 km/h (2 Bft) 97,87 %
12.07.2019 14:28 20,9 C 22,2 C 34,4 C 69 % 1010,6 hPa 0,0 l/m 7,1 km/h (2 Bft) W-NW 294 2 min 0,000 mm 4,8 UV-I 1039 W/m 15,0 C 20,6 C 14,5 km/h (3 Bft) 98,00 %
12.07.2019 14:30 21,2 C 22,2 C 35,0 C 69 % 1010,6 hPa 0,0 l/m 6,0 km/h (2 Bft) N 351 2 min 0,000 mm 4,9 UV-I 1046 W/m 15,3 C 21,2 C 11,3 km/h (2 Bft) 97,87 %
12.07.2019 14:32 21,6 C 22,2 C 36,1 C 67 % 1010,5 hPa 0,0 l/m 5,1 km/h (1 Bft) W-NW 299 2 min 0,000 mm 5,1 UV-I 1003 W/m 15,2 C 21,6 C 8,0 km/h (2 Bft) 97,87 %
12.07.2019 14:34 21,7 C 22,2 C 33,9 C 66 % 1010,5 hPa 0,0 l/m 4,2 km/h (1 Bft) N 350 2 min 0,000 mm 3,8 UV-I 769 W/m 15,1 C 21,7 C 6,4 km/h (2 Bft) 97,87 %
12.07.2019 14:36 21,7 C 22,2 C 32,2 C 65 % 1010,5 hPa 0,0 l/m 3,5 km/h (1 Bft) W-SW 254 0 min 0,000 mm 3,2 UV-I 338 W/m 14,8 C 21,7 C 6,4 km/h (2 Bft) 93,75 %
12.07.2019 14:38 21,7 C 22,2 C 30,6 C 61 % 1010,5 hPa 0,0 l/m 4,2 km/h (1 Bft) W-NW 289 0 min 0,000 mm 3,2 UV-I 367 W/m 13,8 C 21,7 C 6,4 km/h (2 Bft) 94,74 %
12.07.2019 14:40 21,7 C 22,2 C 30,0 C 62 % 1010,5 hPa 0,0 l/m 4,1 km/h (1 Bft) N-NW 343 0 min 0,000 mm 3,5 UV-I 388 W/m 14,1 C 21,7 C 9,7 km/h (2 Bft) 95,74 %
12.07.2019 14:42 21,7 C 22,2 C 31,7 C 62 % 1010,4 hPa 0,0 l/m 6,1 km/h (2 Bft) NW 311 2 min 0,000 mm 4,4 UV-I 749 W/m 14,1 C 21,7 C 11,3 km/h (2 Bft) 100,00 %
12.07.2019 14:44 21,8 C 22,2 C 32,2 C 62 % 1010,4 hPa 0,0 l/m 6,9 km/h (2 Bft) W 259 2 min 0,000 mm 4,2 UV-I 1093 W/m 14,2 C 21,6 C 14,5 km/h (3 Bft) 100,00 %
12.07.2019 14:46 22,2 C 22,2 C 32,8 C 62 % 1010,5 hPa 0,0 l/m 4,5 km/h (1 Bft) W 278 2 min 0,000 mm 3,9 UV-I 1093 W/m 14,6 C 22,2 C 11,3 km/h (2 Bft) 97,87 %
12.07.2019 14:48 22,3 C 22,2 C 31,1 C 61 % 1010,4 hPa 0,0 l/m 4,5 km/h (1 Bft) W 264 2 min 0,000 mm 2,7 UV-I 645 W/m 14,4 C 22,3 C 9,7 km/h (2 Bft) 100,00 %
12.07.2019 14:50 22,2 C 22,2 C 29,4 C 61 % 1010,4 hPa 0,0 l/m 4,5 km/h (1 Bft) W 279 0 min 0,000 mm 2,5 UV-I 293 W/m 14,3 C 22,2 C 9,7 km/h (2 Bft) 100,00 %
12.07.2019 14:52 21,9 C 22,2 C 28,3 C 60 % 1010,4 hPa 0,0 l/m 2,9 km/h (1 Bft) W-SW 245 0 min 0,000 mm 2,3 UV-I 279 W/m 13,8 C 21,9 C 4,8 km/h (1 Bft) 100,00 %
12.07.2019 14:54 21,7 C 22,2 C 27,2 C 61 % 1010,4 hPa 0,0 l/m 3,0 km/h (1 Bft) NW 314 0 min 0,000 mm 2,2 UV-I 278 W/m 13,8 C 21,7 C 6,4 km/h (2 Bft) 97,87 %
12.07.2019 14:56 21,5 C 22,2 C 26,1 C 60 % 1010,4 hPa 0,0 l/m 5,0 km/h (1 Bft) W-NW 301 0 min 0,000 mm 2,2 UV-I 288 W/m 13,4 C 21,5 C 9,7 km/h (2 Bft) 97,37 %
12.07.2019 14:58 21,4 C 22,2 C 26,1 C 60 % 1010,3 hPa 0,0 l/m 3,5 km/h (1 Bft) NW 310 0 min 0,000 mm 2,3 UV-I 306 W/m 13,3 C 21,4 C 6,4 km/h (2 Bft) 95,74 %
12.07.2019 15:00 21,5 C 22,2 C 26,7 C 63 % 1010,3 hPa 0,0 l/m 3,4 km/h (1 Bft) NW 305 0 min 0,330 mm 2,4 UV-I 343 W/m 14,2 C 21,5 C 9,7 km/h (2 Bft) 98,11 %
12.07.2019 15:02 21,5 C 22,2 C 26,7 C 61 % 1010,2 hPa 0,0 l/m 3,1 km/h (1 Bft) W 267 0 min 0,000 mm 2,3 UV-I 324 W/m 13,7 C 21,5 C 4,8 km/h (1 Bft) 97,87 %
12.07.2019 15:04 21,4 C 22,2 C 26,1 C 62 % 1010,2 hPa 0,0 l/m 3,6 km/h (1 Bft) W 261 0 min 0,000 mm 2,2 UV-I 324 W/m 13,8 C 21,4 C 6,4 km/h (2 Bft) 98,00 %
12.07.2019 15:06 21,4 C 22,2 C 26,1 C 59 % 1010,2 hPa 0,0 l/m 3,8 km/h (1 Bft) W 263 0 min 0,000 mm 2,3 UV-I 335 W/m 13,0 C 21,4 C 4,8 km/h (1 Bft) 97,87 %
12.07.2019 15:08 21,3 C 22,2 C 26,1 C 60 % 1010,1 hPa 0,0 l/m 2,7 km/h (1 Bft) W 271 0 min 0,000 mm 2,2 UV-I 331 W/m 13,2 C 21,3 C 6,4 km/h (2 Bft) 91,49 %
12.07.2019 15:10 21,4 C 22,2 C 26,1 C 61 % 1010,1 hPa 0,0 l/m 4,0 km/h (1 Bft) SW 234 0 min 0,000 mm 2,2 UV-I 321 W/m 13,6 C 21,4 C 6,4 km/h (2 Bft) 100,00 %
12.07.2019 15:12 21,5 C 22,2 C 26,1 C 60 % 1010,1 hPa 0,0 l/m 3,2 km/h (1 Bft) W-SW 238 0 min 0,000 mm 2,1 UV-I 320 W/m 13,4 C 21,5 C 4,8 km/h (1 Bft) 94,00 %
12.07.2019 15:14 21,6 C 22,2 C 26,1 C 61 % 1010,1 hPa 0,0 l/m 4,0 km/h (1 Bft) W-NW 283 0 min 0,000 mm 2,1 UV-I 322 W/m 13,7 C 21,6 C 9,7 km/h (2 Bft) 98,00 %
12.07.2019 15:16 21,6 C 22,2 C 26,1 C 61 % 1010,1 hPa 0,0 l/m 5,4 km/h (1 Bft) SW 232 0 min 0,000 mm 2,0 UV-I 324 W/m 13,7 C 21,6 C 9,7 km/h (2 Bft) 96,00 %
12.07.2019 15:18 21,6 C 22,2 C 25,6 C 60 % 1010,1 hPa 0,0 l/m 6,5 km/h (2 Bft) W-NW 290 0 min 0,000 mm 2,0 UV-I 326 W/m 13,5 C 21,6 C 11,3 km/h (2 Bft) 94,74 %
12.07.2019 15:20 21,6 C 22,2 C 25,6 C 61 % 1010,1 hPa 0,0 l/m 3,7 km/h (1 Bft) W-NW 288 0 min 0,000 mm 1,9 UV-I 317 W/m 13,7 C 21,6 C 6,4 km/h (2 Bft) 97,87 %
12.07.2019 15:22 21,6 C 22,2 C 25,6 C 61 % 1010,2 hPa 0,0 l/m 5,6 km/h (1 Bft) W-SW 246 0 min 0,000 mm 1,8 UV-I 302 W/m 13,7 C 21,6 C 9,7 km/h (2 Bft) 97,87 %
12.07.2019 15:24 21,7 C 22,2 C 25,6 C 61 % 1010,2 hPa 0,0 l/m 6,9 km/h (2 Bft) W-SW 240 0 min 0,000 mm 1,5 UV-I 279 W/m 13,8 C 21,5 C 14,5 km/h (3 Bft) 97,87 %
12.07.2019 15:26 21,7 C 22,2 C 25,0 C 60 % 1010,3 hPa 0,0 l/m 10,5 km/h (2 Bft) SW 231 0 min 0,000 mm 1,3 UV-I 239 W/m 13,6 C 20,4 C 16,1 km/h (3 Bft) 94,00 %
12.07.2019 15:28 21,7 C 22,2 C 24,4 C 60 % 1010,4 hPa 0,0 l/m 9,2 km/h (2 Bft) SW 229 0 min 0,000 mm 1,2 UV-I 211 W/m 13,6 C 20,8 C 16,1 km/h (3 Bft) 100,00 %
12.07.2019 15:30 21,6 C 22,2 C 23,9 C 61 % 1010,4 hPa 0,0 l/m 11,3 km/h (2 Bft) W-SW 241 0 min 0,000 mm 1,1 UV-I 201 W/m 13,7 C 20,1 C 19,3 km/h (3 Bft) 95,74 %
12.07.2019 15:32 21,4 C 22,2 C 23,3 C 62 % 1010,4 hPa 0,0 l/m 13,2 km/h (3 Bft) S-SW 200 0 min 0,000 mm 1,1 UV-I 206 W/m 13,8 C 19,3 C 20,9 km/h (4 Bft) 93,62 %
12.07.2019 15:34 21,3 C 22,2 C 22,8 C 63 % 1010,5 hPa 0,0 l/m 12,7 km/h (3 Bft) W-SW 240 0 min 0,000 mm 1,1 UV-I 202 W/m 14,0 C 19,4 C 19,3 km/h (3 Bft) 97,37 %
12.07.2019 15:36 21,2 C 22,2 C 22,8 C 64 % 1010,6 hPa 0,0 l/m 12,4 km/h (3 Bft) SW 232 0 min 0,000 mm 0,9 UV-I 180 W/m 14,1 C 19,3 C 16,1 km/h (3 Bft) 98,00 %
12.07.2019 15:38 21,1 C 22,2 C 22,2 C 65 % 1010,7 hPa 0,0 l/m 14,0 km/h (3 Bft) SW 217 0 min 0,000 mm 0,8 UV-I 160 W/m 14,3 C 18,8 C 22,5 km/h (4 Bft) 93,62 %
12.07.2019 15:40 20,9 C 22,2 C 22,2 C 66 % 1010,7 hPa 0,0 l/m 15,4 km/h (3 Bft) W-SW 246 0 min 0,000 mm 0,6 UV-I 129 W/m 14,3 C 18,3 C 22,5 km/h (4 Bft) 97,87 %
12.07.2019 15:42 20,8 C 22,2 C 21,7 C 66 % 1010,8 hPa 0,0 l/m 12,3 km/h (3 Bft) S-SW 208 0 min 0,000 mm 0,4 UV-I 106 W/m 14,2 C 18,9 C 19,3 km/h (3 Bft) 98,00 %
12.07.2019 15:44 20,7 C 22,2 C 21,1 C 68 % 1010,8 hPa 0,0 l/m 10,1 km/h (2 Bft) SW 215 0 min 0,000 mm 0,0 UV-I 89 W/m 14,6 C 19,4 C 12,9 km/h (3 Bft) 97,87 %
12.07.2019 15:46 20,6 C 22,2 C 21,1 C 68 % 1010,7 hPa 0,0 l/m 9,1 km/h (2 Bft) SW 221 0 min 0,000 mm 0,0 UV-I 81 W/m 14,5 C 19,6 C 14,5 km/h (3 Bft) 97,87 %
12.07.2019 15:48 20,4 C 22,2 C 21,1 C 68 % 1010,7 hPa 0,0 l/m 10,9 km/h (2 Bft) S-SW 200 0 min 0,000 mm 0,0 UV-I 77 W/m 14,3 C 18,8 C 14,5 km/h (3 Bft) 97,87 %
12.07.2019 15:50 20,4 C 22,2 C 21,1 C 68 % 1010,7 hPa 0,0 l/m 8,8 km/h (2 Bft) SW 226 0 min 0,000 mm 0,0 UV-I 74 W/m 14,3 C 19,5 C 12,9 km/h (3 Bft) 97,92 %
12.07.2019 15:52 20,3 C 22,2 C 20,6 C 69 % 1010,6 hPa 0,0 l/m 9,5 km/h (2 Bft) W 265 0 min 0,000 mm 0,0 UV-I 68 W/m 14,4 C 19,1 C 14,5 km/h (3 Bft) 97,87 %
12.07.2019 15:54 20,3 C 22,2 C 20,6 C 69 % 1010,6 hPa 0,0 l/m 9,2 km/h (2 Bft) SW 217 0 min 0,000 mm 0,0 UV-I 63 W/m 14,4 C 19,2 C 12,9 km/h (3 Bft) 97,87 %
12.07.2019 15:56 20,2 C 22,2 C 20,6 C 70 % 1010,7 hPa 0,0 l/m 12,8 km/h (3 Bft) W-SW 248 0 min 0,000 mm 0,0 UV-I 59 W/m 14,5 C 18,0 C 19,3 km/h (3 Bft) 97,73 %
12.07.2019 15:58 20,1 C 22,2 C 20,0 C 71 % 1010,8 hPa 0,0 l/m 13,4 km/h (3 Bft) SW 229 0 min 0,000 mm 0,0 UV-I 53 W/m 14,7 C 17,8 C 19,3 km/h (3 Bft) 100,00 %
12.07.2019 16:00 20,0 C 22,2 C 20,0 C 72 % 1011,0 hPa 0,0 l/m 11,9 km/h (2 Bft) W 275 0 min 0,000 mm 0,0 UV-I 42 W/m 14,8 C 18,1 C 16,1 km/h (3 Bft) 98,00 %
12.07.2019 16:02 19,9 C 22,2 C 20,0 C 72 % 1011,2 hPa 0,2 l/m 20,4 km/h (4 Bft) W 262 0 min 0,178 mm 0,0 UV-I 29 W/m 14,7 C 16,0 C 35,4 km/h (5 Bft) 100,00 %
12.07.2019 16:04 19,7 C 22,2 C 18,9 C 69 % 1011,5 hPa 0,0 l/m 27,1 km/h (4 Bft) W 277 0 min 0,000 mm 0,0 UV-I 24 W/m 13,8 C 14,7 C 38,6 km/h (5 Bft) 97,87 %
12.07.2019 16:06 19,1 C 22,2 C 18,3 C 70 % 1011,6 hPa 0,0 l/m 22,6 km/h (4 Bft) W-NW 302 0 min 0,000 mm 0,0 UV-I 23 W/m 13,5 C 14,6 C 45,1 km/h (6 Bft) 97,87 %
12.07.2019 16:08 18,4 C 22,2 C 17,8 C 72 % 1011,5 hPa 0,0 l/m 16,4 km/h (3 Bft) NW 307 0 min 0,000 mm 0,0 UV-I 21 W/m 13,3 C 15,0 C 24,1 km/h (4 Bft) 100,00 %
12.07.2019 16:10 17,9 C 22,2 C 17,2 C 74 % 1011,6 hPa 0,0 l/m 9,9 km/h (2 Bft) W-NW 284 0 min 0,000 mm 0,0 UV-I 21 W/m 13,2 C 16,4 C 24,1 km/h (4 Bft) 97,87 %
12.07.2019 16:12 17,6 C 22,2 C 16,7 C 77 % 1011,6 hPa 0,0 l/m 13,5 km/h (3 Bft) W 278 0 min 0,000 mm 0,0 UV-I 21 W/m 13,5 C 14,8 C 22,5 km/h (4 Bft) 97,87 %
12.07.2019 16:14 17,3 C 22,2 C 16,1 C 78 % 1011,6 hPa 0,0 l/m 8,0 km/h (2 Bft) NW 306 0 min 0,000 mm 0,0 UV-I 22 W/m 13,4 C 16,5 C 16,1 km/h (3 Bft) 97,87 %
12.07.2019 16:16 16,8 C 22,2 C 15,6 C 80 % 1011,6 hPa 0,0 l/m 7,1 km/h (2 Bft) W-NW 288 0 min 0,000 mm 0,0 UV-I 21 W/m 13,3 C 16,4 C 12,9 km/h (3 Bft) 100,00 %
12.07.2019 16:18 16,5 C 22,2 C 15,6 C 83 % 1011,6 hPa 0,0 l/m 9,6 km/h (2 Bft) W 267 0 min 0,000 mm 0,0 UV-I 22 W/m 13,6 C 14,9 C 20,9 km/h (4 Bft) 100,00 %
12.07.2019 16:20 16,2 C 22,2 C 15,6 C 84 % 1011,6 hPa 0,0 l/m 4,9 km/h (1 Bft) SW 227 0 min 0,000 mm 0,0 UV-I 23 W/m 13,5 C 16,2 C 14,5 km/h (3 Bft) 100,00 %
12.07.2019 16:22 15,9 C 22,2 C 15,6 C 85 % 1011,6 hPa 0,2 l/m 9,6 km/h (2 Bft) W-NW 285 0 min 0,000 mm 0,0 UV-I 25 W/m 13,4 C 14,3 C 17,7 km/h (3 Bft) 100,00 %
12.07.2019 16:24 15,7 C 22,2 C 15,6 C 87 % 1011,7 hPa 0,0 l/m 9,7 km/h (2 Bft) W 260 0 min 0,000 mm 0,0 UV-I 27 W/m 13,5 C 14,0 C 17,7 km/h (3 Bft) 100,00 %
12.07.2019 16:26 15,6 C 22,2 C 15,0 C 87 % 1011,6 hPa 0,0 l/m 8,5 km/h (2 Bft) W 277 0 min 0,000 mm 0,0 UV-I 29 W/m 13,4 C 14,5 C 19,3 km/h (3 Bft) 97,87 %
12.07.2019 16:28 15,5 C 22,2 C 15,0 C 87 % 1011,6 hPa 0,0 l/m 11,4 km/h (2 Bft) NW 321 0 min 0,000 mm 0,0 UV-I 31 W/m 13,3 C 13,1 C 24,1 km/h (4 Bft) 100,00 %
12.07.2019 16:30 15,4 C 22,2 C 15,0 C 87 % 1011,7 hPa 0,2 l/m 11,8 km/h (2 Bft) W-NW 288 0 min 0,000 mm 0,0 UV-I 35 W/m 13,2 C 12,8 C 20,9 km/h (4 Bft) 100,00 %
12.07.2019 16:32 15,4 C 22,2 C 15,6 C 88 % 1011,7 hPa 0,0 l/m 11,8 km/h (2 Bft) W-SW 240 0 min 0,000 mm 0,0 UV-I 39 W/m 13,4 C 12,8 C 17,7 km/h (3 Bft) 100,00 %
12.07.2019 16:34 15,4 C 22,2 C 15,6 C 88 % 1011,7 hPa 0,2 l/m 13,2 km/h (3 Bft) W-NW 294 0 min 0,000 mm 0,0 UV-I 45 W/m 13,4 C 12,3 C 20,9 km/h (4 Bft) 100,00 %
12.07.2019 16:36 15,3 C 22,2 C 15,6 C 89 % 1011,8 hPa 0,2 l/m 10,6 km/h (2 Bft) W 273 0 min 0,000 mm 0,0 UV-I 56 W/m 13,5 C 13,2 C 19,3 km/h (3 Bft) 100,00 %
12.07.2019 16:38 15,2 C 22,2 C 15,0 C 89 % 1011,7 hPa 0,4 l/m 12,9 km/h (3 Bft) W 269 0 min 0,000 mm 0,0 UV-I 70 W/m 13,4 C 12,2 C 17,7 km/h (3 Bft) 100,00 %
12.07.2019 16:40 15,2 C 22,2 C 15,6 C 89 % 1011,7 hPa 0,0 l/m 8,6 km/h (2 Bft) W-SW 256 0 min 0,000 mm 0,0 UV-I 87 W/m 13,4 C 14,0 C 16,1 km/h (3 Bft) 100,00 %
12.07.2019 16:42 15,2 C 22,2 C 15,6 C 90 % 1011,7 hPa 0,2 l/m 10,0 km/h (2 Bft) W 269 0 min 0,000 mm 0,4 UV-I 104 W/m 13,6 C 13,3 C 19,3 km/h (3 Bft) 100,00 %
12.07.2019 16:44 15,1 C 22,2 C 15,6 C 91 % 1011,7 hPa 0,0 l/m 15,0 km/h (3 Bft) W-SW 248 0 min 0,000 mm 0,5 UV-I 124 W/m 13,6 C 11,3 C 20,9 km/h (4 Bft) 100,00 %
12.07.2019 16:46 15,1 C 22,2 C 15,6 C 91 % 1011,7 hPa 0,0 l/m 13,9 km/h (3 Bft) W 281 0 min 0,000 mm 0,7 UV-I 147 W/m 13,6 C 11,7 C 22,5 km/h (4 Bft) 100,00 %
12.07.2019 16:48 15,2 C 22,2 C 16,1 C 91 % 1011,6 hPa 0,2 l/m 9,9 km/h (2 Bft) W 267 0 min 0,000 mm 0,7 UV-I 161 W/m 13,7 C 13,4 C 14,5 km/h (3 Bft) 100,00 %
12.07.2019 16:50 15,2 C 22,2 C 16,1 C 91 % 1011,6 hPa 0,0 l/m 9,5 km/h (2 Bft) W 262 0 min 0,000 mm 0,7 UV-I 157 W/m 13,7 C 13,6 C 14,5 km/h (3 Bft) 98,00 %
12.07.2019 16:52 15,3 C 22,2 C 16,1 C 91 % 1011,6 hPa 0,0 l/m 8,4 km/h (2 Bft) W 269 0 min 0,000 mm 0,6 UV-I 142 W/m 13,8 C 14,2 C 11,3 km/h (2 Bft) 97,87 %
12.07.2019 16:54 15,3 C 22,2 C 16,7 C 91 % 1011,5 hPa 0,0 l/m 10,1 km/h (2 Bft) W 269 0 min 0,000 mm 0,6 UV-I 134 W/m 13,8 C 13,4 C 16,1 km/h (3 Bft) 96,00 %
12.07.2019 16:56 15,3 C 22,2 C 16,7 C 91 % 1011,5 hPa 0,0 l/m 10,4 km/h (2 Bft) W 259 0 min 0,000 mm 0,6 UV-I 143 W/m 13,8 C 13,3 C 17,7 km/h (3 Bft) 94,74 %
12.07.2019 16:58 15,4 C 22,2 C 16,7 C 92 % 1011,4 hPa 0,0 l/m 9,3 km/h (2 Bft) W 271 0 min 0,000 mm 0,8 UV-I 167 W/m 14,1 C 13,9 C 12,9 km/h (3 Bft) 100,00 %
12.07.2019 17:00 15,5 C 22,2 C 17,2 C 92 % 1011,5 hPa 0,0 l/m 12,5 km/h (3 Bft) W-SW 255 0 min 0,000 mm 0,8 UV-I 179 W/m 14,2 C 12,7 C 19,3 km/h (3 Bft) 97,92 %
12.07.2019 17:02 15,6 C 22,2 C 17,2 C 91 % 1011,6 hPa 0,0 l/m 10,2 km/h (2 Bft) W-SW 243 0 min 0,076 mm 0,8 UV-I 171 W/m 14,1 C 13,7 C 16,1 km/h (3 Bft) 93,62 %
12.07.2019 17:04 15,7 C 22,2 C 17,2 C 92 % 1011,6 hPa 0,0 l/m 11,6 km/h (2 Bft) W 261 0 min 0,000 mm 0,8 UV-I 162 W/m 14,4 C 13,2 C 17,7 km/h (3 Bft) 95,74 %
12.07.2019 17:06 15,7 C 22,2 C 17,2 C 91 % 1011,6 hPa 0,0 l/m 12,5 km/h (3 Bft) W 259 0 min 0,000 mm 0,7 UV-I 150 W/m 14,2 C 12,9 C 17,7 km/h (3 Bft) 95,74 %
12.07.2019 17:08 15,8 C 22,2 C 17,2 C 92 % 1011,6 hPa 0,0 l/m 13,5 km/h (3 Bft) W 265 0 min 0,000 mm 0,6 UV-I 130 W/m 14,5 C 12,7 C 22,5 km/h (4 Bft) 96,00 %
12.07.2019 17:10 15,8 C 22,2 C 16,7 C 91 % 1011,6 hPa 0,0 l/m 12,0 km/h (2 Bft) W 263 0 min 0,000 mm 0,5 UV-I 120 W/m 14,3 C 13,2 C 17,7 km/h (3 Bft) 95,12 %
12.07.2019 17:12 15,8 C 22,2 C 16,7 C 91 % 1011,6 hPa 0,0 l/m 12,2 km/h (2 Bft) SW 232 0 min 0,000 mm 0,5 UV-I 115 W/m 14,3 C 13,1 C 19,3 km/h (3 Bft) 95,74 %
12.07.2019 17:14 15,8 C 22,2 C 16,7 C 91 % 1011,6 hPa 0,0 l/m 14,4 km/h (3 Bft) W-SW 249 0 min 0,000 mm 0,5 UV-I 109 W/m 14,3 C 12,4 C 24,1 km/h (4 Bft) 93,62 %
12.07.2019 17:16 15,8 C 22,2 C 16,7 C 91 % 1011,5 hPa 0,0 l/m 14,1 km/h (3 Bft) W 260 0 min 0,000 mm 0,0 UV-I 104 W/m 14,3 C 12,5 C 19,3 km/h (3 Bft) 96,00 %
12.07.2019 17:18 15,8 C 22,2 C 16,7 C 90 % 1011,5 hPa 0,0 l/m 10,3 km/h (2 Bft) W 259 0 min 0,000 mm 0,0 UV-I 104 W/m 14,2 C 13,9 C 16,1 km/h (3 Bft) 95,74 %
12.07.2019 17:20 15,8 C 22,2 C 16,7 C 91 % 1011,5 hPa 0,0 l/m 9,7 km/h (2 Bft) W-SW 241 0 min 0,000 mm 0,2 UV-I 109 W/m 14,3 C 14,1 C 14,5 km/h (3 Bft) 95,74 %
12.07.2019 17:22 15,9 C 22,2 C 16,7 C 91 % 1011,4 hPa 0,0 l/m 11,8 km/h (2 Bft) W 279 0 min 0,000 mm 0,5 UV-I 119 W/m 14,4 C 13,4 C 16,1 km/h (3 Bft) 94,00 %
12.07.2019 17:24 16,0 C 22,2 C 17,2 C 91 % 1011,4 hPa 0,0 l/m 10,5 km/h (2 Bft) W 260 0 min 0,000 mm 0,6 UV-I 135 W/m 14,5 C 14,0 C 14,5 km/h (3 Bft) 96,00 %
12.07.2019 17:26 16,0 C 22,2 C 17,2 C 91 % 1011,4 hPa 0,0 l/m 9,2 km/h (2 Bft) W-SW 257 0 min 0,000 mm 0,6 UV-I 162 W/m 14,5 C 14,6 C 12,9 km/h (3 Bft) 97,37 %
12.07.2019 17:28 16,1 C 22,2 C 17,2 C 90 % 1011,3 hPa 0,0 l/m 10,5 km/h (2 Bft) W 275 0 min 0,000 mm 0,7 UV-I 170 W/m 14,5 C 14,1 C 16,1 km/h (3 Bft) 100,00 %
12.07.2019 17:30 16,2 C 22,2 C 17,8 C 90 % 1011,3 hPa 0,0 l/m 8,7 km/h (2 Bft) SW 217 0 min 0,000 mm 0,7 UV-I 172 W/m 14,6 C 15,0 C 14,5 km/h (3 Bft) 97,87 %
12.07.2019 17:32 16,3 C 22,2 C 17,2 C 89 % 1011,3 hPa 0,0 l/m 8,7 km/h (2 Bft) W-SW 242 0 min 0,000 mm 0,7 UV-I 172 W/m 14,5 C 15,1 C 14,5 km/h (3 Bft) 97,87 %
12.07.2019 17:34 16,4 C 22,2 C 17,8 C 89 % 1011,3 hPa 0,0 l/m 8,6 km/h (2 Bft) W-SW 237 0 min 0,000 mm 0,7 UV-I 162 W/m 14,6 C 15,3 C 12,9 km/h (3 Bft) 98,11 %
12.07.2019 17:36 16,4 C 22,2 C 17,8 C 89 % 1011,3 hPa 0,0 l/m 6,7 km/h (2 Bft) SW 225 0 min 0,000 mm 0,6 UV-I 155 W/m 14,6 C 16,3 C 11,3 km/h (2 Bft) 97,87 %
12.07.2019 17:38 16,4 C 22,2 C 17,8 C 89 % 1011,2 hPa 0,0 l/m 10,1 km/h (2 Bft) S-SW 210 0 min 0,000 mm 0,6 UV-I 148 W/m 14,6 C 14,6 C 16,1 km/h (3 Bft) 93,62 %
12.07.2019 17:40 16,5 C 22,2 C 17,8 C 89 % 1011,2 hPa 0,0 l/m 9,7 km/h (2 Bft) SW 217 0 min 0,000 mm 0,6 UV-I 150 W/m 14,7 C 14,9 C 12,9 km/h (3 Bft) 97,87 %
12.07.2019 17:42 16,5 C 22,2 C 17,8 C 89 % 1011,2 hPa 0,0 l/m 9,9 km/h (2 Bft) S-SW 198 0 min 0,000 mm 0,6 UV-I 155 W/m 14,7 C 14,8 C 17,7 km/h (3 Bft) 95,83 %
12.07.2019 17:44 16,4 C 22,2 C 17,8 C 89 % 1011,1 hPa 0,0 l/m 8,8 km/h (2 Bft) SW 219 0 min 0,000 mm 0,7 UV-I 162 W/m 14,6 C 15,2 C 14,5 km/h (3 Bft) 95,74 %
12.07.2019 17:46 16,4 C 22,2 C 18,3 C 89 % 1011,1 hPa 0,0 l/m 7,9 km/h (2 Bft) S-SW 209 0 min 0,000 mm 0,7 UV-I 182 W/m 14,6 C 15,6 C 12,9 km/h (3 Bft) 95,74 %
12.07.2019 17:48 16,4 C 22,2 C 18,3 C 89 % 1011,1 hPa 0,0 l/m 9,7 km/h (2 Bft) S-SW 211 0 min 0,000 mm 0,7 UV-I 176 W/m 14,6 C 14,8 C 14,5 km/h (3 Bft) 97,87 %
12.07.2019 17:50 16,5 C 22,2 C 18,3 C 90 % 1011,0 hPa 0,0 l/m 10,7 km/h (2 Bft) S-SO 161 0 min 0,000 mm 0,7 UV-I 148 W/m 14,9 C 14,5 C 16,1 km/h (3 Bft) 97,87 %
12.07.2019 17:52 16,4 C 22,2 C 17,8 C 89 % 1011,0 hPa 0,0 l/m 10,5 km/h (2 Bft) SW 221 0 min 0,000 mm 0,6 UV-I 141 W/m 14,6 C 14,5 C 17,7 km/h (3 Bft) 97,87 %
12.07.2019 17:54 16,4 C 22,2 C 17,8 C 89 % 1011,0 hPa 0,0 l/m 11,3 km/h (2 Bft) SW 216 0 min 0,000 mm 0,6 UV-I 136 W/m 14,6 C 14,1 C 19,3 km/h (3 Bft) 97,14 %
12.07.2019 17:56 16,4 C 22,2 C 17,8 C 89 % 1011,0 hPa 0,0 l/m 9,0 km/h (2 Bft) S 169 0 min 0,000 mm 0,5 UV-I 134 W/m 14,6 C 15,1 C 17,7 km/h (3 Bft) 98,00 %
12.07.2019 17:58 16,4 C 22,2 C 17,8 C 89 % 1010,9 hPa 0,0 l/m 10,7 km/h (2 Bft) S 178 0 min 0,000 mm 0,5 UV-I 140 W/m 14,6 C 14,4 C 19,3 km/h (3 Bft) 97,87 %
12.07.2019 18:00 16,6 C 22,2 C 17,8 C 89 % 1010,8 hPa 0,0 l/m 8,3 km/h (2 Bft) S-SW 198 0 min 0,102 mm 0,5 UV-I 153 W/m 14,8 C 15,6 C 14,5 km/h (3 Bft) 95,74 %
12.07.2019 18:02 16,6 C 22,2 C 18,3 C 89 % 1010,8 hPa 0,0 l/m 9,3 km/h (2 Bft) S-SW 207 0 min 0,000 mm 0,5 UV-I 166 W/m 14,8 C 15,2 C 12,9 km/h (3 Bft) 97,87 %
12.07.2019 18:04 16,7 C 22,2 C 18,3 C 89 % 1010,8 hPa 0,0 l/m 7,7 km/h (2 Bft) SW 221 0 min 0,000 mm 0,6 UV-I 179 W/m 14,9 C 16,0 C 11,3 km/h (2 Bft) 97,87 %
12.07.2019 18:06 16,8 C 22,2 C 18,3 C 89 % 1010,9 hPa 0,0 l/m 6,2 km/h (2 Bft) S-SW 213 0 min 0,000 mm 0,6 UV-I 193 W/m 15,0 C 16,8 C 9,7 km/h (2 Bft) 97,87 %
12.07.2019 18:08 16,9 C 22,2 C 18,9 C 89 % 1010,8 hPa 0,0 l/m 8,1 km/h (2 Bft) W-SW 244 0 min 0,000 mm 0,6 UV-I 203 W/m 15,1 C 16,0 C 12,9 km/h (3 Bft) 98,00 %
12.07.2019 18:10 16,9 C 22,2 C 18,9 C 88 % 1010,8 hPa 0,0 l/m 8,2 km/h (2 Bft) SW 230 0 min 0,000 mm 0,6 UV-I 209 W/m 14,9 C 16,0 C 12,9 km/h (3 Bft) 94,00 %
12.07.2019 18:12 17,1 C 22,2 C 18,9 C 89 % 1010,8 hPa 0,0 l/m 9,2 km/h (2 Bft) SW 218 0 min 0,000 mm 0,6 UV-I 216 W/m 15,3 C 15,8 C 14,5 km/h (3 Bft) 95,74 %
12.07.2019 18:14 17,2 C 22,2 C 18,9 C 89 % 1010,8 hPa 0,0 l/m 8,8 km/h (2 Bft) SW 225 0 min 0,000 mm 0,6 UV-I 217 W/m 15,4 C 16,0 C 12,9 km/h (3 Bft) 94,87 %
12.07.2019 18:16 17,2 C 22,2 C 18,9 C 88 % 1010,8 hPa 0,0 l/m 9,2 km/h (2 Bft) S-SW 206 0 min 0,000 mm 0,6 UV-I 206 W/m 15,2 C 15,9 C 12,9 km/h (3 Bft) 93,62 %
12.07.2019 18:18 17,3 C 22,2 C 18,9 C 88 % 1010,7 hPa 0,0 l/m 7,8 km/h (2 Bft) SW 236 0 min 0,000 mm 0,6 UV-I 180 W/m 15,3 C 16,6 C 12,9 km/h (3 Bft) 95,74 %
12.07.2019 18:20 17,3 C 22,2 C 18,9 C 88 % 1010,7 hPa 0,0 l/m 10,0 km/h (2 Bft) SW 225 0 min 0,000 mm 0,6 UV-I 158 W/m 15,3 C 15,7 C 16,1 km/h (3 Bft) 97,87 %
12.07.2019 18:22 17,3 C 22,2 C 18,3 C 87 % 1010,7 hPa 0,0 l/m 10,8 km/h (2 Bft) W-SW 238 0 min 0,000 mm 0,5 UV-I 147 W/m 15,1 C 15,4 C 16,1 km/h (3 Bft) 95,74 %
12.07.2019 18:24 17,3 C 22,2 C 18,3 C 88 % 1010,7 hPa 0,0 l/m 9,6 km/h (2 Bft) S-SW 209 0 min 0,000 mm 0,5 UV-I 142 W/m 15,3 C 15,8 C 12,9 km/h (3 Bft) 93,62 %
12.07.2019 18:26 17,3 C 22,2 C 18,3 C 87 % 1010,7 hPa 0,0 l/m 10,4 km/h (2 Bft) SW 233 0 min 0,000 mm 0,5 UV-I 139 W/m 15,1 C 15,5 C 14,5 km/h (3 Bft) 96,00 %
12.07.2019 18:28 17,4 C 22,2 C 18,3 C 88 % 1010,6 hPa 0,0 l/m 8,8 km/h (2 Bft) W 263 0 min 0,000 mm 0,5 UV-I 139 W/m 15,4 C 16,3 C 14,5 km/h (3 Bft) 98,00 %
12.07.2019 18:30 17,4 C 22,2 C 18,3 C 88 % 1010,7 hPa 0,0 l/m 12,4 km/h (3 Bft) W-SW 245 0 min 0,000 mm 0,3 UV-I 139 W/m 15,4 C 14,9 C 20,9 km/h (4 Bft) 97,87 %
12.07.2019 18:32 17,4 C 22,2 C 18,3 C 88 % 1010,7 hPa 0,0 l/m 14,0 km/h (3 Bft) W-SW 246 0 min 0,000 mm 0,0 UV-I 134 W/m 15,4 C 14,4 C 19,3 km/h (3 Bft) 93,62 %
12.07.2019 18:34 17,4 C 22,2 C 17,8 C 87 % 1010,7 hPa 0,0 l/m 14,9 km/h (3 Bft) SW 221 0 min 0,000 mm 0,0 UV-I 130 W/m 15,2 C 14,1 C 25,7 km/h (4 Bft) 93,62 %
12.07.2019 18:36 17,4 C 22,2 C 17,8 C 87 % 1010,7 hPa 0,0 l/m 13,0 km/h (3 Bft) W-SW 239 0 min 0,000 mm 0,0 UV-I 129 W/m 15,2 C 14,7 C 24,1 km/h (4 Bft) 94,74 %
12.07.2019 18:38 17,4 C 22,2 C 17,8 C 87 % 1010,7 hPa 0,0 l/m 16,0 km/h (3 Bft) SW 216 0 min 0,000 mm 0,0 UV-I 135 W/m 15,2 C 13,8 C 24,1 km/h (4 Bft) 98,00 %
12.07.2019 18:40 17,4 C 22,2 C 17,8 C 88 % 1010,6 hPa 0,0 l/m 13,1 km/h (3 Bft) W-SW 250 0 min 0,000 mm 0,0 UV-I 139 W/m 15,4 C 14,7 C 22,5 km/h (4 Bft) 98,00 %
12.07.2019 18:42 17,4 C 22,2 C 17,8 C 88 % 1010,6 hPa 0,0 l/m 13,5 km/h (3 Bft) SW 222 0 min 0,000 mm 0,0 UV-I 143 W/m 15,4 C 14,5 C 25,7 km/h (4 Bft) 93,62 %
12.07.2019 18:44 17,4 C 22,2 C 17,8 C 87 % 1010,6 hPa 0,0 l/m 14,2 km/h (3 Bft) SW 227 0 min 0,000 mm 0,0 UV-I 152 W/m 15,2 C 14,3 C 22,5 km/h (4 Bft) 97,87 %
12.07.2019 18:46 17,3 C 22,2 C 17,8 C 87 % 1010,6 hPa 0,0 l/m 14,7 km/h (3 Bft) SW 233 0 min 0,000 mm 0,0 UV-I 159 W/m 15,1 C 14,1 C 22,5 km/h (4 Bft) 97,87 %
12.07.2019 18:49 17,3 C 22,2 C 18,3 C 88 % 1010,5 hPa 0,0 l/m 11,9 km/h (2 Bft) SW 221 0 min 0,000 mm 0,0 UV-I 171 W/m 15,3 C 15,0 C 22,5 km/h (4 Bft) 98,59 %
12.07.2019 18:50 17,3 C 22,2 C 18,3 C 88 % 1010,5 hPa 0,0 l/m 9,8 km/h (2 Bft) SW 222 0 min 0,000 mm 0,0 UV-I 173 W/m 15,3 C 15,7 C 14,5 km/h (3 Bft) 95,65 %
12.07.2019 18:52 17,3 C 22,2 C 18,9 C 88 % 1010,4 hPa 0,0 l/m 9,5 km/h (2 Bft) S-SW 205 0 min 0,000 mm 0,0 UV-I 169 W/m 15,3 C 15,9 C 16,1 km/h (3 Bft) 96,00 %
12.07.2019 18:54 17,3 C 22,2 C 18,9 C 87 % 1010,3 hPa 0,0 l/m 7,0 km/h (2 Bft) SW 229 0 min 0,000 mm 0,0 UV-I 163 W/m 15,1 C 17,0 C 11,3 km/h (2 Bft) 92,86 %
12.07.2019 18:56 17,4 C 22,2 C 18,9 C 88 % 1010,3 hPa 0,0 l/m 9,1 km/h (2 Bft) S-SW 207 0 min 0,000 mm 0,0 UV-I 153 W/m 15,4 C 16,1 C 12,9 km/h (3 Bft) 95,74 %
12.07.2019 18:58 17,4 C 22,2 C 18,9 C 88 % 1010,4 hPa 0,0 l/m 8,1 km/h (2 Bft) W-SW 244 0 min 0,000 mm 0,0 UV-I 137 W/m 15,4 C 16,6 C 12,9 km/h (3 Bft) 95,74 %
12.07.2019 19:00 17,4 C 22,2 C 18,9 C 88 % 1010,4 hPa 0,0 l/m 6,6 km/h (2 Bft) S-SW 213 0 min 0,000 mm 0,0 UV-I 124 W/m 15,4 C 17,3 C 9,7 km/h (2 Bft) 97,87 %
12.07.2019 19:02 17,4 C 22,2 C 18,3 C 88 % 1010,3 hPa 0,0 l/m 9,4 km/h (2 Bft) SW 228 0 min 0,101 mm 0,0 UV-I 118 W/m 15,4 C 16,0 C 14,5 km/h (3 Bft) 97,87 %
12.07.2019 19:04 17,3 C 22,2 C 18,3 C 88 % 1010,3 hPa 0,0 l/m 10,6 km/h (2 Bft) S-SW 205 0 min 0,000 mm 0,0 UV-I 115 W/m 15,3 C 15,4 C 17,7 km/h (3 Bft) 95,74 %
12.07.2019 19:06 17,3 C 22,2 C 17,8 C 88 % 1010,3 hPa 0,0 l/m 12,6 km/h (3 Bft) SW 228 0 min 0,000 mm 0,0 UV-I 115 W/m 15,3 C 14,7 C 17,7 km/h (3 Bft) 94,00 %
12.07.2019 19:08 17,3 C 22,2 C 18,3 C 88 % 1010,2 hPa 0,0 l/m 11,9 km/h (2 Bft) S-SW 212 0 min 0,000 mm 0,0 UV-I 117 W/m 15,3 C 15,0 C 16,1 km/h (3 Bft) 97,37 %
12.07.2019 19:10 17,4 C 22,2 C 18,3 C 88 % 1010,2 hPa 0,0 l/m 11,5 km/h (2 Bft) S-SW 196 0 min 0,000 mm 0,0 UV-I 118 W/m 15,4 C 15,2 C 17,7 km/h (3 Bft) 97,87 %
12.07.2019 19:12 17,4 C 22,2 C 18,3 C 88 % 1010,2 hPa 0,0 l/m 11,4 km/h (2 Bft) W-SW 240 0 min 0,000 mm 0,0 UV-I 123 W/m 15,4 C 15,2 C 17,7 km/h (3 Bft) 97,87 %
12.07.2019 19:14 17,4 C 22,2 C 18,9 C 88 % 1010,1 hPa 0,0 l/m 12,9 km/h (3 Bft) S-SW 209 2 min 0,000 mm 0,0 UV-I 151 W/m 15,4 C 14,7 C 19,3 km/h (3 Bft) 95,74 %
12.07.2019 19:16 17,5 C 22,2 C 18,9 C 88 % 1010,1 hPa 0,0 l/m 10,5 km/h (2 Bft) SW 226 2 min 0,000 mm 0,0 UV-I 148 W/m 15,5 C 15,7 C 16,1 km/h (3 Bft) 97,87 %
12.07.2019 19:18 17,6 C 22,2 C 18,9 C 88 % 1010,0 hPa 0,0 l/m 13,1 km/h (3 Bft) SW 231 2 min 0,000 mm 0,0 UV-I 147 W/m 15,6 C 14,9 C 20,9 km/h (4 Bft) 98,00 %
12.07.2019 19:20 17,7 C 22,2 C 18,9 C 87 % 1010,0 hPa 0,0 l/m 13,5 km/h (3 Bft) SW 219 2 min 0,000 mm 0,0 UV-I 142 W/m 15,5 C 14,9 C 22,5 km/h (4 Bft) 97,87 %
12.07.2019 19:22 17,7 C 22,2 C 19,4 C 87 % 1010,0 hPa 0,0 l/m 12,2 km/h (2 Bft) SW 236 2 min 0,000 mm 0,0 UV-I 148 W/m 15,5 C 15,3 C 20,9 km/h (4 Bft) 95,12 %
12.07.2019 19:24 17,8 C 22,2 C 19,4 C 86 % 1010,0 hPa 0,0 l/m 12,4 km/h (3 Bft) SW 223 2 min 0,000 mm 0,0 UV-I 144 W/m 15,4 C 15,4 C 19,3 km/h (3 Bft) 98,00 %
12.07.2019 19:26 17,8 C 22,2 C 19,4 C 86 % 1010,0 hPa 0,0 l/m 12,3 km/h (3 Bft) SW 230 2 min 0,000 mm 0,0 UV-I 157 W/m 15,4 C 15,4 C 17,7 km/h (3 Bft) 97,87 %
12.07.2019 19:28 17,9 C 22,2 C 20,0 C 86 % 1010,0 hPa 0,0 l/m 10,3 km/h (2 Bft) W-SW 245 2 min 0,000 mm 0,0 UV-I 160 W/m 15,5 C 16,2 C 16,1 km/h (3 Bft) 97,87 %
12.07.2019 19:30 18,0 C 22,2 C 20,0 C 85 % 1009,9 hPa 0,0 l/m 13,7 km/h (3 Bft) W-SW 237 2 min 0,000 mm 0,0 UV-I 157 W/m 15,4 C 15,2 C 20,9 km/h (4 Bft) 100,00 %
12.07.2019 19:32 18,1 C 22,2 C 20,6 C 85 % 1009,9 hPa 0,0 l/m 10,9 km/h (2 Bft) W-SW 246 2 min 0,000 mm 0,0 UV-I 153 W/m 15,5 C 16,2 C 17,7 km/h (3 Bft) 100,00 %
12.07.2019 19:34 18,2 C 22,2 C 20,6 C 84 % 1009,9 hPa 0,0 l/m 11,6 km/h (2 Bft) SW 236 2 min 0,000 mm 0,0 UV-I 138 W/m 15,4 C 16,1 C 17,7 km/h (3 Bft) 100,00 %
12.07.2019 19:36 18,2 C 22,2 C 20,6 C 84 % 1009,9 hPa 0,0 l/m 12,8 km/h (3 Bft) SW 232 2 min 0,000 mm 0,0 UV-I 123 W/m 15,4 C 15,7 C 17,7 km/h (3 Bft) 100,00 %
12.07.2019 19:38 18,2 C 22,2 C 20,6 C 84 % 1009,8 hPa 0,0 l/m 13,2 km/h (3 Bft) S-SW 212 2 min 0,000 mm 0,0 UV-I 128 W/m 15,4 C 15,6 C 17,7 km/h (3 Bft) 97,37 %
12.07.2019 19:40 18,2 C 22,2 C 20,6 C 84 % 1009,9 hPa 0,0 l/m 14,8 km/h (3 Bft) W-SW 252 2 min 0,000 mm 0,0 UV-I 145 W/m 15,4 C 15,1 C 20,9 km/h (4 Bft) 98,00 %
12.07.2019 19:42 18,2 C 22,2 C 20,0 C 84 % 1009,9 hPa 0,0 l/m 9,4 km/h (2 Bft) W-SW 257 2 min 0,000 mm 0,0 UV-I 121 W/m 15,4 C 16,9 C 14,5 km/h (3 Bft) 100,00 %
12.07.2019 19:44 18,2 C 22,2 C 20,0 C 84 % 1009,9 hPa 0,0 l/m 9,8 km/h (2 Bft) W-SW 242 2 min 0,000 mm 0,0 UV-I 109 W/m 15,4 C 16,7 C 17,7 km/h (3 Bft) 97,87 %
12.07.2019 19:46 18,2 C 22,2 C 20,0 C 84 % 1009,9 hPa 0,0 l/m 8,9 km/h (2 Bft) W-SW 242 2 min 0,000 mm 0,0 UV-I 102 W/m 15,4 C 17,1 C 14,5 km/h (3 Bft) 100,00 %
12.07.2019 19:48 18,2 C 22,2 C 20,0 C 84 % 1009,9 hPa 0,0 l/m 9,0 km/h (2 Bft) W-SW 257 2 min 0,000 mm 0,0 UV-I 96 W/m 15,4 C 17,0 C 16,1 km/h (3 Bft) 100,00 %
12.07.2019 19:50 18,2 C 22,2 C 20,0 C 84 % 1009,9 hPa 0,0 l/m 9,9 km/h (2 Bft) W-SW 254 2 min 0,000 mm 0,0 UV-I 102 W/m 15,4 C 16,7 C 16,1 km/h (3 Bft) 100,00 %
12.07.2019 19:52 18,2 C 22,2 C 20,6 C 85 % 1009,9 hPa 0,0 l/m 7,5 km/h (2 Bft) W-SW 238 2 min 0,000 mm 0,0 UV-I 108 W/m 15,6 C 17,7 C 14,5 km/h (3 Bft) 100,00 %
12.07.2019 19:54 18,2 C 22,2 C 20,6 C 85 % 1009,9 hPa 0,0 l/m 8,3 km/h (2 Bft) W 263 2 min 0,000 mm 0,0 UV-I 108 W/m 15,6 C 17,3 C 12,9 km/h (3 Bft) 100,00 %
12.07.2019 19:56 18,2 C 22,2 C 21,1 C 85 % 1009,9 hPa 0,0 l/m 6,9 km/h (2 Bft) W-SW 244 2 min 0,000 mm 0,0 UV-I 104 W/m 15,6 C 18,0 C 12,9 km/h (3 Bft) 100,00 %
12.07.2019 19:58 18,2 C 22,2 C 21,1 C 85 % 1009,9 hPa 0,0 l/m 9,3 km/h (2 Bft) W-SW 250 2 min 0,000 mm 0,0 UV-I 99 W/m 15,6 C 16,9 C 14,5 km/h (3 Bft) 97,87 %
12.07.2019 20:00 18,2 C 22,2 C 21,1 C 85 % 1010,0 hPa 0,0 l/m 7,7 km/h (2 Bft) W-SW 242 2 min 0,000 mm 0,0 UV-I 97 W/m 15,6 C 17,6 C 11,3 km/h (2 Bft) 97,87 %
12.07.2019 20:02 18,2 C 22,2 C 21,1 C 85 % 1010,0 hPa 0,0 l/m 6,1 km/h (2 Bft) SW 236 2 min 0,102 mm 0,0 UV-I 97 W/m 15,6 C 18,2 C 9,7 km/h (2 Bft) 100,00 %
12.07.2019 20:04 18,2 C 22,2 C 21,1 C 85 % 1010,1 hPa 0,0 l/m 5,4 km/h (1 Bft) W-SW 255 2 min 0,000 mm 0,0 UV-I 96 W/m 15,6 C 18,2 C 8,0 km/h (2 Bft) 95,74 %
12.07.2019 20:06 18,2 C 22,2 C 21,1 C 86 % 1010,0 hPa 0,0 l/m 7,6 km/h (2 Bft) W 261 2 min 0,000 mm 0,0 UV-I 93 W/m 15,8 C 17,6 C 11,3 km/h (2 Bft) 93,62 %
12.07.2019 20:08 18,2 C 22,2 C 20,6 C 86 % 1010,1 hPa 0,0 l/m 7,8 km/h (2 Bft) W-SW 239 2 min 0,000 mm 0,0 UV-I 90 W/m 15,8 C 17,6 C 11,3 km/h (2 Bft) 97,87 %
12.07.2019 20:10 18,1 C 22,2 C 20,6 C 86 % 1010,1 hPa 0,0 l/m 7,1 km/h (2 Bft) SW 234 2 min 0,000 mm 0,0 UV-I 78 W/m 15,7 C 17,8 C 9,7 km/h (2 Bft) 97,92 %
12.07.2019 20:12 18,1 C 22,2 C 20,0 C 86 % 1010,1 hPa 0,0 l/m 6,0 km/h (2 Bft) W-SW 254 2 min 0,000 mm 0,0 UV-I 64 W/m 15,7 C 18,1 C 9,7 km/h (2 Bft) 97,96 %
12.07.2019 20:14 18,0 C 22,2 C 19,4 C 86 % 1010,1 hPa 0,0 l/m 5,7 km/h (1 Bft) W-SW 237 2 min 0,000 mm 0,0 UV-I 59 W/m 15,6 C 18,0 C 9,7 km/h (2 Bft) 97,22 %
12.07.2019 20:16 17,9 C 22,2 C 18,9 C 86 % 1010,2 hPa 0,0 l/m 5,9 km/h (2 Bft) SW 223 0 min 0,000 mm 0,0 UV-I 53 W/m 15,5 C 17,9 C 11,3 km/h (2 Bft) 98,08 %
12.07.2019 20:18 17,9 C 22,2 C 18,9 C 86 % 1010,2 hPa 0,0 l/m 4,2 km/h (1 Bft) W-SW 241 0 min 0,000 mm 0,0 UV-I 50 W/m 15,5 C 17,9 C 6,4 km/h (2 Bft) 97,87 %
12.07.2019 20:20 17,8 C 22,2 C 18,9 C 87 % 1010,2 hPa 0,0 l/m 4,5 km/h (1 Bft) W-SW 240 2 min 0,000 mm 0,0 UV-I 54 W/m 15,6 C 17,8 C 6,4 km/h (2 Bft) 97,87 %
12.07.2019 20:22 17,8 C 22,2 C 18,3 C 87 % 1010,1 hPa 0,0 l/m 4,4 km/h (1 Bft) W-SW 240 2 min 0,000 mm 0,0 UV-I 52 W/m 15,6 C 17,8 C 8,0 km/h (2 Bft) 97,87 %
12.07.2019 20:24 17,8 C 22,2 C 18,3 C 87 % 1010,1 hPa 0,0 l/m 4,0 km/h (1 Bft) W-SW 238 2 min 0,000 mm 0,0 UV-I 46 W/m 15,6 C 17,8 C 6,4 km/h (2 Bft) 96,00 %
12.07.2019 20:26 17,7 C 22,2 C 17,8 C 87 % 1010,1 hPa 0,0 l/m 2,3 km/h (1 Bft) W-SW 238 0 min 0,000 mm 0,0 UV-I 40 W/m 15,5 C 17,7 C 4,8 km/h (1 Bft) 94,74 %
12.07.2019 20:28 17,7 C 22,2 C 17,8 C 88 % 1010,2 hPa 0,0 l/m 3,7 km/h (1 Bft) S-SW 192 0 min 0,000 mm 0,0 UV-I 37 W/m 15,7 C 17,7 C 4,8 km/h (1 Bft) 100,00 %
12.07.2019 20:30 17,6 C 22,2 C 17,8 C 88 % 1010,2 hPa 0,0 l/m 4,9 km/h (1 Bft) SW 216 2 min 0,000 mm 0,0 UV-I 35 W/m 15,6 C 17,6 C 6,4 km/h (2 Bft) 100,00 %
12.07.2019 20:32 17,5 C 22,2 C 17,8 C 88 % 1010,2 hPa 0,0 l/m 4,0 km/h (1 Bft) SW 229 0 min 0,000 mm 0,0 UV-I 32 W/m 15,5 C 17,5 C 8,0 km/h (2 Bft) 97,87 %
12.07.2019 20:34 17,4 C 22,2 C 17,2 C 87 % 1010,2 hPa 0,0 l/m 2,7 km/h (1 Bft) SW 229 2 min 0,000 mm 0,0 UV-I 30 W/m 15,2 C 17,4 C 4,8 km/h (1 Bft) 100,00 %
12.07.2019 20:36 17,4 C 22,2 C 17,2 C 88 % 1010,2 hPa 0,0 l/m 2,7 km/h (1 Bft) SW 228 2 min 0,000 mm 0,0 UV-I 27 W/m 15,4 C 17,4 C 4,8 km/h (1 Bft) 97,87 %
12.07.2019 20:38 17,4 C 22,2 C 17,2 C 88 % 1010,2 hPa 0,0 l/m 1,9 km/h (1 Bft) SW 228 2 min 0,000 mm 0,0 UV-I 26 W/m 15,4 C 17,4 C 4,8 km/h (1 Bft) 100,00 %
12.07.2019 20:40 17,3 C 22,2 C 16,7 C 88 % 1010,2 hPa 0,0 l/m 1,6 km/h (1 Bft) SW 228 2 min 0,000 mm 0,0 UV-I 24 W/m 15,3 C 17,3 C 3,2 km/h (1 Bft) 100,00 %
12.07.2019 20:42 17,3 C 22,2 C 16,7 C 88 % 1010,2 hPa 0,0 l/m 0,8 km/h (0 Bft) SW 228 2 min 0,000 mm 0,0 UV-I 21 W/m 15,3 C 17,3 C 1,6 km/h (1 Bft) 100,00 %
12.07.2019 20:44 17,2 C 22,2 C 16,7 C 88 % 1010,2 hPa 0,0 l/m 3,3 km/h (1 Bft) SW 228 2 min 0,000 mm 0,0 UV-I 19 W/m 15,2 C 17,2 C 4,8 km/h (1 Bft) 97,87 %
12.07.2019 20:46 17,1 C 22,2 C 16,1 C 88 % 1010,2 hPa 0,0 l/m 0,9 km/h (0 Bft) SW 228 2 min 0,000 mm 0,0 UV-I 18 W/m 15,1 C 17,1 C 3,2 km/h (1 Bft) 97,87 %
12.07.2019 20:48 17,1 C 21,7 C 16,1 C 88 % 1010,1 hPa 0,0 l/m 0,8 km/h (0 Bft) SW 228 2 min 0,000 mm 0,0 UV-I 16 W/m 15,1 C 17,1 C 1,6 km/h (1 Bft) 98,00 %
12.07.2019 20:50 17,0 C 21,7 C 16,1 C 89 % 1010,2 hPa 0,0 l/m 1,1 km/h (1 Bft) SW 228 0 min 0,000 mm 0,0 UV-I 14 W/m 15,2 C 17,0 C 3,2 km/h (1 Bft) 100,00 %
12.07.2019 20:52 16,9 C 21,7 C 15,6 C 89 % 1010,2 hPa 0,0 l/m 2,2 km/h (1 Bft) SW 228 0 min 0,000 mm 0,0 UV-I 13 W/m 15,1 C 16,9 C 3,2 km/h (1 Bft) 97,87 %
12.07.2019 20:54 16,8 C 21,7 C 15,6 C 89 % 1010,2 hPa 0,0 l/m 2,6 km/h (1 Bft) SW 228 0 min 0,000 mm 0,0 UV-I 12 W/m 15,0 C 16,8 C 4,8 km/h (1 Bft) 95,74 %
12.07.2019 20:56 16,7 C 21,7 C 15,6 C 89 % 1010,2 hPa 0,0 l/m 3,1 km/h (1 Bft) SW 228 0 min 0,000 mm 0,0 UV-I 11 W/m 14,9 C 16,7 C 4,8 km/h (1 Bft) 97,87 %
12.07.2019 20:59 16,6 C 21,7 C 15,6 C 90 % 1010,1 hPa 0,0 l/m 2,9 km/h (1 Bft) S 175 0 min 0,000 mm 0,0 UV-I 9 W/m 15,0 C 16,6 C 4,8 km/h (1 Bft) 96,72 %
12.07.2019 21:00 16,6 C 21,7 C 15,6 C 90 % 1010,1 hPa 0,0 l/m 2,5 km/h (1 Bft) S 175 0 min 0,000 mm 0,0 UV-I 7 W/m 15,0 C 16,6 C 3,2 km/h (1 Bft) 96,30 %
12.07.2019 21:02 16,6 C 21,7 C 15,6 C 90 % 1010,1 hPa 0,0 l/m 3,4 km/h (1 Bft) S 172 0 min 0,025 mm 0,0 UV-I 7 W/m 15,0 C 16,6 C 4,8 km/h (1 Bft) 97,87 %
12.07.2019 21:04 16,5 C 21,7 C 15,6 C 90 % 1010,2 hPa 0,0 l/m 2,2 km/h (1 Bft) S 172 0 min 0,000 mm 0,0 UV-I 6 W/m 14,9 C 16,5 C 3,2 km/h (1 Bft) 97,87 %
12.07.2019 21:06 16,4 C 21,7 C 15,6 C 91 % 1010,2 hPa 0,0 l/m 4,2 km/h (1 Bft) S 169 0 min 0,000 mm 0,0 UV-I 5 W/m 14,9 C 16,4 C 6,4 km/h (2 Bft) 95,74 %
12.07.2019 21:08 16,3 C 21,7 C 15,6 C 91 % 1010,2 hPa 0,0 l/m 4,9 km/h (1 Bft) S 184 0 min 0,000 mm 0,0 UV-I 5 W/m 14,8 C 16,3 C 9,7 km/h (2 Bft) 98,11 %
12.07.2019 21:10 16,3 C 21,7 C 15,6 C 91 % 1010,2 hPa 0,0 l/m 3,4 km/h (1 Bft) S 184 0 min 0,000 mm 0,0 UV-I 5 W/m 14,8 C 16,3 C 6,4 km/h (2 Bft) 97,37 %
12.07.2019 21:12 16,3 C 21,7 C 15,6 C 91 % 1010,2 hPa 0,0 l/m 3,0 km/h (1 Bft) S 184 0 min 0,000 mm 0,0 UV-I 5 W/m 14,8 C 16,3 C 6,4 km/h (2 Bft) 98,00 %
12.07.2019 21:14 16,3 C 21,7 C 15,6 C 91 % 1010,2 hPa 0,0 l/m 3,9 km/h (1 Bft) S 182 0 min 0,000 mm 0,0 UV-I 2 W/m 14,8 C 16,3 C 6,4 km/h (2 Bft) 95,74 %
12.07.2019 21:16 16,3 C 21,7 C 15,6 C 91 % 1010,3 hPa 0,0 l/m 3,0 km/h (1 Bft) S 182 0 min 0,000 mm 0,0 UV-I 0 W/m 14,8 C 16,3 C 4,8 km/h (1 Bft) 95,74 %
12.07.2019 21:18 16,3 C 21,7 C 15,6 C 91 % 1010,3 hPa 0,0 l/m 2,3 km/h (1 Bft) S 186 0 min 0,000 mm 0,0 UV-I 0 W/m 14,8 C 16,3 C 4,8 km/h (1 Bft) 95,74 %
12.07.2019 21:20 16,3 C 21,7 C 15,6 C 91 % 1010,3 hPa 0,0 l/m 3,9 km/h (1 Bft) S-SW 207 0 min 0,000 mm 0,0 UV-I 0 W/m 14,8 C 16,3 C 9,7 km/h (2 Bft) 93,62 %
12.07.2019 21:22 16,3 C 21,7 C 15,6 C 91 % 1010,4 hPa 0,0 l/m 3,3 km/h (1 Bft) S-SW 196 0 min 0,000 mm 0,0 UV-I 0 W/m 14,8 C 16,3 C 6,4 km/h (2 Bft) 98,00 %
12.07.2019 21:24 16,3 C 21,7 C 15,0 C 91 % 1010,4 hPa 0,0 l/m 2,2 km/h (1 Bft) S-SW 196 0 min 0,000 mm 0,0 UV-I 0 W/m 14,8 C 16,3 C 3,2 km/h (1 Bft) 97,87 %
12.07.2019 21:26 16,2 C 21,7 C 15,0 C 90 % 1010,4 hPa 0,0 l/m 2,1 km/h (1 Bft) S-SW 196 0 min 0,000 mm 0,0 UV-I 0 W/m 14,6 C 16,2 C 4,8 km/h (1 Bft) 97,62 %
12.07.2019 21:29 16,2 C 21,7 C 15,0 C 90 % 1010,4 hPa 0,0 l/m 3,5 km/h (1 Bft) S-SW 192 0 min 0,000 mm 0,0 UV-I 0 W/m 14,6 C 16,2 C 6,4 km/h (2 Bft) 98,57 %
12.07.2019 21:30 16,2 C 21,7 C 15,0 C 90 % 1010,4 hPa 0,0 l/m 4,5 km/h (1 Bft) S-SW 192 0 min 0,000 mm 0,0 UV-I 0 W/m 14,6 C 16,2 C 6,4 km/h (2 Bft) 95,83 %
12.07.2019 21:32 16,1 C 21,7 C 15,0 C 90 % 1010,4 hPa 0,0 l/m 3,6 km/h (1 Bft) S-SW 192 0 min 0,000 mm 0,0 UV-I 0 W/m 14,5 C 16,1 C 4,8 km/h (1 Bft) 89,36 %
12.07.2019 21:34 16,1 C 21,7 C 15,0 C 90 % 1010,4 hPa 0,0 l/m 3,0 km/h (1 Bft) S-SW 192 0 min 0,000 mm 0,0 UV-I 0 W/m 14,5 C 16,1 C 4,8 km/h (1 Bft) 95,74 %
12.07.2019 21:36 16,1 C 21,7 C 15,0 C 90 % 1010,4 hPa 0,0 l/m 3,7 km/h (1 Bft) S-SW 192 0 min 0,000 mm 0,0 UV-I 0 W/m 14,5 C 16,1 C 6,4 km/h (2 Bft) 98,00 %
12.07.2019 21:38 16,1 C 21,7 C 15,0 C 90 % 1010,3 hPa 0,0 l/m 4,4 km/h (1 Bft) S 175 0 min 0,000 mm 0,0 UV-I 0 W/m 14,5 C 16,1 C 6,4 km/h (2 Bft) 94,00 %
12.07.2019 21:40 16,0 C 21,7 C 15,0 C 90 % 1010,3 hPa 0,0 l/m 4,3 km/h (1 Bft) S 174 0 min 0,000 mm 0,0 UV-I 0 W/m 14,4 C 16,0 C 6,4 km/h (2 Bft) 88,57 %
12.07.2019 21:42 16,0 C 21,7 C 15,6 C 90 % 1010,3 hPa 0,0 l/m 3,5 km/h (1 Bft) S 174 0 min 0,000 mm 0,0 UV-I 0 W/m 14,4 C 16,0 C 8,0 km/h (2 Bft) 96,00 %
12.07.2019 21:44 15,9 C 21,7 C 15,0 C 90 % 1010,4 hPa 0,0 l/m 3,2 km/h (1 Bft) S 186 0 min 0,000 mm 0,0 UV-I 0 W/m 14,3 C 15,9 C 4,8 km/h (1 Bft) 93,62 %
12.07.2019 21:46 15,8 C 21,7 C 15,0 C 90 % 1010,4 hPa 0,0 l/m 2,9 km/h (1 Bft) S 187 0 min 0,000 mm 0,0 UV-I 0 W/m 14,2 C 15,8 C 4,8 km/h (1 Bft) 91,49 %
12.07.2019 21:48 15,8 C 21,7 C 15,0 C 90 % 1010,5 hPa 0,0 l/m 3,2 km/h (1 Bft) S 187 0 min 0,000 mm 0,0 UV-I 0 W/m 14,2 C 15,8 C 4,8 km/h (1 Bft) 95,74 %
12.07.2019 21:50 15,8 C 21,7 C 15,0 C 90 % 1010,5 hPa 0,0 l/m 3,5 km/h (1 Bft) S 187 0 min 0,000 mm 0,0 UV-I 0 W/m 14,2 C 15,8 C 6,4 km/h (2 Bft) 95,74 %
12.07.2019 21:52 15,7 C 21,7 C 15,0 C 90 % 1010,5 hPa 0,0 l/m 3,1 km/h (1 Bft) S 186 0 min 0,000 mm 0,0 UV-I 0 W/m 14,1 C 15,7 C 6,4 km/h (2 Bft) 91,49 %
12.07.2019 21:54 15,7 C 21,7 C 15,0 C 90 % 1010,5 hPa 0,0 l/m 2,6 km/h (1 Bft) S 186 0 min 0,000 mm 0,0 UV-I 0 W/m 14,1 C 15,7 C 4,8 km/h (1 Bft) 95,74 %
12.07.2019 21:56 15,7 C 21,7 C 15,0 C 90 % 1010,4 hPa 0,0 l/m 3,0 km/h (1 Bft) S 186 0 min 0,000 mm 0,0 UV-I 0 W/m 14,1 C 15,7 C 6,4 km/h (2 Bft) 94,00 %
12.07.2019 21:58 15,6 C 21,7 C 15,0 C 90 % 1010,5 hPa 0,0 l/m 3,0 km/h (1 Bft) S 186 0 min 0,000 mm 0,0 UV-I 0 W/m 14,0 C 15,6 C 4,8 km/h (1 Bft) 97,87 %
12.07.2019 22:00 15,5 C 21,7 C 15,0 C 91 % 1010,5 hPa 0,0 l/m 3,6 km/h (1 Bft) S 186 0 min 0,000 mm 0,0 UV-I 0 W/m 14,0 C 15,5 C 4,8 km/h (1 Bft) 98,00 %
12.07.2019 22:02 15,4 C 21,7 C 15,0 C 91 % 1010,5 hPa 0,0 l/m 4,0 km/h (1 Bft) S 188 0 min 0,000 mm 0,0 UV-I 0 W/m 13,9 C 15,4 C 6,4 km/h (2 Bft) 95,74 %
12.07.2019 22:04 15,4 C 21,7 C 15,0 C 91 % 1010,5 hPa 0,0 l/m 3,6 km/h (1 Bft) S-SW 201 0 min 0,000 mm 0,0 UV-I 0 W/m 13,9 C 15,4 C 6,4 km/h (2 Bft) 95,74 %
12.07.2019 22:06 15,4 C 21,7 C 15,0 C 91 % 1010,5 hPa 0,0 l/m 3,3 km/h (1 Bft) S-SW 201 0 min 0,000 mm 0,0 UV-I 0 W/m 13,9 C 15,4 C 4,8 km/h (1 Bft) 95,74 %
12.07.2019 22:09 15,3 C 21,7 C 15,0 C 91 % 1010,6 hPa 0,0 l/m 3,0 km/h (1 Bft) S-SW 201 0 min 0,000 mm 0,0 UV-I 0 W/m 13,8 C 15,3 C 4,8 km/h (1 Bft) 98,59 %
12.07.2019 22:10 15,3 C 21,7 C 15,0 C 91 % 1010,6 hPa 0,0 l/m 3,6 km/h (1 Bft) S-SW 200 0 min 0,000 mm 0,0 UV-I 0 W/m 13,8 C 15,3 C 4,8 km/h (1 Bft) 91,67 %
12.07.2019 22:12 15,3 C 21,7 C 15,0 C 91 % 1010,6 hPa 0,0 l/m 3,7 km/h (1 Bft) S-SW 199 0 min 0,000 mm 0,0 UV-I 0 W/m 13,8 C 15,3 C 6,4 km/h (2 Bft) 97,87 %
12.07.2019 22:14 15,2 C 21,7 C 15,0 C 91 % 1010,7 hPa 0,0 l/m 3,9 km/h (1 Bft) S-SW 199 0 min 0,000 mm 0,0 UV-I 0 W/m 13,7 C 15,2 C 6,4 km/h (2 Bft) 98,00 %
12.07.2019 22:16 15,2 C 21,7 C 15,0 C 91 % 1010,7 hPa 0,0 l/m 3,1 km/h (1 Bft) S-SW 199 0 min 0,000 mm 0,0 UV-I 0 W/m 13,7 C 15,2 C 4,8 km/h (1 Bft) 95,74 %
12.07.2019 22:18 15,3 C 21,7 C 15,0 C 91 % 1010,7 hPa 0,0 l/m 2,6 km/h (1 Bft) S-SW 199 0 min 0,000 mm 0,0 UV-I 0 W/m 13,8 C 15,3 C 3,2 km/h (1 Bft) 97,87 %
12.07.2019 22:20 15,3 C 21,7 C 15,0 C 91 % 1010,7 hPa 0,0 l/m 1,3 km/h (1 Bft) S-SW 199 0 min 0,000 mm 0,0 UV-I 0 W/m 13,8 C 15,3 C 3,2 km/h (1 Bft) 97,87 %
12.07.2019 22:22 15,3 C 21,7 C 15,0 C 91 % 1010,6 hPa 0,0 l/m 2,4 km/h (1 Bft) S-SW 199 0 min 0,000 mm 0,0 UV-I 0 W/m 13,8 C 15,3 C 3,2 km/h (1 Bft) 97,87 %
12.07.2019 22:24 15,3 C 21,7 C 15,0 C 91 % 1010,6 hPa 0,0 l/m 3,4 km/h (1 Bft) S-SW 199 0 min 0,000 mm 0,0 UV-I 0 W/m 13,8 C 15,3 C 4,8 km/h (1 Bft) 97,87 %
12.07.2019 22:26 15,3 C 21,7 C 15,0 C 91 % 1010,6 hPa 0,0 l/m 2,9 km/h (1 Bft) S-SW 199 0 min 0,000 mm 0,0 UV-I 0 W/m 13,8 C 15,3 C 4,8 km/h (1 Bft) 97,87 %
12.07.2019 22:29 15,2 C 21,7 C 15,0 C 91 % 1010,6 hPa 0,0 l/m 2,2 km/h (1 Bft) S-SW 199 0 min 0,000 mm 0,0 UV-I 0 W/m 13,7 C 15,2 C 4,8 km/h (1 Bft) 97,18 %
12.07.2019 22:30 15,2 C 21,7 C 15,0 C 92 % 1010,6 hPa 0,0 l/m 2,9 km/h (1 Bft) S-SW 199 0 min 0,000 mm 0,0 UV-I 0 W/m 13,9 C 15,2 C 4,8 km/h (1 Bft) 100,00 %
12.07.2019 22:32 15,2 C 21,7 C 15,0 C 91 % 1010,6 hPa 0,0 l/m 2,1 km/h (1 Bft) S-SW 199 0 min 0,000 mm 0,0 UV-I 0 W/m 13,7 C 15,2 C 3,2 km/h (1 Bft) 100,00 %
12.07.2019 22:34 15,2 C 21,7 C 15,0 C 91 % 1010,6 hPa 0,0 l/m 2,3 km/h (1 Bft) S-SW 199 0 min 0,000 mm 0,0 UV-I 0 W/m 13,7 C 15,2 C 3,2 km/h (1 Bft) 100,00 %
12.07.2019 22:36 15,2 C 21,7 C 15,0 C 91 % 1010,6 hPa 0,0 l/m 2,8 km/h (1 Bft) S-SW 199 0 min 0,000 mm 0,0 UV-I 0 W/m 13,7 C 15,2 C 3,2 km/h (1 Bft) 100,00 %
12.07.2019 22:38 15,2 C 21,7 C 15,0 C 91 % 1010,6 hPa 0,0 l/m 2,3 km/h (1 Bft) S-SW 199 0 min 0,000 mm 0,0 UV-I 0 W/m 13,7 C 15,2 C 3,2 km/h (1 Bft) 100,00 %
12.07.2019 22:40 15,2 C 21,7 C 15,0 C 91 % 1010,5 hPa 0,0 l/m 2,4 km/h (1 Bft) S-SW 199 0 min 0,000 mm 0,0 UV-I 0 W/m 13,7 C 15,2 C 3,2 km/h (1 Bft) 98,00 %
12.07.2019 22:42 15,3 C 21,7 C 15,0 C 91 % 1010,5 hPa 0,0 l/m 1,8 km/h (1 Bft) S-SW 199 0 min 0,000 mm 0,0 UV-I 0 W/m 13,8 C 15,3 C 3,2 km/h (1 Bft) 100,00 %
12.07.2019 22:44 15,3 C 21,7 C 15,0 C 91 % 1010,5 hPa 0,0 l/m 1,6 km/h (1 Bft) S-SW 199 0 min 0,000 mm 0,0 UV-I 0 W/m 13,8 C 15,3 C 3,2 km/h (1 Bft) 100,00 %
12.07.2019 22:46 15,3 C 21,7 C 15,0 C 91 % 1010,5 hPa 0,0 l/m 2,6 km/h (1 Bft) S-SW 199 0 min 0,000 mm 0,0 UV-I 0 W/m 13,8 C 15,3 C 3,2 km/h (1 Bft) 97,87 %
12.07.2019 22:48 15,2 C 21,7 C 15,0 C 91 % 1010,5 hPa 0,0 l/m 2,9 km/h (1 Bft) S-SW 199 0 min 0,000 mm 0,0 UV-I 0 W/m 13,7 C 15,2 C 4,8 km/h (1 Bft) 95,74 %
12.07.2019 22:50 15,2 C 21,7 C 15,0 C 91 % 1010,5 hPa 0,0 l/m 3,0 km/h (1 Bft) S-SW 199 0 min 0,000 mm 0,0 UV-I 0 W/m 13,7 C 15,2 C 4,8 km/h (1 Bft) 100,00 %
12.07.2019 22:52 15,2 C 21,7 C 15,0 C 91 % 1010,5 hPa 0,0 l/m 2,7 km/h (1 Bft) S-SW 199 0 min 0,000 mm 0,0 UV-I 0 W/m 13,7 C 15,2 C 4,8 km/h (1 Bft) 100,00 %
12.07.2019 22:54 15,1 C 21,7 C 15,0 C 91 % 1010,5 hPa 0,0 l/m 2,7 km/h (1 Bft) S-SW 199 0 min 0,000 mm 0,0 UV-I 0 W/m 13,6 C 15,1 C 4,8 km/h (1 Bft) 100,00 %
12.07.2019 22:56 15,0 C 21,7 C 14,4 C 92 % 1010,4 hPa 0,0 l/m 4,2 km/h (1 Bft) S-SW 199 0 min 0,000 mm 0,0 UV-I 0 W/m 13,7 C 15,0 C 6,4 km/h (2 Bft) 100,00 %
12.07.2019 22:58 15,0 C 21,7 C 14,4 C 92 % 1010,4 hPa 0,0 l/m 4,0 km/h (1 Bft) S-SW 200 0 min 0,000 mm 0,0 UV-I 0 W/m 13,7 C 15,0 C 6,4 km/h (2 Bft) 93,62 %
12.07.2019 23:00 14,9 C 21,7 C 14,4 C 92 % 1010,4 hPa 0,0 l/m 4,2 km/h (1 Bft) S-SW 200 0 min 0,000 mm 0,0 UV-I 0 W/m 13,6 C 14,9 C 6,4 km/h (2 Bft) 93,62 %
12.07.2019 23:02 15,0 C 21,7 C 14,4 C 91 % 1010,4 hPa 0,0 l/m 4,7 km/h (1 Bft) S-SW 200 0 min 0,000 mm 0,0 UV-I 0 W/m 13,5 C 15,0 C 6,4 km/h (2 Bft) 95,74 %
12.07.2019 23:04 14,9 C 21,7 C 14,4 C 91 % 1010,4 hPa 0,0 l/m 4,8 km/h (1 Bft) S-SW 204 0 min 0,000 mm 0,0 UV-I 0 W/m 13,4 C 14,9 C 6,4 km/h (2 Bft) 93,62 %
12.07.2019 23:06 14,9 C 21,7 C 14,4 C 91 % 1010,4 hPa 0,0 l/m 4,9 km/h (1 Bft) S-SW 197 0 min 0,000 mm 0,0 UV-I 0 W/m 13,4 C 14,9 C 6,4 km/h (2 Bft) 96,23 %
12.07.2019 23:08 15,0 C 21,7 C 14,4 C 91 % 1010,3 hPa 0,0 l/m 4,5 km/h (1 Bft) S-SW 209 0 min 0,000 mm 0,0 UV-I 0 W/m 13,5 C 15,0 C 6,4 km/h (2 Bft) 94,74 %
12.07.2019 23:10 14,9 C 21,7 C 15,0 C 91 % 1010,3 hPa 0,0 l/m 4,0 km/h (1 Bft) S-SW 209 0 min 0,000 mm 0,0 UV-I 0 W/m 13,4 C 14,9 C 4,8 km/h (1 Bft) 95,74 %
12.07.2019 23:12 14,9 C 21,7 C 15,0 C 91 % 1010,3 hPa 0,0 l/m 4,5 km/h (1 Bft) S-SW 209 0 min 0,000 mm 0,0 UV-I 0 W/m 13,4 C 14,9 C 6,4 km/h (2 Bft) 95,74 %
12.07.2019 23:14 14,9 C 21,7 C 15,0 C 91 % 1010,3 hPa 0,0 l/m 3,6 km/h (1 Bft) S-SW 209 0 min 0,000 mm 0,0 UV-I 0 W/m 13,4 C 14,9 C 4,8 km/h (1 Bft) 94,34 %
12.07.2019 23:16 14,9 C 21,7 C 14,4 C 91 % 1010,4 hPa 0,0 l/m 3,7 km/h (1 Bft) S-SW 209 0 min 0,000 mm 0,0 UV-I 0 W/m 13,4 C 14,9 C 4,8 km/h (1 Bft) 95,74 %
12.07.2019 23:18 15,0 C 21,7 C 14,4 C 91 % 1010,4 hPa 0,0 l/m 3,5 km/h (1 Bft) S-SW 209 0 min 0,000 mm 0,0 UV-I 0 W/m 13,5 C 15,0 C 4,8 km/h (1 Bft) 93,62 %
12.07.2019 23:20 15,0 C 21,7 C 14,4 C 91 % 1010,3 hPa 0,0 l/m 2,6 km/h (1 Bft) S-SW 209 0 min 0,000 mm 0,0 UV-I 0 W/m 13,5 C 15,0 C 4,8 km/h (1 Bft) 93,75 %
12.07.2019 23:22 14,9 C 21,7 C 14,4 C 90 % 1010,3 hPa 0,0 l/m 2,5 km/h (1 Bft) S-SW 209 0 min 0,000 mm 0,0 UV-I 0 W/m 13,3 C 14,9 C 4,8 km/h (1 Bft) 95,74 %
12.07.2019 23:24 14,9 C 21,7 C 14,4 C 90 % 1010,3 hPa 0,0 l/m 3,9 km/h (1 Bft) S-SW 209 0 min 0,000 mm 0,0 UV-I 0 W/m 13,3 C 14,9 C 6,4 km/h (2 Bft) 97,87 %
12.07.2019 23:26 14,8 C 21,7 C 14,4 C 91 % 1010,4 hPa 0,0 l/m 4,4 km/h (1 Bft) S-SW 209 0 min 0,000 mm 0,0 UV-I 0 W/m 13,3 C 14,8 C 6,4 km/h (2 Bft) 95,74 %
12.07.2019 23:28 14,8 C 21,7 C 14,4 C 91 % 1010,3 hPa 0,0 l/m 5,3 km/h (1 Bft) S-SW 199 0 min 0,000 mm 0,0 UV-I 0 W/m 13,3 C 14,8 C 9,7 km/h (2 Bft) 97,87 %
12.07.2019 23:30 14,8 C 21,7 C 14,4 C 90 % 1010,3 hPa 0,0 l/m 5,3 km/h (1 Bft) S-SW 195 0 min 0,000 mm 0,0 UV-I 0 W/m 13,2 C 14,8 C 8,0 km/h (2 Bft) 96,00 %
12.07.2019 23:32 14,9 C 21,7 C 14,4 C 90 % 1010,3 hPa 0,0 l/m 4,3 km/h (1 Bft) S-SW 199 0 min 0,000 mm 0,0 UV-I 0 W/m 13,3 C 14,9 C 6,4 km/h (2 Bft) 100,00 %
12.07.2019 23:34 14,9 C 21,7 C 14,4 C 90 % 1010,3 hPa 0,0 l/m 5,0 km/h (1 Bft) S-SW 203 0 min 0,000 mm 0,0 UV-I 0 W/m 13,3 C 14,9 C 8,0 km/h (2 Bft) 95,74 %
12.07.2019 23:36 14,9 C 21,7 C 14,4 C 89 % 1010,3 hPa 0,0 l/m 4,7 km/h (1 Bft) S-SW 203 0 min 0,000 mm 0,0 UV-I 0 W/m 13,1 C 14,9 C 8,0 km/h (2 Bft) 100,00 %
12.07.2019 23:38 14,9 C 21,7 C 14,4 C 89 % 1010,3 hPa 0,0 l/m 4,3 km/h (1 Bft) S-SW 199 0 min 0,000 mm 0,0 UV-I 0 W/m 13,1 C 14,9 C 8,0 km/h (2 Bft) 98,00 %
12.07.2019 23:40 14,9 C 21,7 C 14,4 C 89 % 1010,3 hPa 0,0 l/m 5,0 km/h (1 Bft) S-SW 199 0 min 0,000 mm 0,0 UV-I 0 W/m 13,1 C 14,9 C 6,4 km/h (2 Bft) 97,87 %
12.07.2019 23:42 14,9 C 21,7 C 14,4 C 89 % 1010,3 hPa 0,0 l/m 4,9 km/h (1 Bft) S-SW 209 0 min 0,000 mm 0,0 UV-I 0 W/m 13,1 C 14,9 C 8,0 km/h (2 Bft) 100,00 %
12.07.2019 23:44 15,0 C 21,7 C 15,0 C 89 % 1010,3 hPa 0,0 l/m 4,7 km/h (1 Bft) S-SW 206 0 min 0,000 mm 0,0 UV-I 0 W/m 13,2 C 15,0 C 8,0 km/h (2 Bft) 98,00 %
12.07.2019 23:46 15,1 C 21,7 C 15,0 C 89 % 1010,3 hPa 0,0 l/m 4,5 km/h (1 Bft) S-SW 211 0 min 0,000 mm 0,0 UV-I 0 W/m 13,3 C 15,1 C 6,4 km/h (2 Bft) 100,00 %
12.07.2019 23:48 15,1 C 21,7 C 15,0 C 89 % 1010,3 hPa 0,0 l/m 3,7 km/h (1 Bft) S-SW 209 0 min 0,000 mm 0,0 UV-I 0 W/m 13,3 C 15,1 C 6,4 km/h (2 Bft) 97,87 %
12.07.2019 23:50 15,1 C 21,7 C 15,0 C 89 % 1010,3 hPa 0,0 l/m 4,6 km/h (1 Bft) S-SW 198 0 min 0,000 mm 0,0 UV-I 0 W/m 13,3 C 15,1 C 8,0 km/h (2 Bft) 100,00 %
12.07.2019 23:52 15,1 C 21,7 C 15,0 C 88 % 1010,4 hPa 0,0 l/m 6,0 km/h (2 Bft) S-SW 195 0 min 0,000 mm 0,0 UV-I 0 W/m 13,1 C 15,1 C 9,7 km/h (2 Bft) 97,87 %
12.07.2019 23:54 15,0 C 21,7 C 15,0 C 89 % 1010,4 hPa 0,0 l/m 5,6 km/h (1 Bft) S-SW 203 0 min 0,000 mm 0,0 UV-I 0 W/m 13,2 C 15,0 C 6,4 km/h (2 Bft) 100,00 %
12.07.2019 23:56 15,0 C 21,7 C 15,0 C 89 % 1010,4 hPa 0,0 l/m 5,2 km/h (1 Bft) S-SW 204 0 min 0,000 mm 0,0 UV-I 0 W/m 13,2 C 15,0 C 8,0 km/h (2 Bft) 95,74 %
12.07.2019 23:58 14,9 C 21,7 C 14,4 C 89 % 1010,4 hPa 0,0 l/m 5,1 km/h (1 Bft) S-SW 192 0 min 0,000 mm 0,0 UV-I 0 W/m 13,1 C 14,9 C 8,0 km/h (2 Bft) 100,00 %
_ Min-Zeit 03:16 03:54 03:08 13:10 19:38 - 20:42 - - - - - - 13:18 16:44 20:42 21:40
Minimum _ 13,9 C 21,1 C 13,9 C 57 % 1009,8 hPa - 0,8 km/h (0 Bft) - - - - - - 13,0 C 11,3 C 1,6 km/h (1 Bft) 88,57 %
_ Max-Zeit 12:46 12:32 12:44 05:04 00:04 16:38 16:04 - - 09:20 12:02 12:40 11:50 14:14 12:44 16:06 00:00
Maximum _ 22,8 C 22,2 C 38,9 C 96 % 1013,8 hPa 0,4 l/m 27,1 km/h
W (4 Bft)
- - 2 min 0,431 mm 5,5 UV-I 1125 W/m 15,9 C 22,6 C 45,1 km/h
W-NW (6 Bft)
100,00 %
Durchschnitt _ 16,8 C 21,7 C 19,0 C 85 % 1011,7 hPa #3,4 l/m 7,0 km/h (2 Bft) W-SW - #4:18 h #2,692 mm 2,0 UV-I 264 W/m 14,2 C 16,2 C 11,6 km/h (2 Bft) 97,19 %